<?xml version="1.0" encoding="UTF-8" standalone="no" ?>
<gpx xmlns="http://www.topografix.com/GPX/1/1" xmlns:xsi="http://www.w3.org/2001/XMLSchema-instance" xsi:schemaLocation="http://www.topografix.com/GPX/1/1 http://www.topografix.com/GPX/1/1/gpx.xsd" version="1.1" creator="VisuGPX - https://www.visugpx.com">
  <metadata>
    <name>Orvault Saint Herblain</name>
    <desc><![CDATA[Rando dans les sous bois d'Orvault et de Saint Herblain]]></desc>
  </metadata>
  <trk>
    <name><![CDATA[2016-11-08-01]]></name>
    <trkseg>
      <trkpt lat="47.27026" lon="-1.62394">
        <ele>28.1</ele>
        <time>2016-11-08T07:45:15Z</time>
      </trkpt>
      <trkpt lat="47.27026" lon="-1.62394">
        <ele>28.1</ele>
        <time>2016-11-08T07:45:16Z</time>
      </trkpt>
      <trkpt lat="47.27023" lon="-1.62405">
        <ele>28.5</ele>
        <time>2016-11-08T07:45:53Z</time>
      </trkpt>
      <trkpt lat="47.27017" lon="-1.62413">
        <ele>28.5</ele>
        <time>2016-11-08T07:46:08Z</time>
      </trkpt>
      <trkpt lat="47.27011" lon="-1.6242">
        <ele>28.5</ele>
        <time>2016-11-08T07:46:17Z</time>
      </trkpt>
      <trkpt lat="47.27003" lon="-1.62424">
        <ele>28.5</ele>
        <time>2016-11-08T07:46:24Z</time>
      </trkpt>
      <trkpt lat="47.26995" lon="-1.62425">
        <ele>28.5</ele>
        <time>2016-11-08T07:46:31Z</time>
      </trkpt>
      <trkpt lat="47.26987" lon="-1.62429">
        <ele>28.4</ele>
        <time>2016-11-08T07:46:37Z</time>
      </trkpt>
      <trkpt lat="47.2698" lon="-1.6243">
        <ele>28</ele>
        <time>2016-11-08T07:46:42Z</time>
      </trkpt>
      <trkpt lat="47.26972" lon="-1.62429">
        <ele>27.4</ele>
        <time>2016-11-08T07:46:48Z</time>
      </trkpt>
      <trkpt lat="47.26964" lon="-1.62428">
        <ele>26.9</ele>
        <time>2016-11-08T07:46:53Z</time>
      </trkpt>
      <trkpt lat="47.26956" lon="-1.62428">
        <ele>26.4</ele>
        <time>2016-11-08T07:46:59Z</time>
      </trkpt>
      <trkpt lat="47.26951" lon="-1.62438">
        <ele>25.5</ele>
        <time>2016-11-08T07:47:07Z</time>
      </trkpt>
      <trkpt lat="47.26947" lon="-1.62447">
        <ele>24.8</ele>
        <time>2016-11-08T07:47:14Z</time>
      </trkpt>
      <trkpt lat="47.2694" lon="-1.6245">
        <ele>24.2</ele>
        <time>2016-11-08T07:47:24Z</time>
      </trkpt>
      <trkpt lat="47.26933" lon="-1.62446">
        <ele>23.7</ele>
        <time>2016-11-08T07:47:31Z</time>
      </trkpt>
      <trkpt lat="47.26925" lon="-1.62444">
        <ele>23.2</ele>
        <time>2016-11-08T07:47:38Z</time>
      </trkpt>
      <trkpt lat="47.26917" lon="-1.62442">
        <ele>22.3</ele>
        <time>2016-11-08T07:47:45Z</time>
      </trkpt>
      <trkpt lat="47.26909" lon="-1.62438">
        <ele>21.3</ele>
        <time>2016-11-08T07:47:51Z</time>
      </trkpt>
      <trkpt lat="47.26902" lon="-1.62436">
        <ele>20.8</ele>
        <time>2016-11-08T07:47:56Z</time>
      </trkpt>
      <trkpt lat="47.26894" lon="-1.62434">
        <ele>20.1</ele>
        <time>2016-11-08T07:48:01Z</time>
      </trkpt>
      <trkpt lat="47.26887" lon="-1.62432">
        <ele>19.6</ele>
        <time>2016-11-08T07:48:06Z</time>
      </trkpt>
      <trkpt lat="47.26879" lon="-1.62432">
        <ele>18.8</ele>
        <time>2016-11-08T07:48:13Z</time>
      </trkpt>
      <trkpt lat="47.2687" lon="-1.62428">
        <ele>18.2</ele>
        <time>2016-11-08T07:48:21Z</time>
      </trkpt>
      <trkpt lat="47.26862" lon="-1.62423">
        <ele>17.7</ele>
        <time>2016-11-08T07:48:27Z</time>
      </trkpt>
      <trkpt lat="47.26855" lon="-1.62417">
        <ele>17.1</ele>
        <time>2016-11-08T07:48:33Z</time>
      </trkpt>
      <trkpt lat="47.26848" lon="-1.62411">
        <ele>16.3</ele>
        <time>2016-11-08T07:48:39Z</time>
      </trkpt>
      <trkpt lat="47.26841" lon="-1.62407">
        <ele>15.5</ele>
        <time>2016-11-08T07:48:44Z</time>
      </trkpt>
      <trkpt lat="47.26834" lon="-1.62401">
        <ele>14.9</ele>
        <time>2016-11-08T07:48:50Z</time>
      </trkpt>
      <trkpt lat="47.26827" lon="-1.62396">
        <ele>14.1</ele>
        <time>2016-11-08T07:48:55Z</time>
      </trkpt>
      <trkpt lat="47.26821" lon="-1.62389">
        <ele>13.3</ele>
        <time>2016-11-08T07:49:01Z</time>
      </trkpt>
      <trkpt lat="47.26814" lon="-1.62383">
        <ele>12</ele>
        <time>2016-11-08T07:49:09Z</time>
      </trkpt>
      <trkpt lat="47.26808" lon="-1.62376">
        <ele>11.5</ele>
        <time>2016-11-08T07:49:12Z</time>
      </trkpt>
      <trkpt lat="47.26801" lon="-1.62373">
        <ele>10.3</ele>
        <time>2016-11-08T07:49:19Z</time>
      </trkpt>
      <trkpt lat="47.26795" lon="-1.62381">
        <ele>8.2</ele>
        <time>2016-11-08T07:49:28Z</time>
      </trkpt>
      <trkpt lat="47.26793" lon="-1.62392">
        <ele>7</ele>
        <time>2016-11-08T07:49:34Z</time>
      </trkpt>
      <trkpt lat="47.26792" lon="-1.62403">
        <ele>6.3</ele>
        <time>2016-11-08T07:49:40Z</time>
      </trkpt>
      <trkpt lat="47.2679" lon="-1.62414">
        <ele>5.9</ele>
        <time>2016-11-08T07:49:46Z</time>
      </trkpt>
      <trkpt lat="47.26788" lon="-1.62424">
        <ele>5.7</ele>
        <time>2016-11-08T07:49:52Z</time>
      </trkpt>
      <trkpt lat="47.26787" lon="-1.62436">
        <ele>4.8</ele>
        <time>2016-11-08T07:49:59Z</time>
      </trkpt>
      <trkpt lat="47.26786" lon="-1.62447">
        <ele>4.6</ele>
        <time>2016-11-08T07:50:08Z</time>
      </trkpt>
      <trkpt lat="47.26785" lon="-1.62458">
        <ele>4.6</ele>
        <time>2016-11-08T07:50:14Z</time>
      </trkpt>
      <trkpt lat="47.26784" lon="-1.62469">
        <ele>4.7</ele>
        <time>2016-11-08T07:50:20Z</time>
      </trkpt>
      <trkpt lat="47.26783" lon="-1.62481">
        <ele>4.6</ele>
        <time>2016-11-08T07:50:26Z</time>
      </trkpt>
      <trkpt lat="47.26781" lon="-1.62491">
        <ele>4.5</ele>
        <time>2016-11-08T07:50:31Z</time>
      </trkpt>
      <trkpt lat="47.2678" lon="-1.62503">
        <ele>4.3</ele>
        <time>2016-11-08T07:50:37Z</time>
      </trkpt>
      <trkpt lat="47.26777" lon="-1.62515">
        <ele>4.2</ele>
        <time>2016-11-08T07:50:43Z</time>
      </trkpt>
      <trkpt lat="47.26775" lon="-1.62525">
        <ele>4.1</ele>
        <time>2016-11-08T07:50:48Z</time>
      </trkpt>
      <trkpt lat="47.26776" lon="-1.62537">
        <ele>4.1</ele>
        <time>2016-11-08T07:50:54Z</time>
      </trkpt>
      <trkpt lat="47.26775" lon="-1.62548">
        <ele>4</ele>
        <time>2016-11-08T07:50:59Z</time>
      </trkpt>
      <trkpt lat="47.26774" lon="-1.6256">
        <ele>4</ele>
        <time>2016-11-08T07:51:04Z</time>
      </trkpt>
      <trkpt lat="47.26774" lon="-1.62572">
        <ele>4</ele>
        <time>2016-11-08T07:51:10Z</time>
      </trkpt>
      <trkpt lat="47.26774" lon="-1.62583">
        <ele>4</ele>
        <time>2016-11-08T07:51:15Z</time>
      </trkpt>
      <trkpt lat="47.26774" lon="-1.62594">
        <ele>3.9</ele>
        <time>2016-11-08T07:51:20Z</time>
      </trkpt>
      <trkpt lat="47.26772" lon="-1.62605">
        <ele>3.9</ele>
        <time>2016-11-08T07:51:25Z</time>
      </trkpt>
      <trkpt lat="47.26773" lon="-1.62615">
        <ele>3.8</ele>
        <time>2016-11-08T07:51:30Z</time>
      </trkpt>
      <trkpt lat="47.26772" lon="-1.62627">
        <ele>3.8</ele>
        <time>2016-11-08T07:51:35Z</time>
      </trkpt>
      <trkpt lat="47.26771" lon="-1.62639">
        <ele>3.8</ele>
        <time>2016-11-08T07:51:40Z</time>
      </trkpt>
      <trkpt lat="47.26772" lon="-1.62652">
        <ele>3.8</ele>
        <time>2016-11-08T07:51:46Z</time>
      </trkpt>
      <trkpt lat="47.26773" lon="-1.62663">
        <ele>3.8</ele>
        <time>2016-11-08T07:51:52Z</time>
      </trkpt>
      <trkpt lat="47.26775" lon="-1.62675">
        <ele>3.9</ele>
        <time>2016-11-08T07:51:58Z</time>
      </trkpt>
      <trkpt lat="47.26776" lon="-1.62687">
        <ele>4</ele>
        <time>2016-11-08T07:52:05Z</time>
      </trkpt>
      <trkpt lat="47.26775" lon="-1.62698">
        <ele>4.1</ele>
        <time>2016-11-08T07:52:10Z</time>
      </trkpt>
      <trkpt lat="47.26774" lon="-1.6271">
        <ele>4.2</ele>
        <time>2016-11-08T07:52:16Z</time>
      </trkpt>
      <trkpt lat="47.26774" lon="-1.62722">
        <ele>4.3</ele>
        <time>2016-11-08T07:52:21Z</time>
      </trkpt>
      <trkpt lat="47.26774" lon="-1.62735">
        <ele>4.4</ele>
        <time>2016-11-08T07:52:26Z</time>
      </trkpt>
      <trkpt lat="47.26773" lon="-1.62747">
        <ele>4.4</ele>
        <time>2016-11-08T07:52:30Z</time>
      </trkpt>
      <trkpt lat="47.26773" lon="-1.62759">
        <ele>4.6</ele>
        <time>2016-11-08T07:52:36Z</time>
      </trkpt>
      <trkpt lat="47.26774" lon="-1.6277">
        <ele>4.7</ele>
        <time>2016-11-08T07:52:41Z</time>
      </trkpt>
      <trkpt lat="47.26775" lon="-1.62782">
        <ele>4.8</ele>
        <time>2016-11-08T07:52:47Z</time>
      </trkpt>
      <trkpt lat="47.26777" lon="-1.62793">
        <ele>4.8</ele>
        <time>2016-11-08T07:52:53Z</time>
      </trkpt>
      <trkpt lat="47.26778" lon="-1.62805">
        <ele>4.8</ele>
        <time>2016-11-08T07:52:59Z</time>
      </trkpt>
      <trkpt lat="47.26781" lon="-1.62817">
        <ele>4.9</ele>
        <time>2016-11-08T07:53:05Z</time>
      </trkpt>
      <trkpt lat="47.26783" lon="-1.62828">
        <ele>4.9</ele>
        <time>2016-11-08T07:53:10Z</time>
      </trkpt>
      <trkpt lat="47.26783" lon="-1.62839">
        <ele>4.8</ele>
        <time>2016-11-08T07:53:15Z</time>
      </trkpt>
      <trkpt lat="47.26785" lon="-1.62851">
        <ele>4.8</ele>
        <time>2016-11-08T07:53:20Z</time>
      </trkpt>
      <trkpt lat="47.26786" lon="-1.62862">
        <ele>5</ele>
        <time>2016-11-08T07:53:25Z</time>
      </trkpt>
      <trkpt lat="47.26784" lon="-1.62874">
        <ele>5.2</ele>
        <time>2016-11-08T07:53:31Z</time>
      </trkpt>
      <trkpt lat="47.26781" lon="-1.62886">
        <ele>5</ele>
        <time>2016-11-08T07:53:37Z</time>
      </trkpt>
      <trkpt lat="47.26778" lon="-1.62897">
        <ele>5</ele>
        <time>2016-11-08T07:53:43Z</time>
      </trkpt>
      <trkpt lat="47.26776" lon="-1.62907">
        <ele>5.3</ele>
        <time>2016-11-08T07:53:49Z</time>
      </trkpt>
      <trkpt lat="47.26774" lon="-1.62919">
        <ele>5.6</ele>
        <time>2016-11-08T07:53:55Z</time>
      </trkpt>
      <trkpt lat="47.26772" lon="-1.6293">
        <ele>6</ele>
        <time>2016-11-08T07:54:02Z</time>
      </trkpt>
      <trkpt lat="47.2677" lon="-1.62942">
        <ele>5.9</ele>
        <time>2016-11-08T07:54:08Z</time>
      </trkpt>
      <trkpt lat="47.26768" lon="-1.62952">
        <ele>5.9</ele>
        <time>2016-11-08T07:54:13Z</time>
      </trkpt>
      <trkpt lat="47.26764" lon="-1.62964">
        <ele>5.9</ele>
        <time>2016-11-08T07:54:19Z</time>
      </trkpt>
      <trkpt lat="47.26762" lon="-1.62975">
        <ele>5.9</ele>
        <time>2016-11-08T07:54:24Z</time>
      </trkpt>
      <trkpt lat="47.26762" lon="-1.62987">
        <ele>5.9</ele>
        <time>2016-11-08T07:54:29Z</time>
      </trkpt>
      <trkpt lat="47.26765" lon="-1.62998">
        <ele>5.9</ele>
        <time>2016-11-08T07:54:35Z</time>
      </trkpt>
      <trkpt lat="47.2677" lon="-1.63007">
        <ele>6</ele>
        <time>2016-11-08T07:54:41Z</time>
      </trkpt>
      <trkpt lat="47.26775" lon="-1.63016">
        <ele>6</ele>
        <time>2016-11-08T07:54:48Z</time>
      </trkpt>
      <trkpt lat="47.26784" lon="-1.63019">
        <ele>6</ele>
        <time>2016-11-08T07:54:55Z</time>
      </trkpt>
      <trkpt lat="47.26792" lon="-1.63022">
        <ele>6</ele>
        <time>2016-11-08T07:55:02Z</time>
      </trkpt>
      <trkpt lat="47.26799" lon="-1.63025">
        <ele>6</ele>
        <time>2016-11-08T07:55:08Z</time>
      </trkpt>
      <trkpt lat="47.26806" lon="-1.63025">
        <ele>6</ele>
        <time>2016-11-08T07:55:13Z</time>
      </trkpt>
      <trkpt lat="47.26814" lon="-1.63025">
        <ele>6.2</ele>
        <time>2016-11-08T07:55:20Z</time>
      </trkpt>
      <trkpt lat="47.26819" lon="-1.63033">
        <ele>6.4</ele>
        <time>2016-11-08T07:55:30Z</time>
      </trkpt>
      <trkpt lat="47.26825" lon="-1.63041">
        <ele>6.6</ele>
        <time>2016-11-08T07:55:42Z</time>
      </trkpt>
      <trkpt lat="47.26828" lon="-1.63051">
        <ele>6.6</ele>
        <time>2016-11-08T07:55:50Z</time>
      </trkpt>
      <trkpt lat="47.26829" lon="-1.63062">
        <ele>6.6</ele>
        <time>2016-11-08T07:55:59Z</time>
      </trkpt>
      <trkpt lat="47.26831" lon="-1.63073">
        <ele>6.8</ele>
        <time>2016-11-08T07:56:06Z</time>
      </trkpt>
      <trkpt lat="47.26831" lon="-1.63085">
        <ele>7.2</ele>
        <time>2016-11-08T07:56:12Z</time>
      </trkpt>
      <trkpt lat="47.26832" lon="-1.63096">
        <ele>7.7</ele>
        <time>2016-11-08T07:56:17Z</time>
      </trkpt>
      <trkpt lat="47.26834" lon="-1.63106">
        <ele>8.3</ele>
        <time>2016-11-08T07:56:22Z</time>
      </trkpt>
      <trkpt lat="47.26836" lon="-1.63118">
        <ele>8.9</ele>
        <time>2016-11-08T07:56:28Z</time>
      </trkpt>
      <trkpt lat="47.2684" lon="-1.63129">
        <ele>9.2</ele>
        <time>2016-11-08T07:56:35Z</time>
      </trkpt>
      <trkpt lat="47.26845" lon="-1.63139">
        <ele>9.2</ele>
        <time>2016-11-08T07:56:41Z</time>
      </trkpt>
      <trkpt lat="47.26848" lon="-1.6315">
        <ele>9.1</ele>
        <time>2016-11-08T07:56:47Z</time>
      </trkpt>
      <trkpt lat="47.26852" lon="-1.6316">
        <ele>8.8</ele>
        <time>2016-11-08T07:56:54Z</time>
      </trkpt>
      <trkpt lat="47.26854" lon="-1.63171">
        <ele>8.2</ele>
        <time>2016-11-08T07:57:04Z</time>
      </trkpt>
      <trkpt lat="47.26847" lon="-1.63177">
        <ele>7.8</ele>
        <time>2016-11-08T07:57:14Z</time>
      </trkpt>
      <trkpt lat="47.2684" lon="-1.63178">
        <ele>7.6</ele>
        <time>2016-11-08T07:57:26Z</time>
      </trkpt>
      <trkpt lat="47.26832" lon="-1.63174">
        <ele>7.7</ele>
        <time>2016-11-08T07:57:34Z</time>
      </trkpt>
      <trkpt lat="47.26825" lon="-1.63171">
        <ele>7.8</ele>
        <time>2016-11-08T07:57:42Z</time>
      </trkpt>
      <trkpt lat="47.26817" lon="-1.63169">
        <ele>8.1</ele>
        <time>2016-11-08T07:57:49Z</time>
      </trkpt>
      <trkpt lat="47.26809" lon="-1.63164">
        <ele>8.6</ele>
        <time>2016-11-08T07:57:56Z</time>
      </trkpt>
      <trkpt lat="47.26801" lon="-1.63163">
        <ele>9.3</ele>
        <time>2016-11-08T07:58:02Z</time>
      </trkpt>
      <trkpt lat="47.26793" lon="-1.63161">
        <ele>10</ele>
        <time>2016-11-08T07:58:10Z</time>
      </trkpt>
      <trkpt lat="47.26786" lon="-1.63159">
        <ele>10.8</ele>
        <time>2016-11-08T07:58:17Z</time>
      </trkpt>
      <trkpt lat="47.26778" lon="-1.63156">
        <ele>11.6</ele>
        <time>2016-11-08T07:58:24Z</time>
      </trkpt>
      <trkpt lat="47.26771" lon="-1.63153">
        <ele>12.2</ele>
        <time>2016-11-08T07:58:30Z</time>
      </trkpt>
      <trkpt lat="47.26764" lon="-1.63148">
        <ele>12.8</ele>
        <time>2016-11-08T07:58:36Z</time>
      </trkpt>
      <trkpt lat="47.26756" lon="-1.63145">
        <ele>13.6</ele>
        <time>2016-11-08T07:58:42Z</time>
      </trkpt>
      <trkpt lat="47.2675" lon="-1.63139">
        <ele>14.5</ele>
        <time>2016-11-08T07:58:50Z</time>
      </trkpt>
      <trkpt lat="47.26743" lon="-1.63132">
        <ele>15.6</ele>
        <time>2016-11-08T07:58:57Z</time>
      </trkpt>
      <trkpt lat="47.26736" lon="-1.63126">
        <ele>16.4</ele>
        <time>2016-11-08T07:59:05Z</time>
      </trkpt>
      <trkpt lat="47.2673" lon="-1.63118">
        <ele>17</ele>
        <time>2016-11-08T07:59:11Z</time>
      </trkpt>
      <trkpt lat="47.26725" lon="-1.63111">
        <ele>17.7</ele>
        <time>2016-11-08T07:59:18Z</time>
      </trkpt>
      <trkpt lat="47.26716" lon="-1.6311">
        <ele>18.5</ele>
        <time>2016-11-08T07:59:27Z</time>
      </trkpt>
      <trkpt lat="47.26709" lon="-1.63108">
        <ele>19.3</ele>
        <time>2016-11-08T07:59:35Z</time>
      </trkpt>
      <trkpt lat="47.26701" lon="-1.63105">
        <ele>19.8</ele>
        <time>2016-11-08T07:59:42Z</time>
      </trkpt>
      <trkpt lat="47.26694" lon="-1.63102">
        <ele>20.4</ele>
        <time>2016-11-08T07:59:49Z</time>
      </trkpt>
      <trkpt lat="47.26686" lon="-1.63099">
        <ele>21.2</ele>
        <time>2016-11-08T07:59:56Z</time>
      </trkpt>
      <trkpt lat="47.26679" lon="-1.63094">
        <ele>22</ele>
        <time>2016-11-08T08:00:04Z</time>
      </trkpt>
      <trkpt lat="47.26672" lon="-1.63091">
        <ele>22.5</ele>
        <time>2016-11-08T08:00:10Z</time>
      </trkpt>
      <trkpt lat="47.26664" lon="-1.63089">
        <ele>22.8</ele>
        <time>2016-11-08T08:00:16Z</time>
      </trkpt>
      <trkpt lat="47.26657" lon="-1.63087">
        <ele>23.1</ele>
        <time>2016-11-08T08:00:22Z</time>
      </trkpt>
      <trkpt lat="47.26649" lon="-1.63087">
        <ele>23.3</ele>
        <time>2016-11-08T08:00:29Z</time>
      </trkpt>
      <trkpt lat="47.26641" lon="-1.63088">
        <ele>23.4</ele>
        <time>2016-11-08T08:00:34Z</time>
      </trkpt>
      <trkpt lat="47.26632" lon="-1.63089">
        <ele>23.5</ele>
        <time>2016-11-08T08:00:40Z</time>
      </trkpt>
      <trkpt lat="47.26625" lon="-1.63093">
        <ele>23.3</ele>
        <time>2016-11-08T08:00:46Z</time>
      </trkpt>
      <trkpt lat="47.26617" lon="-1.63095">
        <ele>23.2</ele>
        <time>2016-11-08T08:00:51Z</time>
      </trkpt>
      <trkpt lat="47.2661" lon="-1.63096">
        <ele>23</ele>
        <time>2016-11-08T08:00:56Z</time>
      </trkpt>
      <trkpt lat="47.26601" lon="-1.63096">
        <ele>22.9</ele>
        <time>2016-11-08T08:01:04Z</time>
      </trkpt>
      <trkpt lat="47.26593" lon="-1.63098">
        <ele>22.8</ele>
        <time>2016-11-08T08:01:09Z</time>
      </trkpt>
      <trkpt lat="47.26584" lon="-1.63098">
        <ele>22.6</ele>
        <time>2016-11-08T08:01:15Z</time>
      </trkpt>
      <trkpt lat="47.26576" lon="-1.63101">
        <ele>22.3</ele>
        <time>2016-11-08T08:01:20Z</time>
      </trkpt>
      <trkpt lat="47.26569" lon="-1.63106">
        <ele>22.2</ele>
        <time>2016-11-08T08:01:25Z</time>
      </trkpt>
      <trkpt lat="47.26562" lon="-1.63111">
        <ele>21.9</ele>
        <time>2016-11-08T08:01:30Z</time>
      </trkpt>
      <trkpt lat="47.26557" lon="-1.63118">
        <ele>21.8</ele>
        <time>2016-11-08T08:01:35Z</time>
      </trkpt>
      <trkpt lat="47.26552" lon="-1.63127">
        <ele>21.4</ele>
        <time>2016-11-08T08:01:42Z</time>
      </trkpt>
      <trkpt lat="47.26547" lon="-1.63135">
        <ele>20.7</ele>
        <time>2016-11-08T08:01:53Z</time>
      </trkpt>
      <trkpt lat="47.2654" lon="-1.63142">
        <ele>20.2</ele>
        <time>2016-11-08T08:02:06Z</time>
      </trkpt>
      <trkpt lat="47.26533" lon="-1.63142">
        <ele>20</ele>
        <time>2016-11-08T08:02:12Z</time>
      </trkpt>
      <trkpt lat="47.26525" lon="-1.63143">
        <ele>19.8</ele>
        <time>2016-11-08T08:02:18Z</time>
      </trkpt>
      <trkpt lat="47.26518" lon="-1.63147">
        <ele>19.6</ele>
        <time>2016-11-08T08:02:24Z</time>
      </trkpt>
      <trkpt lat="47.26511" lon="-1.63152">
        <ele>19.4</ele>
        <time>2016-11-08T08:02:30Z</time>
      </trkpt>
      <trkpt lat="47.26504" lon="-1.63157">
        <ele>19.2</ele>
        <time>2016-11-08T08:02:36Z</time>
      </trkpt>
      <trkpt lat="47.26496" lon="-1.6316">
        <ele>19</ele>
        <time>2016-11-08T08:02:42Z</time>
      </trkpt>
      <trkpt lat="47.26488" lon="-1.63163">
        <ele>18.9</ele>
        <time>2016-11-08T08:02:48Z</time>
      </trkpt>
      <trkpt lat="47.26481" lon="-1.63166">
        <ele>18.8</ele>
        <time>2016-11-08T08:02:55Z</time>
      </trkpt>
      <trkpt lat="47.26473" lon="-1.63167">
        <ele>18.7</ele>
        <time>2016-11-08T08:03:01Z</time>
      </trkpt>
      <trkpt lat="47.26466" lon="-1.63166">
        <ele>18.6</ele>
        <time>2016-11-08T08:03:07Z</time>
      </trkpt>
      <trkpt lat="47.26458" lon="-1.63167">
        <ele>18.7</ele>
        <time>2016-11-08T08:03:13Z</time>
      </trkpt>
      <trkpt lat="47.26449" lon="-1.63168">
        <ele>19</ele>
        <time>2016-11-08T08:03:19Z</time>
      </trkpt>
      <trkpt lat="47.26442" lon="-1.63172">
        <ele>19.3</ele>
        <time>2016-11-08T08:03:25Z</time>
      </trkpt>
      <trkpt lat="47.26434" lon="-1.63178">
        <ele>19.5</ele>
        <time>2016-11-08T08:03:30Z</time>
      </trkpt>
      <trkpt lat="47.26428" lon="-1.63184">
        <ele>19.7</ele>
        <time>2016-11-08T08:03:35Z</time>
      </trkpt>
      <trkpt lat="47.2642" lon="-1.6319">
        <ele>20</ele>
        <time>2016-11-08T08:03:41Z</time>
      </trkpt>
      <trkpt lat="47.26413" lon="-1.63194">
        <ele>20.2</ele>
        <time>2016-11-08T08:03:47Z</time>
      </trkpt>
      <trkpt lat="47.26406" lon="-1.63197">
        <ele>20.3</ele>
        <time>2016-11-08T08:03:53Z</time>
      </trkpt>
      <trkpt lat="47.26399" lon="-1.63201">
        <ele>20.4</ele>
        <time>2016-11-08T08:03:59Z</time>
      </trkpt>
      <trkpt lat="47.26391" lon="-1.63203">
        <ele>20.4</ele>
        <time>2016-11-08T08:04:04Z</time>
      </trkpt>
      <trkpt lat="47.26384" lon="-1.63205">
        <ele>20.5</ele>
        <time>2016-11-08T08:04:10Z</time>
      </trkpt>
      <trkpt lat="47.26376" lon="-1.63208">
        <ele>20.6</ele>
        <time>2016-11-08T08:04:17Z</time>
      </trkpt>
      <trkpt lat="47.26369" lon="-1.6321">
        <ele>20.6</ele>
        <time>2016-11-08T08:04:23Z</time>
      </trkpt>
      <trkpt lat="47.26361" lon="-1.6321">
        <ele>20.8</ele>
        <time>2016-11-08T08:04:29Z</time>
      </trkpt>
      <trkpt lat="47.26354" lon="-1.63209">
        <ele>21.1</ele>
        <time>2016-11-08T08:04:35Z</time>
      </trkpt>
      <trkpt lat="47.26347" lon="-1.6321">
        <ele>21.3</ele>
        <time>2016-11-08T08:04:41Z</time>
      </trkpt>
      <trkpt lat="47.26339" lon="-1.63215">
        <ele>21.9</ele>
        <time>2016-11-08T08:04:48Z</time>
      </trkpt>
      <trkpt lat="47.26331" lon="-1.63217">
        <ele>22.3</ele>
        <time>2016-11-08T08:04:54Z</time>
      </trkpt>
      <trkpt lat="47.26323" lon="-1.63217">
        <ele>23.1</ele>
        <time>2016-11-08T08:05:01Z</time>
      </trkpt>
      <trkpt lat="47.26315" lon="-1.63218">
        <ele>23.8</ele>
        <time>2016-11-08T08:05:07Z</time>
      </trkpt>
      <trkpt lat="47.26307" lon="-1.63218">
        <ele>24.5</ele>
        <time>2016-11-08T08:05:14Z</time>
      </trkpt>
      <trkpt lat="47.263" lon="-1.63218">
        <ele>25.4</ele>
        <time>2016-11-08T08:05:21Z</time>
      </trkpt>
      <trkpt lat="47.26292" lon="-1.63217">
        <ele>26.2</ele>
        <time>2016-11-08T08:05:28Z</time>
      </trkpt>
      <trkpt lat="47.26284" lon="-1.63216">
        <ele>26.9</ele>
        <time>2016-11-08T08:05:34Z</time>
      </trkpt>
      <trkpt lat="47.26276" lon="-1.63215">
        <ele>27.5</ele>
        <time>2016-11-08T08:05:39Z</time>
      </trkpt>
      <trkpt lat="47.26268" lon="-1.63215">
        <ele>28</ele>
        <time>2016-11-08T08:05:45Z</time>
      </trkpt>
      <trkpt lat="47.26261" lon="-1.63215">
        <ele>28.6</ele>
        <time>2016-11-08T08:05:51Z</time>
      </trkpt>
      <trkpt lat="47.26253" lon="-1.63215">
        <ele>29.4</ele>
        <time>2016-11-08T08:05:58Z</time>
      </trkpt>
      <trkpt lat="47.26245" lon="-1.63214">
        <ele>30.2</ele>
        <time>2016-11-08T08:06:04Z</time>
      </trkpt>
      <trkpt lat="47.26237" lon="-1.63215">
        <ele>31.2</ele>
        <time>2016-11-08T08:06:11Z</time>
      </trkpt>
      <trkpt lat="47.2623" lon="-1.63214">
        <ele>31.8</ele>
        <time>2016-11-08T08:06:18Z</time>
      </trkpt>
      <trkpt lat="47.26221" lon="-1.63214">
        <ele>32.3</ele>
        <time>2016-11-08T08:06:25Z</time>
      </trkpt>
      <trkpt lat="47.26213" lon="-1.63212">
        <ele>32.8</ele>
        <time>2016-11-08T08:06:31Z</time>
      </trkpt>
      <trkpt lat="47.26205" lon="-1.63211">
        <ele>33.3</ele>
        <time>2016-11-08T08:06:38Z</time>
      </trkpt>
      <trkpt lat="47.26198" lon="-1.63211">
        <ele>33.8</ele>
        <time>2016-11-08T08:06:44Z</time>
      </trkpt>
      <trkpt lat="47.2619" lon="-1.63206">
        <ele>34.4</ele>
        <time>2016-11-08T08:06:51Z</time>
      </trkpt>
      <trkpt lat="47.26183" lon="-1.63204">
        <ele>34.9</ele>
        <time>2016-11-08T08:06:57Z</time>
      </trkpt>
      <trkpt lat="47.26176" lon="-1.63205">
        <ele>35.4</ele>
        <time>2016-11-08T08:07:03Z</time>
      </trkpt>
      <trkpt lat="47.26168" lon="-1.63206">
        <ele>36</ele>
        <time>2016-11-08T08:07:09Z</time>
      </trkpt>
      <trkpt lat="47.26161" lon="-1.63205">
        <ele>36.4</ele>
        <time>2016-11-08T08:07:15Z</time>
      </trkpt>
      <trkpt lat="47.26157" lon="-1.63196">
        <ele>37</ele>
        <time>2016-11-08T08:07:29Z</time>
      </trkpt>
      <trkpt lat="47.26153" lon="-1.63187">
        <ele>37.7</ele>
        <time>2016-11-08T08:07:36Z</time>
      </trkpt>
      <trkpt lat="47.26149" lon="-1.63177">
        <ele>38</ele>
        <time>2016-11-08T08:07:42Z</time>
      </trkpt>
      <trkpt lat="47.26146" lon="-1.63166">
        <ele>38.4</ele>
        <time>2016-11-08T08:07:48Z</time>
      </trkpt>
      <trkpt lat="47.26149" lon="-1.63155">
        <ele>38.5</ele>
        <time>2016-11-08T08:07:55Z</time>
      </trkpt>
      <trkpt lat="47.26149" lon="-1.63143">
        <ele>38.6</ele>
        <time>2016-11-08T08:08:02Z</time>
      </trkpt>
      <trkpt lat="47.26149" lon="-1.63132">
        <ele>38.5</ele>
        <time>2016-11-08T08:08:10Z</time>
      </trkpt>
      <trkpt lat="47.26151" lon="-1.63121">
        <ele>38.4</ele>
        <time>2016-11-08T08:08:17Z</time>
      </trkpt>
      <trkpt lat="47.26152" lon="-1.6311">
        <ele>38.4</ele>
        <time>2016-11-08T08:08:23Z</time>
      </trkpt>
      <trkpt lat="47.26152" lon="-1.63099">
        <ele>38.4</ele>
        <time>2016-11-08T08:08:30Z</time>
      </trkpt>
      <trkpt lat="47.26145" lon="-1.63092">
        <ele>38.7</ele>
        <time>2016-11-08T08:08:38Z</time>
      </trkpt>
      <trkpt lat="47.26138" lon="-1.63086">
        <ele>39.2</ele>
        <time>2016-11-08T08:08:45Z</time>
      </trkpt>
      <trkpt lat="47.2613" lon="-1.63083">
        <ele>39.5</ele>
        <time>2016-11-08T08:08:51Z</time>
      </trkpt>
      <trkpt lat="47.26124" lon="-1.63078">
        <ele>39.8</ele>
        <time>2016-11-08T08:08:57Z</time>
      </trkpt>
      <trkpt lat="47.26116" lon="-1.63074">
        <ele>40</ele>
        <time>2016-11-08T08:09:03Z</time>
      </trkpt>
      <trkpt lat="47.26109" lon="-1.63072">
        <ele>40.4</ele>
        <time>2016-11-08T08:09:09Z</time>
      </trkpt>
      <trkpt lat="47.26101" lon="-1.6307">
        <ele>40.7</ele>
        <time>2016-11-08T08:09:15Z</time>
      </trkpt>
      <trkpt lat="47.26095" lon="-1.63064">
        <ele>40.9</ele>
        <time>2016-11-08T08:09:20Z</time>
      </trkpt>
      <trkpt lat="47.26095" lon="-1.63052">
        <ele>41.2</ele>
        <time>2016-11-08T08:09:28Z</time>
      </trkpt>
      <trkpt lat="47.26094" lon="-1.6304">
        <ele>41.8</ele>
        <time>2016-11-08T08:09:35Z</time>
      </trkpt>
      <trkpt lat="47.26095" lon="-1.6303">
        <ele>42.2</ele>
        <time>2016-11-08T08:09:42Z</time>
      </trkpt>
      <trkpt lat="47.26095" lon="-1.63019">
        <ele>42.8</ele>
        <time>2016-11-08T08:09:48Z</time>
      </trkpt>
      <trkpt lat="47.26095" lon="-1.63008">
        <ele>43.4</ele>
        <time>2016-11-08T08:09:54Z</time>
      </trkpt>
      <trkpt lat="47.26095" lon="-1.62996">
        <ele>43.8</ele>
        <time>2016-11-08T08:10:00Z</time>
      </trkpt>
      <trkpt lat="47.26096" lon="-1.62984">
        <ele>44.1</ele>
        <time>2016-11-08T08:10:06Z</time>
      </trkpt>
      <trkpt lat="47.26097" lon="-1.62973">
        <ele>44.3</ele>
        <time>2016-11-08T08:10:13Z</time>
      </trkpt>
      <trkpt lat="47.26098" lon="-1.62962">
        <ele>44.4</ele>
        <time>2016-11-08T08:10:19Z</time>
      </trkpt>
      <trkpt lat="47.26097" lon="-1.6295">
        <ele>44.5</ele>
        <time>2016-11-08T08:10:25Z</time>
      </trkpt>
      <trkpt lat="47.26098" lon="-1.62939">
        <ele>44.6</ele>
        <time>2016-11-08T08:10:31Z</time>
      </trkpt>
      <trkpt lat="47.26099" lon="-1.62927">
        <ele>44.6</ele>
        <time>2016-11-08T08:10:37Z</time>
      </trkpt>
      <trkpt lat="47.26099" lon="-1.62914">
        <ele>44.7</ele>
        <time>2016-11-08T08:10:43Z</time>
      </trkpt>
      <trkpt lat="47.26098" lon="-1.62903">
        <ele>44.7</ele>
        <time>2016-11-08T08:10:48Z</time>
      </trkpt>
      <trkpt lat="47.26098" lon="-1.62892">
        <ele>44.7</ele>
        <time>2016-11-08T08:10:53Z</time>
      </trkpt>
      <trkpt lat="47.26097" lon="-1.62879">
        <ele>44.7</ele>
        <time>2016-11-08T08:10:58Z</time>
      </trkpt>
      <trkpt lat="47.26097" lon="-1.62867">
        <ele>44.7</ele>
        <time>2016-11-08T08:11:03Z</time>
      </trkpt>
      <trkpt lat="47.26097" lon="-1.62856">
        <ele>44.8</ele>
        <time>2016-11-08T08:11:08Z</time>
      </trkpt>
      <trkpt lat="47.26098" lon="-1.62845">
        <ele>44.9</ele>
        <time>2016-11-08T08:11:13Z</time>
      </trkpt>
      <trkpt lat="47.26098" lon="-1.62834">
        <ele>44.9</ele>
        <time>2016-11-08T08:11:18Z</time>
      </trkpt>
      <trkpt lat="47.26099" lon="-1.62822">
        <ele>45</ele>
        <time>2016-11-08T08:11:24Z</time>
      </trkpt>
      <trkpt lat="47.26101" lon="-1.62809">
        <ele>45.1</ele>
        <time>2016-11-08T08:11:30Z</time>
      </trkpt>
      <trkpt lat="47.26101" lon="-1.62798">
        <ele>45.2</ele>
        <time>2016-11-08T08:11:35Z</time>
      </trkpt>
      <trkpt lat="47.26102" lon="-1.62786">
        <ele>45.4</ele>
        <time>2016-11-08T08:11:41Z</time>
      </trkpt>
      <trkpt lat="47.26102" lon="-1.62775">
        <ele>45.6</ele>
        <time>2016-11-08T08:11:46Z</time>
      </trkpt>
      <trkpt lat="47.26104" lon="-1.62764">
        <ele>45.9</ele>
        <time>2016-11-08T08:11:52Z</time>
      </trkpt>
      <trkpt lat="47.26106" lon="-1.62753">
        <ele>46.2</ele>
        <time>2016-11-08T08:11:59Z</time>
      </trkpt>
      <trkpt lat="47.26105" lon="-1.62742">
        <ele>46.3</ele>
        <time>2016-11-08T08:12:04Z</time>
      </trkpt>
      <trkpt lat="47.26105" lon="-1.62729">
        <ele>46.6</ele>
        <time>2016-11-08T08:12:09Z</time>
      </trkpt>
      <trkpt lat="47.26105" lon="-1.62717">
        <ele>46.9</ele>
        <time>2016-11-08T08:12:14Z</time>
      </trkpt>
      <trkpt lat="47.26105" lon="-1.62706">
        <ele>47.2</ele>
        <time>2016-11-08T08:12:20Z</time>
      </trkpt>
      <trkpt lat="47.261" lon="-1.62696">
        <ele>47.4</ele>
        <time>2016-11-08T08:12:25Z</time>
      </trkpt>
      <trkpt lat="47.26095" lon="-1.62687">
        <ele>47.6</ele>
        <time>2016-11-08T08:12:31Z</time>
      </trkpt>
      <trkpt lat="47.26092" lon="-1.62676">
        <ele>47.8</ele>
        <time>2016-11-08T08:12:38Z</time>
      </trkpt>
      <trkpt lat="47.26087" lon="-1.62667">
        <ele>48.1</ele>
        <time>2016-11-08T08:12:44Z</time>
      </trkpt>
      <trkpt lat="47.26092" lon="-1.62659">
        <ele>48.7</ele>
        <time>2016-11-08T08:12:52Z</time>
      </trkpt>
      <trkpt lat="47.26095" lon="-1.62647">
        <ele>49</ele>
        <time>2016-11-08T08:13:00Z</time>
      </trkpt>
      <trkpt lat="47.26096" lon="-1.62635">
        <ele>49.2</ele>
        <time>2016-11-08T08:13:06Z</time>
      </trkpt>
      <trkpt lat="47.26098" lon="-1.62625">
        <ele>49.4</ele>
        <time>2016-11-08T08:13:12Z</time>
      </trkpt>
      <trkpt lat="47.26099" lon="-1.62613">
        <ele>49.5</ele>
        <time>2016-11-08T08:13:18Z</time>
      </trkpt>
      <trkpt lat="47.261" lon="-1.62601">
        <ele>49.5</ele>
        <time>2016-11-08T08:13:24Z</time>
      </trkpt>
      <trkpt lat="47.26101" lon="-1.6259">
        <ele>49.6</ele>
        <time>2016-11-08T08:13:30Z</time>
      </trkpt>
      <trkpt lat="47.26102" lon="-1.62578">
        <ele>49.6</ele>
        <time>2016-11-08T08:13:36Z</time>
      </trkpt>
      <trkpt lat="47.26103" lon="-1.62566">
        <ele>49.8</ele>
        <time>2016-11-08T08:13:42Z</time>
      </trkpt>
      <trkpt lat="47.26103" lon="-1.62555">
        <ele>50</ele>
        <time>2016-11-08T08:13:48Z</time>
      </trkpt>
      <trkpt lat="47.26103" lon="-1.62544">
        <ele>50.2</ele>
        <time>2016-11-08T08:13:53Z</time>
      </trkpt>
      <trkpt lat="47.26103" lon="-1.62532">
        <ele>50.3</ele>
        <time>2016-11-08T08:13:58Z</time>
      </trkpt>
      <trkpt lat="47.26104" lon="-1.62522">
        <ele>50.4</ele>
        <time>2016-11-08T08:14:03Z</time>
      </trkpt>
      <trkpt lat="47.26104" lon="-1.6251">
        <ele>50.5</ele>
        <time>2016-11-08T08:14:09Z</time>
      </trkpt>
      <trkpt lat="47.26105" lon="-1.62499">
        <ele>50.5</ele>
        <time>2016-11-08T08:14:14Z</time>
      </trkpt>
      <trkpt lat="47.26105" lon="-1.62486">
        <ele>50.6</ele>
        <time>2016-11-08T08:14:20Z</time>
      </trkpt>
      <trkpt lat="47.26103" lon="-1.62474">
        <ele>50.9</ele>
        <time>2016-11-08T08:14:26Z</time>
      </trkpt>
      <trkpt lat="47.26102" lon="-1.62464">
        <ele>51.1</ele>
        <time>2016-11-08T08:14:31Z</time>
      </trkpt>
      <trkpt lat="47.261" lon="-1.62453">
        <ele>51.2</ele>
        <time>2016-11-08T08:14:36Z</time>
      </trkpt>
      <trkpt lat="47.26097" lon="-1.62443">
        <ele>51.2</ele>
        <time>2016-11-08T08:14:42Z</time>
      </trkpt>
      <trkpt lat="47.26089" lon="-1.62442">
        <ele>51.1</ele>
        <time>2016-11-08T08:14:49Z</time>
      </trkpt>
      <trkpt lat="47.26082" lon="-1.62444">
        <ele>50.9</ele>
        <time>2016-11-08T08:14:56Z</time>
      </trkpt>
      <trkpt lat="47.26075" lon="-1.62448">
        <ele>50.6</ele>
        <time>2016-11-08T08:15:04Z</time>
      </trkpt>
      <trkpt lat="47.26068" lon="-1.62454">
        <ele>50.6</ele>
        <time>2016-11-08T08:15:11Z</time>
      </trkpt>
      <trkpt lat="47.26062" lon="-1.62462">
        <ele>50.7</ele>
        <time>2016-11-08T08:15:18Z</time>
      </trkpt>
      <trkpt lat="47.26055" lon="-1.62468">
        <ele>50.7</ele>
        <time>2016-11-08T08:15:24Z</time>
      </trkpt>
      <trkpt lat="47.26048" lon="-1.62474">
        <ele>50.8</ele>
        <time>2016-11-08T08:15:30Z</time>
      </trkpt>
      <trkpt lat="47.26042" lon="-1.62481">
        <ele>50.8</ele>
        <time>2016-11-08T08:15:35Z</time>
      </trkpt>
      <trkpt lat="47.26035" lon="-1.62488">
        <ele>50.8</ele>
        <time>2016-11-08T08:15:41Z</time>
      </trkpt>
      <trkpt lat="47.26029" lon="-1.62494">
        <ele>50.8</ele>
        <time>2016-11-08T08:15:46Z</time>
      </trkpt>
      <trkpt lat="47.26022" lon="-1.625">
        <ele>50.8</ele>
        <time>2016-11-08T08:15:52Z</time>
      </trkpt>
      <trkpt lat="47.26015" lon="-1.62507">
        <ele>50.8</ele>
        <time>2016-11-08T08:15:58Z</time>
      </trkpt>
      <trkpt lat="47.26008" lon="-1.62514">
        <ele>50.8</ele>
        <time>2016-11-08T08:16:04Z</time>
      </trkpt>
      <trkpt lat="47.26001" lon="-1.6252">
        <ele>50.8</ele>
        <time>2016-11-08T08:16:09Z</time>
      </trkpt>
      <trkpt lat="47.25995" lon="-1.62526">
        <ele>50.9</ele>
        <time>2016-11-08T08:16:14Z</time>
      </trkpt>
      <trkpt lat="47.25988" lon="-1.62531">
        <ele>50.9</ele>
        <time>2016-11-08T08:16:20Z</time>
      </trkpt>
      <trkpt lat="47.25982" lon="-1.62537">
        <ele>51</ele>
        <time>2016-11-08T08:16:25Z</time>
      </trkpt>
      <trkpt lat="47.25975" lon="-1.62544">
        <ele>51</ele>
        <time>2016-11-08T08:16:31Z</time>
      </trkpt>
      <trkpt lat="47.25968" lon="-1.62549">
        <ele>51</ele>
        <time>2016-11-08T08:16:37Z</time>
      </trkpt>
      <trkpt lat="47.25962" lon="-1.62554">
        <ele>51</ele>
        <time>2016-11-08T08:16:43Z</time>
      </trkpt>
      <trkpt lat="47.25955" lon="-1.6256">
        <ele>51</ele>
        <time>2016-11-08T08:16:48Z</time>
      </trkpt>
      <trkpt lat="47.25948" lon="-1.62566">
        <ele>51.1</ele>
        <time>2016-11-08T08:16:53Z</time>
      </trkpt>
      <trkpt lat="47.25941" lon="-1.62571">
        <ele>51.1</ele>
        <time>2016-11-08T08:16:57Z</time>
      </trkpt>
      <trkpt lat="47.25935" lon="-1.62577">
        <ele>51.1</ele>
        <time>2016-11-08T08:17:02Z</time>
      </trkpt>
      <trkpt lat="47.25928" lon="-1.62583">
        <ele>51.1</ele>
        <time>2016-11-08T08:17:08Z</time>
      </trkpt>
      <trkpt lat="47.2592" lon="-1.62587">
        <ele>51.1</ele>
        <time>2016-11-08T08:17:13Z</time>
      </trkpt>
      <trkpt lat="47.25912" lon="-1.62586">
        <ele>51.1</ele>
        <time>2016-11-08T08:17:18Z</time>
      </trkpt>
      <trkpt lat="47.25904" lon="-1.62586">
        <ele>51.1</ele>
        <time>2016-11-08T08:17:24Z</time>
      </trkpt>
      <trkpt lat="47.25896" lon="-1.62583">
        <ele>51.1</ele>
        <time>2016-11-08T08:17:30Z</time>
      </trkpt>
      <trkpt lat="47.25888" lon="-1.6258">
        <ele>51.3</ele>
        <time>2016-11-08T08:17:35Z</time>
      </trkpt>
      <trkpt lat="47.2588" lon="-1.62578">
        <ele>51.5</ele>
        <time>2016-11-08T08:17:41Z</time>
      </trkpt>
      <trkpt lat="47.25873" lon="-1.62576">
        <ele>51.6</ele>
        <time>2016-11-08T08:17:46Z</time>
      </trkpt>
      <trkpt lat="47.25865" lon="-1.62575">
        <ele>51.7</ele>
        <time>2016-11-08T08:17:51Z</time>
      </trkpt>
      <trkpt lat="47.25858" lon="-1.6257">
        <ele>51.8</ele>
        <time>2016-11-08T08:17:56Z</time>
      </trkpt>
      <trkpt lat="47.25852" lon="-1.62563">
        <ele>51.8</ele>
        <time>2016-11-08T08:18:01Z</time>
      </trkpt>
      <trkpt lat="47.25847" lon="-1.62554">
        <ele>51.9</ele>
        <time>2016-11-08T08:18:07Z</time>
      </trkpt>
      <trkpt lat="47.25843" lon="-1.62545">
        <ele>51.7</ele>
        <time>2016-11-08T08:18:12Z</time>
      </trkpt>
      <trkpt lat="47.25839" lon="-1.62535">
        <ele>51.5</ele>
        <time>2016-11-08T08:18:17Z</time>
      </trkpt>
      <trkpt lat="47.25835" lon="-1.62525">
        <ele>51.4</ele>
        <time>2016-11-08T08:18:22Z</time>
      </trkpt>
      <trkpt lat="47.2583" lon="-1.62515">
        <ele>51.3</ele>
        <time>2016-11-08T08:18:27Z</time>
      </trkpt>
      <trkpt lat="47.25827" lon="-1.62505">
        <ele>51.2</ele>
        <time>2016-11-08T08:18:32Z</time>
      </trkpt>
      <trkpt lat="47.25823" lon="-1.62495">
        <ele>51.2</ele>
        <time>2016-11-08T08:18:37Z</time>
      </trkpt>
      <trkpt lat="47.25819" lon="-1.62486">
        <ele>51.1</ele>
        <time>2016-11-08T08:18:43Z</time>
      </trkpt>
      <trkpt lat="47.25811" lon="-1.62486">
        <ele>51.1</ele>
        <time>2016-11-08T08:18:50Z</time>
      </trkpt>
      <trkpt lat="47.25805" lon="-1.62494">
        <ele>50.9</ele>
        <time>2016-11-08T08:18:57Z</time>
      </trkpt>
      <trkpt lat="47.25801" lon="-1.62504">
        <ele>50.7</ele>
        <time>2016-11-08T08:19:04Z</time>
      </trkpt>
      <trkpt lat="47.25796" lon="-1.62514">
        <ele>50.5</ele>
        <time>2016-11-08T08:19:11Z</time>
      </trkpt>
      <trkpt lat="47.25793" lon="-1.62523">
        <ele>50.1</ele>
        <time>2016-11-08T08:19:19Z</time>
      </trkpt>
      <trkpt lat="47.25789" lon="-1.62533">
        <ele>49.9</ele>
        <time>2016-11-08T08:19:26Z</time>
      </trkpt>
      <trkpt lat="47.25785" lon="-1.62542">
        <ele>49.8</ele>
        <time>2016-11-08T08:19:32Z</time>
      </trkpt>
      <trkpt lat="47.2578" lon="-1.62551">
        <ele>49.8</ele>
        <time>2016-11-08T08:19:38Z</time>
      </trkpt>
      <trkpt lat="47.25775" lon="-1.62561">
        <ele>49.7</ele>
        <time>2016-11-08T08:19:44Z</time>
      </trkpt>
      <trkpt lat="47.2577" lon="-1.62569">
        <ele>49.7</ele>
        <time>2016-11-08T08:19:49Z</time>
      </trkpt>
      <trkpt lat="47.25766" lon="-1.62578">
        <ele>49.6</ele>
        <time>2016-11-08T08:19:54Z</time>
      </trkpt>
      <trkpt lat="47.25761" lon="-1.62586">
        <ele>49.5</ele>
        <time>2016-11-08T08:19:59Z</time>
      </trkpt>
      <trkpt lat="47.25757" lon="-1.62595">
        <ele>49.5</ele>
        <time>2016-11-08T08:20:04Z</time>
      </trkpt>
      <trkpt lat="47.25752" lon="-1.62604">
        <ele>49.5</ele>
        <time>2016-11-08T08:20:10Z</time>
      </trkpt>
      <trkpt lat="47.25747" lon="-1.62612">
        <ele>49.4</ele>
        <time>2016-11-08T08:20:15Z</time>
      </trkpt>
      <trkpt lat="47.25741" lon="-1.62621">
        <ele>49.4</ele>
        <time>2016-11-08T08:20:21Z</time>
      </trkpt>
      <trkpt lat="47.25736" lon="-1.6263">
        <ele>49.4</ele>
        <time>2016-11-08T08:20:26Z</time>
      </trkpt>
      <trkpt lat="47.25732" lon="-1.62638">
        <ele>49.4</ele>
        <time>2016-11-08T08:20:31Z</time>
      </trkpt>
      <trkpt lat="47.25726" lon="-1.62647">
        <ele>49.4</ele>
        <time>2016-11-08T08:20:37Z</time>
      </trkpt>
      <trkpt lat="47.25721" lon="-1.62657">
        <ele>49.5</ele>
        <time>2016-11-08T08:20:43Z</time>
      </trkpt>
      <trkpt lat="47.25716" lon="-1.62667">
        <ele>49.7</ele>
        <time>2016-11-08T08:20:49Z</time>
      </trkpt>
      <trkpt lat="47.25712" lon="-1.62675">
        <ele>49.7</ele>
        <time>2016-11-08T08:20:55Z</time>
      </trkpt>
      <trkpt lat="47.25707" lon="-1.62685">
        <ele>49.8</ele>
        <time>2016-11-08T08:21:02Z</time>
      </trkpt>
      <trkpt lat="47.25702" lon="-1.62694">
        <ele>49.8</ele>
        <time>2016-11-08T08:21:08Z</time>
      </trkpt>
      <trkpt lat="47.25697" lon="-1.62703">
        <ele>49.8</ele>
        <time>2016-11-08T08:21:13Z</time>
      </trkpt>
      <trkpt lat="47.25692" lon="-1.62712">
        <ele>49.9</ele>
        <time>2016-11-08T08:21:18Z</time>
      </trkpt>
      <trkpt lat="47.25686" lon="-1.62721">
        <ele>50</ele>
        <time>2016-11-08T08:21:23Z</time>
      </trkpt>
      <trkpt lat="47.25681" lon="-1.6273">
        <ele>50.2</ele>
        <time>2016-11-08T08:21:29Z</time>
      </trkpt>
      <trkpt lat="47.25675" lon="-1.62738">
        <ele>50.3</ele>
        <time>2016-11-08T08:21:35Z</time>
      </trkpt>
      <trkpt lat="47.25671" lon="-1.62748">
        <ele>50.3</ele>
        <time>2016-11-08T08:21:41Z</time>
      </trkpt>
      <trkpt lat="47.25665" lon="-1.62754">
        <ele>50.4</ele>
        <time>2016-11-08T08:21:46Z</time>
      </trkpt>
      <trkpt lat="47.25658" lon="-1.6276">
        <ele>50.4</ele>
        <time>2016-11-08T08:21:52Z</time>
      </trkpt>
      <trkpt lat="47.25651" lon="-1.62767">
        <ele>50.4</ele>
        <time>2016-11-08T08:21:59Z</time>
      </trkpt>
      <trkpt lat="47.25646" lon="-1.62775">
        <ele>50.4</ele>
        <time>2016-11-08T08:22:04Z</time>
      </trkpt>
      <trkpt lat="47.2564" lon="-1.62782">
        <ele>50.4</ele>
        <time>2016-11-08T08:22:09Z</time>
      </trkpt>
      <trkpt lat="47.25633" lon="-1.62789">
        <ele>50.5</ele>
        <time>2016-11-08T08:22:15Z</time>
      </trkpt>
      <trkpt lat="47.25627" lon="-1.62795">
        <ele>50.8</ele>
        <time>2016-11-08T08:22:21Z</time>
      </trkpt>
      <trkpt lat="47.25621" lon="-1.62801">
        <ele>51</ele>
        <time>2016-11-08T08:22:28Z</time>
      </trkpt>
      <trkpt lat="47.25614" lon="-1.62808">
        <ele>51.1</ele>
        <time>2016-11-08T08:22:34Z</time>
      </trkpt>
      <trkpt lat="47.25608" lon="-1.62813">
        <ele>51.2</ele>
        <time>2016-11-08T08:22:40Z</time>
      </trkpt>
      <trkpt lat="47.25602" lon="-1.6282">
        <ele>51.2</ele>
        <time>2016-11-08T08:22:46Z</time>
      </trkpt>
      <trkpt lat="47.25595" lon="-1.62827">
        <ele>51.3</ele>
        <time>2016-11-08T08:22:51Z</time>
      </trkpt>
      <trkpt lat="47.25588" lon="-1.62834">
        <ele>51.3</ele>
        <time>2016-11-08T08:22:56Z</time>
      </trkpt>
      <trkpt lat="47.25581" lon="-1.62839">
        <ele>51.3</ele>
        <time>2016-11-08T08:23:02Z</time>
      </trkpt>
      <trkpt lat="47.25575" lon="-1.62845">
        <ele>51.3</ele>
        <time>2016-11-08T08:23:07Z</time>
      </trkpt>
      <trkpt lat="47.25567" lon="-1.6285">
        <ele>51.3</ele>
        <time>2016-11-08T08:23:12Z</time>
      </trkpt>
      <trkpt lat="47.2556" lon="-1.62855">
        <ele>51.3</ele>
        <time>2016-11-08T08:23:18Z</time>
      </trkpt>
      <trkpt lat="47.25553" lon="-1.62861">
        <ele>51.3</ele>
        <time>2016-11-08T08:23:24Z</time>
      </trkpt>
      <trkpt lat="47.25546" lon="-1.62864">
        <ele>51.3</ele>
        <time>2016-11-08T08:23:30Z</time>
      </trkpt>
      <trkpt lat="47.25539" lon="-1.62867">
        <ele>51.3</ele>
        <time>2016-11-08T08:23:36Z</time>
      </trkpt>
      <trkpt lat="47.25532" lon="-1.62873">
        <ele>51.3</ele>
        <time>2016-11-08T08:23:40Z</time>
      </trkpt>
      <trkpt lat="47.25525" lon="-1.6288">
        <ele>51.3</ele>
        <time>2016-11-08T08:23:45Z</time>
      </trkpt>
      <trkpt lat="47.25518" lon="-1.62884">
        <ele>51.2</ele>
        <time>2016-11-08T08:23:50Z</time>
      </trkpt>
      <trkpt lat="47.25511" lon="-1.6289">
        <ele>51.1</ele>
        <time>2016-11-08T08:23:56Z</time>
      </trkpt>
      <trkpt lat="47.25505" lon="-1.62895">
        <ele>51</ele>
        <time>2016-11-08T08:24:01Z</time>
      </trkpt>
      <trkpt lat="47.25499" lon="-1.62901">
        <ele>50.8</ele>
        <time>2016-11-08T08:24:06Z</time>
      </trkpt>
      <trkpt lat="47.25492" lon="-1.62907">
        <ele>50.6</ele>
        <time>2016-11-08T08:24:13Z</time>
      </trkpt>
      <trkpt lat="47.25488" lon="-1.62918">
        <ele>50.4</ele>
        <time>2016-11-08T08:24:20Z</time>
      </trkpt>
      <trkpt lat="47.25487" lon="-1.62929">
        <ele>50.2</ele>
        <time>2016-11-08T08:24:26Z</time>
      </trkpt>
      <trkpt lat="47.25489" lon="-1.6294">
        <ele>50.1</ele>
        <time>2016-11-08T08:24:32Z</time>
      </trkpt>
      <trkpt lat="47.25487" lon="-1.62951">
        <ele>50.3</ele>
        <time>2016-11-08T08:24:55Z</time>
      </trkpt>
      <trkpt lat="47.25483" lon="-1.6296">
        <ele>50.3</ele>
        <time>2016-11-08T08:25:18Z</time>
      </trkpt>
      <trkpt lat="47.25478" lon="-1.62969">
        <ele>50.3</ele>
        <time>2016-11-08T08:25:32Z</time>
      </trkpt>
      <trkpt lat="47.2547" lon="-1.6297">
        <ele>50.3</ele>
        <time>2016-11-08T08:25:41Z</time>
      </trkpt>
      <trkpt lat="47.25463" lon="-1.62976">
        <ele>50.2</ele>
        <time>2016-11-08T08:25:52Z</time>
      </trkpt>
      <trkpt lat="47.25461" lon="-1.62987">
        <ele>50.1</ele>
        <time>2016-11-08T08:26:03Z</time>
      </trkpt>
      <trkpt lat="47.2546" lon="-1.62997">
        <ele>50</ele>
        <time>2016-11-08T08:26:12Z</time>
      </trkpt>
      <trkpt lat="47.25461" lon="-1.63008">
        <ele>50</ele>
        <time>2016-11-08T08:26:19Z</time>
      </trkpt>
      <trkpt lat="47.25462" lon="-1.63019">
        <ele>50</ele>
        <time>2016-11-08T08:26:26Z</time>
      </trkpt>
      <trkpt lat="47.25462" lon="-1.63031">
        <ele>50.1</ele>
        <time>2016-11-08T08:26:33Z</time>
      </trkpt>
      <trkpt lat="47.25461" lon="-1.63043">
        <ele>50.2</ele>
        <time>2016-11-08T08:26:40Z</time>
      </trkpt>
      <trkpt lat="47.25456" lon="-1.63053">
        <ele>50.3</ele>
        <time>2016-11-08T08:26:47Z</time>
      </trkpt>
      <trkpt lat="47.2545" lon="-1.63059">
        <ele>50.3</ele>
        <time>2016-11-08T08:26:54Z</time>
      </trkpt>
      <trkpt lat="47.25443" lon="-1.63067">
        <ele>50.4</ele>
        <time>2016-11-08T08:27:01Z</time>
      </trkpt>
      <trkpt lat="47.25436" lon="-1.63073">
        <ele>50.4</ele>
        <time>2016-11-08T08:27:06Z</time>
      </trkpt>
      <trkpt lat="47.25431" lon="-1.63083">
        <ele>50.6</ele>
        <time>2016-11-08T08:27:12Z</time>
      </trkpt>
      <trkpt lat="47.25429" lon="-1.63094">
        <ele>50.7</ele>
        <time>2016-11-08T08:27:18Z</time>
      </trkpt>
      <trkpt lat="47.25429" lon="-1.63106">
        <ele>50.8</ele>
        <time>2016-11-08T08:27:24Z</time>
      </trkpt>
      <trkpt lat="47.25429" lon="-1.63117">
        <ele>51</ele>
        <time>2016-11-08T08:27:29Z</time>
      </trkpt>
      <trkpt lat="47.25431" lon="-1.63128">
        <ele>51.1</ele>
        <time>2016-11-08T08:27:34Z</time>
      </trkpt>
      <trkpt lat="47.25433" lon="-1.63139">
        <ele>51.2</ele>
        <time>2016-11-08T08:27:41Z</time>
      </trkpt>
      <trkpt lat="47.25436" lon="-1.63149">
        <ele>51.3</ele>
        <time>2016-11-08T08:27:47Z</time>
      </trkpt>
      <trkpt lat="47.25439" lon="-1.63159">
        <ele>51.5</ele>
        <time>2016-11-08T08:27:53Z</time>
      </trkpt>
      <trkpt lat="47.25442" lon="-1.63171">
        <ele>51.5</ele>
        <time>2016-11-08T08:27:59Z</time>
      </trkpt>
      <trkpt lat="47.25445" lon="-1.63183">
        <ele>51.5</ele>
        <time>2016-11-08T08:28:05Z</time>
      </trkpt>
      <trkpt lat="47.25448" lon="-1.63195">
        <ele>51.6</ele>
        <time>2016-11-08T08:28:11Z</time>
      </trkpt>
      <trkpt lat="47.2545" lon="-1.63205">
        <ele>51.6</ele>
        <time>2016-11-08T08:28:17Z</time>
      </trkpt>
      <trkpt lat="47.25454" lon="-1.63216">
        <ele>51.6</ele>
        <time>2016-11-08T08:28:23Z</time>
      </trkpt>
      <trkpt lat="47.25457" lon="-1.63227">
        <ele>51.6</ele>
        <time>2016-11-08T08:28:29Z</time>
      </trkpt>
      <trkpt lat="47.2546" lon="-1.63238">
        <ele>51.6</ele>
        <time>2016-11-08T08:28:35Z</time>
      </trkpt>
      <trkpt lat="47.25462" lon="-1.63249">
        <ele>51.6</ele>
        <time>2016-11-08T08:28:41Z</time>
      </trkpt>
      <trkpt lat="47.25465" lon="-1.63259">
        <ele>51.6</ele>
        <time>2016-11-08T08:28:47Z</time>
      </trkpt>
      <trkpt lat="47.25469" lon="-1.63267">
        <ele>51.6</ele>
        <time>2016-11-08T08:28:53Z</time>
      </trkpt>
      <trkpt lat="47.25473" lon="-1.63277">
        <ele>51.6</ele>
        <time>2016-11-08T08:28:58Z</time>
      </trkpt>
      <trkpt lat="47.25476" lon="-1.63289">
        <ele>51.6</ele>
        <time>2016-11-08T08:29:04Z</time>
      </trkpt>
      <trkpt lat="47.25478" lon="-1.63299">
        <ele>51.6</ele>
        <time>2016-11-08T08:29:09Z</time>
      </trkpt>
      <trkpt lat="47.25482" lon="-1.63309">
        <ele>51.6</ele>
        <time>2016-11-08T08:29:14Z</time>
      </trkpt>
      <trkpt lat="47.25485" lon="-1.63319">
        <ele>51.5</ele>
        <time>2016-11-08T08:29:20Z</time>
      </trkpt>
      <trkpt lat="47.2549" lon="-1.63328">
        <ele>51.4</ele>
        <time>2016-11-08T08:29:25Z</time>
      </trkpt>
      <trkpt lat="47.25495" lon="-1.63337">
        <ele>51.4</ele>
        <time>2016-11-08T08:29:31Z</time>
      </trkpt>
      <trkpt lat="47.255" lon="-1.63344">
        <ele>51.3</ele>
        <time>2016-11-08T08:29:36Z</time>
      </trkpt>
      <trkpt lat="47.25507" lon="-1.6335">
        <ele>51.3</ele>
        <time>2016-11-08T08:29:41Z</time>
      </trkpt>
      <trkpt lat="47.25512" lon="-1.63357">
        <ele>51.3</ele>
        <time>2016-11-08T08:29:46Z</time>
      </trkpt>
      <trkpt lat="47.25517" lon="-1.63367">
        <ele>51.3</ele>
        <time>2016-11-08T08:29:52Z</time>
      </trkpt>
      <trkpt lat="47.2552" lon="-1.63379">
        <ele>51.1</ele>
        <time>2016-11-08T08:29:58Z</time>
      </trkpt>
      <trkpt lat="47.25523" lon="-1.63389">
        <ele>51</ele>
        <time>2016-11-08T08:30:03Z</time>
      </trkpt>
      <trkpt lat="47.25525" lon="-1.634">
        <ele>51</ele>
        <time>2016-11-08T08:30:08Z</time>
      </trkpt>
      <trkpt lat="47.25527" lon="-1.6341">
        <ele>50.9</ele>
        <time>2016-11-08T08:30:14Z</time>
      </trkpt>
      <trkpt lat="47.25528" lon="-1.63422">
        <ele>50.7</ele>
        <time>2016-11-08T08:30:20Z</time>
      </trkpt>
      <trkpt lat="47.25527" lon="-1.63433">
        <ele>50.5</ele>
        <time>2016-11-08T08:30:26Z</time>
      </trkpt>
      <trkpt lat="47.25527" lon="-1.63444">
        <ele>50.3</ele>
        <time>2016-11-08T08:30:31Z</time>
      </trkpt>
      <trkpt lat="47.25526" lon="-1.63454">
        <ele>50</ele>
        <time>2016-11-08T08:30:37Z</time>
      </trkpt>
      <trkpt lat="47.25527" lon="-1.63467">
        <ele>49.8</ele>
        <time>2016-11-08T08:30:43Z</time>
      </trkpt>
      <trkpt lat="47.25527" lon="-1.63479">
        <ele>49.6</ele>
        <time>2016-11-08T08:30:49Z</time>
      </trkpt>
      <trkpt lat="47.25529" lon="-1.63491">
        <ele>49.5</ele>
        <time>2016-11-08T08:30:54Z</time>
      </trkpt>
      <trkpt lat="47.25532" lon="-1.63501">
        <ele>49.3</ele>
        <time>2016-11-08T08:30:59Z</time>
      </trkpt>
      <trkpt lat="47.25534" lon="-1.63513">
        <ele>49.2</ele>
        <time>2016-11-08T08:31:05Z</time>
      </trkpt>
      <trkpt lat="47.25535" lon="-1.63524">
        <ele>49.1</ele>
        <time>2016-11-08T08:31:10Z</time>
      </trkpt>
      <trkpt lat="47.25536" lon="-1.63535">
        <ele>49</ele>
        <time>2016-11-08T08:31:15Z</time>
      </trkpt>
      <trkpt lat="47.25539" lon="-1.63546">
        <ele>48.9</ele>
        <time>2016-11-08T08:31:21Z</time>
      </trkpt>
      <trkpt lat="47.25543" lon="-1.63556">
        <ele>48.8</ele>
        <time>2016-11-08T08:31:26Z</time>
      </trkpt>
      <trkpt lat="47.25545" lon="-1.63568">
        <ele>48.5</ele>
        <time>2016-11-08T08:31:32Z</time>
      </trkpt>
      <trkpt lat="47.25547" lon="-1.63578">
        <ele>48.3</ele>
        <time>2016-11-08T08:31:37Z</time>
      </trkpt>
      <trkpt lat="47.25548" lon="-1.63591">
        <ele>48.2</ele>
        <time>2016-11-08T08:31:43Z</time>
      </trkpt>
      <trkpt lat="47.25546" lon="-1.63601">
        <ele>48.1</ele>
        <time>2016-11-08T08:31:50Z</time>
      </trkpt>
      <trkpt lat="47.2554" lon="-1.63607">
        <ele>47.9</ele>
        <time>2016-11-08T08:31:57Z</time>
      </trkpt>
      <trkpt lat="47.25534" lon="-1.63614">
        <ele>47.8</ele>
        <time>2016-11-08T08:32:02Z</time>
      </trkpt>
      <trkpt lat="47.25527" lon="-1.63619">
        <ele>47.6</ele>
        <time>2016-11-08T08:32:07Z</time>
      </trkpt>
      <trkpt lat="47.2552" lon="-1.63625">
        <ele>47.3</ele>
        <time>2016-11-08T08:32:13Z</time>
      </trkpt>
      <trkpt lat="47.25514" lon="-1.63633">
        <ele>47</ele>
        <time>2016-11-08T08:32:19Z</time>
      </trkpt>
      <trkpt lat="47.25507" lon="-1.63638">
        <ele>46.9</ele>
        <time>2016-11-08T08:32:24Z</time>
      </trkpt>
      <trkpt lat="47.255" lon="-1.63641">
        <ele>46.7</ele>
        <time>2016-11-08T08:32:29Z</time>
      </trkpt>
      <trkpt lat="47.25492" lon="-1.63645">
        <ele>46.6</ele>
        <time>2016-11-08T08:32:35Z</time>
      </trkpt>
      <trkpt lat="47.25485" lon="-1.63649">
        <ele>46.5</ele>
        <time>2016-11-08T08:32:40Z</time>
      </trkpt>
      <trkpt lat="47.25478" lon="-1.63654">
        <ele>46.5</ele>
        <time>2016-11-08T08:32:46Z</time>
      </trkpt>
      <trkpt lat="47.25472" lon="-1.6366">
        <ele>46.4</ele>
        <time>2016-11-08T08:32:52Z</time>
      </trkpt>
      <trkpt lat="47.25464" lon="-1.63664">
        <ele>46.3</ele>
        <time>2016-11-08T08:32:59Z</time>
      </trkpt>
      <trkpt lat="47.25457" lon="-1.63669">
        <ele>46.2</ele>
        <time>2016-11-08T08:33:05Z</time>
      </trkpt>
      <trkpt lat="47.25449" lon="-1.63673">
        <ele>46.1</ele>
        <time>2016-11-08T08:33:11Z</time>
      </trkpt>
      <trkpt lat="47.25442" lon="-1.63676">
        <ele>46.1</ele>
        <time>2016-11-08T08:33:17Z</time>
      </trkpt>
      <trkpt lat="47.25434" lon="-1.6368">
        <ele>45.8</ele>
        <time>2016-11-08T08:33:22Z</time>
      </trkpt>
      <trkpt lat="47.25426" lon="-1.63683">
        <ele>45.7</ele>
        <time>2016-11-08T08:33:26Z</time>
      </trkpt>
      <trkpt lat="47.25419" lon="-1.63687">
        <ele>45.4</ele>
        <time>2016-11-08T08:33:31Z</time>
      </trkpt>
      <trkpt lat="47.25411" lon="-1.63687">
        <ele>45.2</ele>
        <time>2016-11-08T08:33:38Z</time>
      </trkpt>
      <trkpt lat="47.25403" lon="-1.63684">
        <ele>45.1</ele>
        <time>2016-11-08T08:33:44Z</time>
      </trkpt>
      <trkpt lat="47.25396" lon="-1.6368">
        <ele>45</ele>
        <time>2016-11-08T08:33:50Z</time>
      </trkpt>
      <trkpt lat="47.25389" lon="-1.63676">
        <ele>44.9</ele>
        <time>2016-11-08T08:33:57Z</time>
      </trkpt>
      <trkpt lat="47.25381" lon="-1.63671">
        <ele>44.9</ele>
        <time>2016-11-08T08:34:03Z</time>
      </trkpt>
      <trkpt lat="47.25374" lon="-1.63667">
        <ele>44.9</ele>
        <time>2016-11-08T08:34:08Z</time>
      </trkpt>
      <trkpt lat="47.25366" lon="-1.63662">
        <ele>44.8</ele>
        <time>2016-11-08T08:34:14Z</time>
      </trkpt>
      <trkpt lat="47.25359" lon="-1.63657">
        <ele>44.7</ele>
        <time>2016-11-08T08:34:19Z</time>
      </trkpt>
      <trkpt lat="47.25351" lon="-1.63651">
        <ele>44.5</ele>
        <time>2016-11-08T08:34:25Z</time>
      </trkpt>
      <trkpt lat="47.25344" lon="-1.63643">
        <ele>44.5</ele>
        <time>2016-11-08T08:34:30Z</time>
      </trkpt>
      <trkpt lat="47.25337" lon="-1.63637">
        <ele>44.4</ele>
        <time>2016-11-08T08:34:35Z</time>
      </trkpt>
      <trkpt lat="47.2533" lon="-1.63632">
        <ele>44.4</ele>
        <time>2016-11-08T08:34:42Z</time>
      </trkpt>
      <trkpt lat="47.25322" lon="-1.63636">
        <ele>44.4</ele>
        <time>2016-11-08T08:34:50Z</time>
      </trkpt>
      <trkpt lat="47.25315" lon="-1.63632">
        <ele>44.5</ele>
        <time>2016-11-08T08:35:27Z</time>
      </trkpt>
      <trkpt lat="47.25313" lon="-1.63643">
        <ele>44.5</ele>
        <time>2016-11-08T08:35:34Z</time>
      </trkpt>
      <trkpt lat="47.25312" lon="-1.63655">
        <ele>44.5</ele>
        <time>2016-11-08T08:35:41Z</time>
      </trkpt>
      <trkpt lat="47.25311" lon="-1.63666">
        <ele>44.4</ele>
        <time>2016-11-08T08:35:47Z</time>
      </trkpt>
      <trkpt lat="47.2531" lon="-1.63678">
        <ele>44.2</ele>
        <time>2016-11-08T08:35:55Z</time>
      </trkpt>
      <trkpt lat="47.25308" lon="-1.6369">
        <ele>44</ele>
        <time>2016-11-08T08:36:05Z</time>
      </trkpt>
      <trkpt lat="47.25304" lon="-1.63699">
        <ele>43.9</ele>
        <time>2016-11-08T08:36:10Z</time>
      </trkpt>
      <trkpt lat="47.25301" lon="-1.63711">
        <ele>43.7</ele>
        <time>2016-11-08T08:36:17Z</time>
      </trkpt>
      <trkpt lat="47.253" lon="-1.63723">
        <ele>43.6</ele>
        <time>2016-11-08T08:36:23Z</time>
      </trkpt>
      <trkpt lat="47.25298" lon="-1.63733">
        <ele>43.3</ele>
        <time>2016-11-08T08:36:27Z</time>
      </trkpt>
      <trkpt lat="47.25299" lon="-1.63745">
        <ele>43.1</ele>
        <time>2016-11-08T08:36:31Z</time>
      </trkpt>
      <trkpt lat="47.25298" lon="-1.63757">
        <ele>42.8</ele>
        <time>2016-11-08T08:36:35Z</time>
      </trkpt>
      <trkpt lat="47.25296" lon="-1.63767">
        <ele>42.4</ele>
        <time>2016-11-08T08:36:39Z</time>
      </trkpt>
      <trkpt lat="47.25291" lon="-1.63776">
        <ele>41.9</ele>
        <time>2016-11-08T08:36:44Z</time>
      </trkpt>
      <trkpt lat="47.25285" lon="-1.63784">
        <ele>41.5</ele>
        <time>2016-11-08T08:36:50Z</time>
      </trkpt>
      <trkpt lat="47.25279" lon="-1.63791">
        <ele>41.1</ele>
        <time>2016-11-08T08:36:55Z</time>
      </trkpt>
      <trkpt lat="47.25272" lon="-1.63795">
        <ele>40.5</ele>
        <time>2016-11-08T08:37:00Z</time>
      </trkpt>
      <trkpt lat="47.25265" lon="-1.63799">
        <ele>40.2</ele>
        <time>2016-11-08T08:37:04Z</time>
      </trkpt>
      <trkpt lat="47.25256" lon="-1.63803">
        <ele>39.8</ele>
        <time>2016-11-08T08:37:09Z</time>
      </trkpt>
      <trkpt lat="47.25248" lon="-1.63803">
        <ele>39.6</ele>
        <time>2016-11-08T08:37:14Z</time>
      </trkpt>
      <trkpt lat="47.2524" lon="-1.63803">
        <ele>39.4</ele>
        <time>2016-11-08T08:37:19Z</time>
      </trkpt>
      <trkpt lat="47.25232" lon="-1.63801">
        <ele>39.3</ele>
        <time>2016-11-08T08:37:24Z</time>
      </trkpt>
      <trkpt lat="47.25224" lon="-1.63799">
        <ele>39.2</ele>
        <time>2016-11-08T08:37:29Z</time>
      </trkpt>
      <trkpt lat="47.25216" lon="-1.63797">
        <ele>39.1</ele>
        <time>2016-11-08T08:37:34Z</time>
      </trkpt>
      <trkpt lat="47.25208" lon="-1.63796">
        <ele>39</ele>
        <time>2016-11-08T08:37:39Z</time>
      </trkpt>
      <trkpt lat="47.25201" lon="-1.63795">
        <ele>39</ele>
        <time>2016-11-08T08:37:44Z</time>
      </trkpt>
      <trkpt lat="47.25192" lon="-1.63794">
        <ele>38.9</ele>
        <time>2016-11-08T08:37:51Z</time>
      </trkpt>
      <trkpt lat="47.25185" lon="-1.63795">
        <ele>38.9</ele>
        <time>2016-11-08T08:37:55Z</time>
      </trkpt>
      <trkpt lat="47.25176" lon="-1.63796">
        <ele>38.9</ele>
        <time>2016-11-08T08:38:00Z</time>
      </trkpt>
      <trkpt lat="47.25169" lon="-1.638">
        <ele>38.9</ele>
        <time>2016-11-08T08:38:05Z</time>
      </trkpt>
      <trkpt lat="47.2516" lon="-1.63803">
        <ele>38.9</ele>
        <time>2016-11-08T08:38:10Z</time>
      </trkpt>
      <trkpt lat="47.25153" lon="-1.63808">
        <ele>38.9</ele>
        <time>2016-11-08T08:38:15Z</time>
      </trkpt>
      <trkpt lat="47.25146" lon="-1.63814">
        <ele>39</ele>
        <time>2016-11-08T08:38:20Z</time>
      </trkpt>
      <trkpt lat="47.2514" lon="-1.63821">
        <ele>39</ele>
        <time>2016-11-08T08:38:25Z</time>
      </trkpt>
      <trkpt lat="47.25134" lon="-1.6383">
        <ele>39</ele>
        <time>2016-11-08T08:38:31Z</time>
      </trkpt>
      <trkpt lat="47.25129" lon="-1.6384">
        <ele>38.9</ele>
        <time>2016-11-08T08:38:37Z</time>
      </trkpt>
      <trkpt lat="47.25123" lon="-1.63848">
        <ele>38.8</ele>
        <time>2016-11-08T08:38:43Z</time>
      </trkpt>
      <trkpt lat="47.25117" lon="-1.63855">
        <ele>38.8</ele>
        <time>2016-11-08T08:38:48Z</time>
      </trkpt>
      <trkpt lat="47.25112" lon="-1.63864">
        <ele>38.9</ele>
        <time>2016-11-08T08:38:54Z</time>
      </trkpt>
      <trkpt lat="47.25106" lon="-1.63872">
        <ele>38.9</ele>
        <time>2016-11-08T08:38:59Z</time>
      </trkpt>
      <trkpt lat="47.251" lon="-1.6388">
        <ele>39</ele>
        <time>2016-11-08T08:39:05Z</time>
      </trkpt>
      <trkpt lat="47.25095" lon="-1.63889">
        <ele>39</ele>
        <time>2016-11-08T08:39:10Z</time>
      </trkpt>
      <trkpt lat="47.25089" lon="-1.63895">
        <ele>39</ele>
        <time>2016-11-08T08:39:16Z</time>
      </trkpt>
      <trkpt lat="47.25082" lon="-1.63902">
        <ele>39</ele>
        <time>2016-11-08T08:39:22Z</time>
      </trkpt>
      <trkpt lat="47.25074" lon="-1.63908">
        <ele>39</ele>
        <time>2016-11-08T08:39:28Z</time>
      </trkpt>
      <trkpt lat="47.25067" lon="-1.63913">
        <ele>39</ele>
        <time>2016-11-08T08:39:34Z</time>
      </trkpt>
      <trkpt lat="47.25059" lon="-1.63918">
        <ele>39</ele>
        <time>2016-11-08T08:39:40Z</time>
      </trkpt>
      <trkpt lat="47.25053" lon="-1.63924">
        <ele>39</ele>
        <time>2016-11-08T08:39:45Z</time>
      </trkpt>
      <trkpt lat="47.25046" lon="-1.6393">
        <ele>38.9</ele>
        <time>2016-11-08T08:39:51Z</time>
      </trkpt>
      <trkpt lat="47.25039" lon="-1.63934">
        <ele>38.8</ele>
        <time>2016-11-08T08:39:56Z</time>
      </trkpt>
      <trkpt lat="47.25031" lon="-1.63939">
        <ele>38.8</ele>
        <time>2016-11-08T08:40:02Z</time>
      </trkpt>
      <trkpt lat="47.25024" lon="-1.63944">
        <ele>38.7</ele>
        <time>2016-11-08T08:40:08Z</time>
      </trkpt>
      <trkpt lat="47.25017" lon="-1.63949">
        <ele>38.7</ele>
        <time>2016-11-08T08:40:14Z</time>
      </trkpt>
      <trkpt lat="47.25011" lon="-1.63956">
        <ele>38.7</ele>
        <time>2016-11-08T08:40:20Z</time>
      </trkpt>
      <trkpt lat="47.25012" lon="-1.63968">
        <ele>38.8</ele>
        <time>2016-11-08T08:40:27Z</time>
      </trkpt>
      <trkpt lat="47.25011" lon="-1.63978">
        <ele>38.8</ele>
        <time>2016-11-08T08:40:33Z</time>
      </trkpt>
      <trkpt lat="47.2501" lon="-1.63989">
        <ele>38.8</ele>
        <time>2016-11-08T08:40:39Z</time>
      </trkpt>
      <trkpt lat="47.25011" lon="-1.64001">
        <ele>38.7</ele>
        <time>2016-11-08T08:40:46Z</time>
      </trkpt>
      <trkpt lat="47.25013" lon="-1.64013">
        <ele>38.6</ele>
        <time>2016-11-08T08:40:53Z</time>
      </trkpt>
      <trkpt lat="47.25014" lon="-1.64024">
        <ele>38.6</ele>
        <time>2016-11-08T08:40:59Z</time>
      </trkpt>
      <trkpt lat="47.25015" lon="-1.64035">
        <ele>38.4</ele>
        <time>2016-11-08T08:41:17Z</time>
      </trkpt>
      <trkpt lat="47.25008" lon="-1.64042">
        <ele>37.4</ele>
        <time>2016-11-08T08:41:26Z</time>
      </trkpt>
      <trkpt lat="47.25001" lon="-1.64046">
        <ele>35.9</ele>
        <time>2016-11-08T08:41:34Z</time>
      </trkpt>
      <trkpt lat="47.24996" lon="-1.64054">
        <ele>35.1</ele>
        <time>2016-11-08T08:41:42Z</time>
      </trkpt>
      <trkpt lat="47.2499" lon="-1.6406">
        <ele>34.5</ele>
        <time>2016-11-08T08:41:50Z</time>
      </trkpt>
      <trkpt lat="47.24983" lon="-1.64063">
        <ele>34.3</ele>
        <time>2016-11-08T08:41:57Z</time>
      </trkpt>
      <trkpt lat="47.24975" lon="-1.64064">
        <ele>34.1</ele>
        <time>2016-11-08T08:42:04Z</time>
      </trkpt>
      <trkpt lat="47.24967" lon="-1.64065">
        <ele>33.8</ele>
        <time>2016-11-08T08:42:11Z</time>
      </trkpt>
      <trkpt lat="47.2496" lon="-1.64064">
        <ele>33.7</ele>
        <time>2016-11-08T08:42:16Z</time>
      </trkpt>
      <trkpt lat="47.24951" lon="-1.64063">
        <ele>33.7</ele>
        <time>2016-11-08T08:42:21Z</time>
      </trkpt>
      <trkpt lat="47.24943" lon="-1.6406">
        <ele>33.7</ele>
        <time>2016-11-08T08:42:26Z</time>
      </trkpt>
      <trkpt lat="47.24936" lon="-1.64057">
        <ele>33.7</ele>
        <time>2016-11-08T08:42:31Z</time>
      </trkpt>
      <trkpt lat="47.24928" lon="-1.64053">
        <ele>33.7</ele>
        <time>2016-11-08T08:42:36Z</time>
      </trkpt>
      <trkpt lat="47.2492" lon="-1.64049">
        <ele>33.6</ele>
        <time>2016-11-08T08:42:41Z</time>
      </trkpt>
      <trkpt lat="47.24913" lon="-1.64045">
        <ele>33.6</ele>
        <time>2016-11-08T08:42:45Z</time>
      </trkpt>
      <trkpt lat="47.24905" lon="-1.64049">
        <ele>33.4</ele>
        <time>2016-11-08T08:42:50Z</time>
      </trkpt>
      <trkpt lat="47.24897" lon="-1.64051">
        <ele>33.3</ele>
        <time>2016-11-08T08:42:56Z</time>
      </trkpt>
      <trkpt lat="47.24889" lon="-1.64051">
        <ele>33.2</ele>
        <time>2016-11-08T08:43:01Z</time>
      </trkpt>
      <trkpt lat="47.24882" lon="-1.64055">
        <ele>33</ele>
        <time>2016-11-08T08:43:07Z</time>
      </trkpt>
      <trkpt lat="47.24878" lon="-1.64066">
        <ele>32.4</ele>
        <time>2016-11-08T08:43:14Z</time>
      </trkpt>
      <trkpt lat="47.24874" lon="-1.64076">
        <ele>31.6</ele>
        <time>2016-11-08T08:43:20Z</time>
      </trkpt>
      <trkpt lat="47.24869" lon="-1.64084">
        <ele>31</ele>
        <time>2016-11-08T08:43:26Z</time>
      </trkpt>
      <trkpt lat="47.24863" lon="-1.64091">
        <ele>30.6</ele>
        <time>2016-11-08T08:43:31Z</time>
      </trkpt>
      <trkpt lat="47.24856" lon="-1.64098">
        <ele>30.2</ele>
        <time>2016-11-08T08:43:37Z</time>
      </trkpt>
      <trkpt lat="47.2485" lon="-1.64103">
        <ele>29.8</ele>
        <time>2016-11-08T08:43:42Z</time>
      </trkpt>
      <trkpt lat="47.24843" lon="-1.64109">
        <ele>29.2</ele>
        <time>2016-11-08T08:43:48Z</time>
      </trkpt>
      <trkpt lat="47.24836" lon="-1.64116">
        <ele>28.2</ele>
        <time>2016-11-08T08:43:55Z</time>
      </trkpt>
      <trkpt lat="47.24829" lon="-1.64121">
        <ele>27.5</ele>
        <time>2016-11-08T08:44:02Z</time>
      </trkpt>
      <trkpt lat="47.24822" lon="-1.64128">
        <ele>27</ele>
        <time>2016-11-08T08:44:08Z</time>
      </trkpt>
      <trkpt lat="47.24815" lon="-1.64134">
        <ele>26.5</ele>
        <time>2016-11-08T08:44:14Z</time>
      </trkpt>
      <trkpt lat="47.24809" lon="-1.64138">
        <ele>26.1</ele>
        <time>2016-11-08T08:44:19Z</time>
      </trkpt>
      <trkpt lat="47.24802" lon="-1.64143">
        <ele>25.6</ele>
        <time>2016-11-08T08:44:25Z</time>
      </trkpt>
      <trkpt lat="47.24794" lon="-1.64148">
        <ele>25.2</ele>
        <time>2016-11-08T08:44:31Z</time>
      </trkpt>
      <trkpt lat="47.24787" lon="-1.64154">
        <ele>24.8</ele>
        <time>2016-11-08T08:44:37Z</time>
      </trkpt>
      <trkpt lat="47.24781" lon="-1.64161">
        <ele>24.6</ele>
        <time>2016-11-08T08:44:42Z</time>
      </trkpt>
      <trkpt lat="47.24775" lon="-1.64167">
        <ele>24.5</ele>
        <time>2016-11-08T08:44:47Z</time>
      </trkpt>
      <trkpt lat="47.2477" lon="-1.64175">
        <ele>24.4</ele>
        <time>2016-11-08T08:44:53Z</time>
      </trkpt>
      <trkpt lat="47.24763" lon="-1.64182">
        <ele>24.7</ele>
        <time>2016-11-08T08:44:59Z</time>
      </trkpt>
      <trkpt lat="47.24757" lon="-1.6419">
        <ele>24.9</ele>
        <time>2016-11-08T08:45:05Z</time>
      </trkpt>
      <trkpt lat="47.24752" lon="-1.64198">
        <ele>25</ele>
        <time>2016-11-08T08:45:10Z</time>
      </trkpt>
      <trkpt lat="47.24746" lon="-1.64207">
        <ele>25.3</ele>
        <time>2016-11-08T08:45:15Z</time>
      </trkpt>
      <trkpt lat="47.24739" lon="-1.64216">
        <ele>25.5</ele>
        <time>2016-11-08T08:45:21Z</time>
      </trkpt>
      <trkpt lat="47.24733" lon="-1.64223">
        <ele>25.6</ele>
        <time>2016-11-08T08:45:26Z</time>
      </trkpt>
      <trkpt lat="47.24727" lon="-1.6423">
        <ele>25.7</ele>
        <time>2016-11-08T08:45:31Z</time>
      </trkpt>
      <trkpt lat="47.2472" lon="-1.64237">
        <ele>25.8</ele>
        <time>2016-11-08T08:45:36Z</time>
      </trkpt>
      <trkpt lat="47.24714" lon="-1.64243">
        <ele>25.8</ele>
        <time>2016-11-08T08:45:41Z</time>
      </trkpt>
      <trkpt lat="47.24707" lon="-1.64248">
        <ele>25.7</ele>
        <time>2016-11-08T08:45:46Z</time>
      </trkpt>
      <trkpt lat="47.247" lon="-1.64254">
        <ele>25.1</ele>
        <time>2016-11-08T08:45:52Z</time>
      </trkpt>
      <trkpt lat="47.24693" lon="-1.6426">
        <ele>24.8</ele>
        <time>2016-11-08T08:45:57Z</time>
      </trkpt>
      <trkpt lat="47.24686" lon="-1.64267">
        <ele>24.4</ele>
        <time>2016-11-08T08:46:02Z</time>
      </trkpt>
      <trkpt lat="47.24679" lon="-1.64272">
        <ele>24.1</ele>
        <time>2016-11-08T08:46:08Z</time>
      </trkpt>
      <trkpt lat="47.24672" lon="-1.6428">
        <ele>23.9</ele>
        <time>2016-11-08T08:46:14Z</time>
      </trkpt>
      <trkpt lat="47.24666" lon="-1.64288">
        <ele>23.7</ele>
        <time>2016-11-08T08:46:20Z</time>
      </trkpt>
      <trkpt lat="47.24658" lon="-1.64294">
        <ele>23.2</ele>
        <time>2016-11-08T08:46:26Z</time>
      </trkpt>
      <trkpt lat="47.24651" lon="-1.643">
        <ele>22.6</ele>
        <time>2016-11-08T08:46:32Z</time>
      </trkpt>
      <trkpt lat="47.24644" lon="-1.64304">
        <ele>22</ele>
        <time>2016-11-08T08:46:38Z</time>
      </trkpt>
      <trkpt lat="47.24636" lon="-1.64308">
        <ele>21</ele>
        <time>2016-11-08T08:46:45Z</time>
      </trkpt>
      <trkpt lat="47.24629" lon="-1.64306">
        <ele>20.1</ele>
        <time>2016-11-08T08:46:53Z</time>
      </trkpt>
      <trkpt lat="47.24621" lon="-1.64305">
        <ele>19.4</ele>
        <time>2016-11-08T08:47:00Z</time>
      </trkpt>
      <trkpt lat="47.24615" lon="-1.6431">
        <ele>18</ele>
        <time>2016-11-08T08:47:12Z</time>
      </trkpt>
      <trkpt lat="47.24608" lon="-1.64309">
        <ele>16.4</ele>
        <time>2016-11-08T08:47:22Z</time>
      </trkpt>
      <trkpt lat="47.24601" lon="-1.64304">
        <ele>14.2</ele>
        <time>2016-11-08T08:47:49Z</time>
      </trkpt>
      <trkpt lat="47.24594" lon="-1.64308">
        <ele>13.7</ele>
        <time>2016-11-08T08:48:17Z</time>
      </trkpt>
      <trkpt lat="47.2459" lon="-1.64297">
        <ele>13.3</ele>
        <time>2016-11-08T08:49:23Z</time>
      </trkpt>
      <trkpt lat="47.24587" lon="-1.64287">
        <ele>13.3</ele>
        <time>2016-11-08T08:49:29Z</time>
      </trkpt>
      <trkpt lat="47.24584" lon="-1.64276">
        <ele>13.2</ele>
        <time>2016-11-08T08:49:36Z</time>
      </trkpt>
      <trkpt lat="47.24583" lon="-1.64266">
        <ele>13.3</ele>
        <time>2016-11-08T08:49:43Z</time>
      </trkpt>
      <trkpt lat="47.24581" lon="-1.64254">
        <ele>13.4</ele>
        <time>2016-11-08T08:49:53Z</time>
      </trkpt>
      <trkpt lat="47.24577" lon="-1.64244">
        <ele>13.5</ele>
        <time>2016-11-08T08:50:00Z</time>
      </trkpt>
      <trkpt lat="47.24572" lon="-1.64234">
        <ele>13.5</ele>
        <time>2016-11-08T08:50:06Z</time>
      </trkpt>
      <trkpt lat="47.24568" lon="-1.64223">
        <ele>13.5</ele>
        <time>2016-11-08T08:50:13Z</time>
      </trkpt>
      <trkpt lat="47.24564" lon="-1.64213">
        <ele>13.3</ele>
        <time>2016-11-08T08:50:19Z</time>
      </trkpt>
      <trkpt lat="47.2456" lon="-1.64203">
        <ele>13.2</ele>
        <time>2016-11-08T08:50:24Z</time>
      </trkpt>
      <trkpt lat="47.24556" lon="-1.64193">
        <ele>13.1</ele>
        <time>2016-11-08T08:50:30Z</time>
      </trkpt>
      <trkpt lat="47.2455" lon="-1.64185">
        <ele>13.1</ele>
        <time>2016-11-08T08:50:35Z</time>
      </trkpt>
      <trkpt lat="47.24544" lon="-1.64177">
        <ele>13.1</ele>
        <time>2016-11-08T08:50:40Z</time>
      </trkpt>
      <trkpt lat="47.24539" lon="-1.64168">
        <ele>13.1</ele>
        <time>2016-11-08T08:50:46Z</time>
      </trkpt>
      <trkpt lat="47.24535" lon="-1.64159">
        <ele>13.1</ele>
        <time>2016-11-08T08:50:51Z</time>
      </trkpt>
      <trkpt lat="47.24531" lon="-1.6415">
        <ele>13.1</ele>
        <time>2016-11-08T08:50:57Z</time>
      </trkpt>
      <trkpt lat="47.24526" lon="-1.64141">
        <ele>13.1</ele>
        <time>2016-11-08T08:51:03Z</time>
      </trkpt>
      <trkpt lat="47.24523" lon="-1.64131">
        <ele>13.1</ele>
        <time>2016-11-08T08:51:08Z</time>
      </trkpt>
      <trkpt lat="47.24518" lon="-1.64121">
        <ele>13</ele>
        <time>2016-11-08T08:51:13Z</time>
      </trkpt>
      <trkpt lat="47.24514" lon="-1.64112">
        <ele>12.8</ele>
        <time>2016-11-08T08:51:19Z</time>
      </trkpt>
      <trkpt lat="47.24509" lon="-1.64102">
        <ele>12.4</ele>
        <time>2016-11-08T08:51:25Z</time>
      </trkpt>
      <trkpt lat="47.24504" lon="-1.64093">
        <ele>11.9</ele>
        <time>2016-11-08T08:51:30Z</time>
      </trkpt>
      <trkpt lat="47.245" lon="-1.64084">
        <ele>11.4</ele>
        <time>2016-11-08T08:51:35Z</time>
      </trkpt>
      <trkpt lat="47.24496" lon="-1.64073">
        <ele>10.7</ele>
        <time>2016-11-08T08:51:41Z</time>
      </trkpt>
      <trkpt lat="47.24491" lon="-1.64065">
        <ele>10.4</ele>
        <time>2016-11-08T08:51:46Z</time>
      </trkpt>
      <trkpt lat="47.24487" lon="-1.64054">
        <ele>10.2</ele>
        <time>2016-11-08T08:51:52Z</time>
      </trkpt>
      <trkpt lat="47.24483" lon="-1.64043">
        <ele>10</ele>
        <time>2016-11-08T08:51:58Z</time>
      </trkpt>
      <trkpt lat="47.24479" lon="-1.64033">
        <ele>9.9</ele>
        <time>2016-11-08T08:52:03Z</time>
      </trkpt>
      <trkpt lat="47.24475" lon="-1.64022">
        <ele>9.7</ele>
        <time>2016-11-08T08:52:08Z</time>
      </trkpt>
      <trkpt lat="47.24471" lon="-1.64011">
        <ele>9.5</ele>
        <time>2016-11-08T08:52:14Z</time>
      </trkpt>
      <trkpt lat="47.24467" lon="-1.64001">
        <ele>9.2</ele>
        <time>2016-11-08T08:52:20Z</time>
      </trkpt>
      <trkpt lat="47.24464" lon="-1.63991">
        <ele>9.1</ele>
        <time>2016-11-08T08:52:25Z</time>
      </trkpt>
      <trkpt lat="47.2446" lon="-1.63981">
        <ele>8.9</ele>
        <time>2016-11-08T08:52:30Z</time>
      </trkpt>
      <trkpt lat="47.24457" lon="-1.63971">
        <ele>8.9</ele>
        <time>2016-11-08T08:52:34Z</time>
      </trkpt>
      <trkpt lat="47.24453" lon="-1.63961">
        <ele>8.9</ele>
        <time>2016-11-08T08:52:39Z</time>
      </trkpt>
      <trkpt lat="47.24449" lon="-1.6395">
        <ele>8.8</ele>
        <time>2016-11-08T08:52:45Z</time>
      </trkpt>
      <trkpt lat="47.24445" lon="-1.6394">
        <ele>8.8</ele>
        <time>2016-11-08T08:52:50Z</time>
      </trkpt>
      <trkpt lat="47.24442" lon="-1.63929">
        <ele>8.8</ele>
        <time>2016-11-08T08:52:55Z</time>
      </trkpt>
      <trkpt lat="47.24438" lon="-1.63918">
        <ele>8.8</ele>
        <time>2016-11-08T08:53:01Z</time>
      </trkpt>
      <trkpt lat="47.24433" lon="-1.63909">
        <ele>8.7</ele>
        <time>2016-11-08T08:53:06Z</time>
      </trkpt>
      <trkpt lat="47.24429" lon="-1.639">
        <ele>8.7</ele>
        <time>2016-11-08T08:53:11Z</time>
      </trkpt>
      <trkpt lat="47.24426" lon="-1.63888">
        <ele>8.6</ele>
        <time>2016-11-08T08:53:17Z</time>
      </trkpt>
      <trkpt lat="47.24423" lon="-1.63878">
        <ele>8.6</ele>
        <time>2016-11-08T08:53:23Z</time>
      </trkpt>
      <trkpt lat="47.24421" lon="-1.63868">
        <ele>8.6</ele>
        <time>2016-11-08T08:53:28Z</time>
      </trkpt>
      <trkpt lat="47.24422" lon="-1.63856">
        <ele>8.6</ele>
        <time>2016-11-08T08:53:34Z</time>
      </trkpt>
      <trkpt lat="47.24423" lon="-1.63845">
        <ele>8.5</ele>
        <time>2016-11-08T08:53:40Z</time>
      </trkpt>
      <trkpt lat="47.24423" lon="-1.63832">
        <ele>8.5</ele>
        <time>2016-11-08T08:53:46Z</time>
      </trkpt>
      <trkpt lat="47.24426" lon="-1.63822">
        <ele>8.5</ele>
        <time>2016-11-08T08:53:52Z</time>
      </trkpt>
      <trkpt lat="47.2443" lon="-1.63811">
        <ele>8.6</ele>
        <time>2016-11-08T08:53:58Z</time>
      </trkpt>
      <trkpt lat="47.24432" lon="-1.63798">
        <ele>9.1</ele>
        <time>2016-11-08T08:54:05Z</time>
      </trkpt>
      <trkpt lat="47.24432" lon="-1.63787">
        <ele>9.8</ele>
        <time>2016-11-08T08:54:13Z</time>
      </trkpt>
      <trkpt lat="47.24433" lon="-1.63776">
        <ele>10.4</ele>
        <time>2016-11-08T08:54:19Z</time>
      </trkpt>
      <trkpt lat="47.2443" lon="-1.63766">
        <ele>11.3</ele>
        <time>2016-11-08T08:54:26Z</time>
      </trkpt>
      <trkpt lat="47.24425" lon="-1.63758">
        <ele>11.8</ele>
        <time>2016-11-08T08:54:32Z</time>
      </trkpt>
      <trkpt lat="47.2442" lon="-1.6375">
        <ele>12.2</ele>
        <time>2016-11-08T08:54:38Z</time>
      </trkpt>
      <trkpt lat="47.24414" lon="-1.63743">
        <ele>12.4</ele>
        <time>2016-11-08T08:54:44Z</time>
      </trkpt>
      <trkpt lat="47.24406" lon="-1.63744">
        <ele>12.6</ele>
        <time>2016-11-08T08:54:53Z</time>
      </trkpt>
      <trkpt lat="47.244" lon="-1.63749">
        <ele>12.8</ele>
        <time>2016-11-08T08:55:02Z</time>
      </trkpt>
      <trkpt lat="47.24393" lon="-1.63742">
        <ele>12.7</ele>
        <time>2016-11-08T08:55:11Z</time>
      </trkpt>
      <trkpt lat="47.24393" lon="-1.6373">
        <ele>12.7</ele>
        <time>2016-11-08T08:55:19Z</time>
      </trkpt>
      <trkpt lat="47.24394" lon="-1.63719">
        <ele>12.7</ele>
        <time>2016-11-08T08:55:27Z</time>
      </trkpt>
      <trkpt lat="47.24396" lon="-1.63708">
        <ele>12.6</ele>
        <time>2016-11-08T08:55:33Z</time>
      </trkpt>
      <trkpt lat="47.24396" lon="-1.63696">
        <ele>12.6</ele>
        <time>2016-11-08T08:55:39Z</time>
      </trkpt>
      <trkpt lat="47.24395" lon="-1.63685">
        <ele>12.6</ele>
        <time>2016-11-08T08:55:44Z</time>
      </trkpt>
      <trkpt lat="47.24396" lon="-1.63672">
        <ele>12.6</ele>
        <time>2016-11-08T08:55:50Z</time>
      </trkpt>
      <trkpt lat="47.24396" lon="-1.6366">
        <ele>12.6</ele>
        <time>2016-11-08T08:55:55Z</time>
      </trkpt>
      <trkpt lat="47.24396" lon="-1.63648">
        <ele>12.6</ele>
        <time>2016-11-08T08:56:00Z</time>
      </trkpt>
      <trkpt lat="47.24395" lon="-1.63637">
        <ele>12.6</ele>
        <time>2016-11-08T08:56:05Z</time>
      </trkpt>
      <trkpt lat="47.24393" lon="-1.63626">
        <ele>12.6</ele>
        <time>2016-11-08T08:56:10Z</time>
      </trkpt>
      <trkpt lat="47.2439" lon="-1.63615">
        <ele>12.5</ele>
        <time>2016-11-08T08:56:16Z</time>
      </trkpt>
      <trkpt lat="47.24386" lon="-1.63605">
        <ele>12.3</ele>
        <time>2016-11-08T08:56:22Z</time>
      </trkpt>
      <trkpt lat="47.24385" lon="-1.63593">
        <ele>11.7</ele>
        <time>2016-11-08T08:56:31Z</time>
      </trkpt>
      <trkpt lat="47.24382" lon="-1.63583">
        <ele>11.3</ele>
        <time>2016-11-08T08:56:37Z</time>
      </trkpt>
      <trkpt lat="47.24379" lon="-1.63572">
        <ele>10.9</ele>
        <time>2016-11-08T08:56:42Z</time>
      </trkpt>
      <trkpt lat="47.24379" lon="-1.63561">
        <ele>10.4</ele>
        <time>2016-11-08T08:56:48Z</time>
      </trkpt>
      <trkpt lat="47.24379" lon="-1.6355">
        <ele>10.1</ele>
        <time>2016-11-08T08:56:54Z</time>
      </trkpt>
      <trkpt lat="47.24383" lon="-1.63539">
        <ele>9.6</ele>
        <time>2016-11-08T08:57:00Z</time>
      </trkpt>
      <trkpt lat="47.24387" lon="-1.63529">
        <ele>9.6</ele>
        <time>2016-11-08T08:57:07Z</time>
      </trkpt>
      <trkpt lat="47.2439" lon="-1.63517">
        <ele>9.8</ele>
        <time>2016-11-08T08:57:14Z</time>
      </trkpt>
      <trkpt lat="47.24392" lon="-1.63506">
        <ele>10</ele>
        <time>2016-11-08T08:57:20Z</time>
      </trkpt>
      <trkpt lat="47.24391" lon="-1.63493">
        <ele>10.3</ele>
        <time>2016-11-08T08:57:27Z</time>
      </trkpt>
      <trkpt lat="47.2439" lon="-1.63483">
        <ele>10.6</ele>
        <time>2016-11-08T08:57:34Z</time>
      </trkpt>
      <trkpt lat="47.24387" lon="-1.63471">
        <ele>10.7</ele>
        <time>2016-11-08T08:57:39Z</time>
      </trkpt>
      <trkpt lat="47.24385" lon="-1.6346">
        <ele>10.8</ele>
        <time>2016-11-08T08:57:45Z</time>
      </trkpt>
      <trkpt lat="47.24382" lon="-1.63449">
        <ele>10.9</ele>
        <time>2016-11-08T08:57:51Z</time>
      </trkpt>
      <trkpt lat="47.2438" lon="-1.63439">
        <ele>10.9</ele>
        <time>2016-11-08T08:57:56Z</time>
      </trkpt>
      <trkpt lat="47.24376" lon="-1.6343">
        <ele>10.9</ele>
        <time>2016-11-08T08:58:02Z</time>
      </trkpt>
      <trkpt lat="47.24369" lon="-1.63423">
        <ele>10.2</ele>
        <time>2016-11-08T08:58:11Z</time>
      </trkpt>
      <trkpt lat="47.24366" lon="-1.63414">
        <ele>9.6</ele>
        <time>2016-11-08T08:58:17Z</time>
      </trkpt>
      <trkpt lat="47.24369" lon="-1.63403">
        <ele>9.1</ele>
        <time>2016-11-08T08:58:24Z</time>
      </trkpt>
      <trkpt lat="47.24371" lon="-1.63392">
        <ele>8.9</ele>
        <time>2016-11-08T08:58:31Z</time>
      </trkpt>
      <trkpt lat="47.24372" lon="-1.63381">
        <ele>8.9</ele>
        <time>2016-11-08T08:58:37Z</time>
      </trkpt>
      <trkpt lat="47.2437" lon="-1.63369">
        <ele>8.9</ele>
        <time>2016-11-08T08:58:43Z</time>
      </trkpt>
      <trkpt lat="47.24367" lon="-1.63358">
        <ele>9.2</ele>
        <time>2016-11-08T08:58:49Z</time>
      </trkpt>
      <trkpt lat="47.24364" lon="-1.63349">
        <ele>9.4</ele>
        <time>2016-11-08T08:58:55Z</time>
      </trkpt>
      <trkpt lat="47.2436" lon="-1.63339">
        <ele>9.6</ele>
        <time>2016-11-08T08:59:02Z</time>
      </trkpt>
      <trkpt lat="47.24354" lon="-1.6333">
        <ele>9.8</ele>
        <time>2016-11-08T08:59:10Z</time>
      </trkpt>
      <trkpt lat="47.24349" lon="-1.63322">
        <ele>9.9</ele>
        <time>2016-11-08T08:59:17Z</time>
      </trkpt>
      <trkpt lat="47.24344" lon="-1.63313">
        <ele>10</ele>
        <time>2016-11-08T08:59:24Z</time>
      </trkpt>
      <trkpt lat="47.24339" lon="-1.63304">
        <ele>10</ele>
        <time>2016-11-08T08:59:30Z</time>
      </trkpt>
      <trkpt lat="47.24335" lon="-1.63295">
        <ele>10</ele>
        <time>2016-11-08T08:59:35Z</time>
      </trkpt>
      <trkpt lat="47.2433" lon="-1.63287">
        <ele>9.9</ele>
        <time>2016-11-08T08:59:42Z</time>
      </trkpt>
      <trkpt lat="47.24325" lon="-1.63277">
        <ele>9.6</ele>
        <time>2016-11-08T08:59:48Z</time>
      </trkpt>
      <trkpt lat="47.24319" lon="-1.63269">
        <ele>9.3</ele>
        <time>2016-11-08T08:59:55Z</time>
      </trkpt>
      <trkpt lat="47.24313" lon="-1.63262">
        <ele>9</ele>
        <time>2016-11-08T09:00:01Z</time>
      </trkpt>
      <trkpt lat="47.24309" lon="-1.63251">
        <ele>8.7</ele>
        <time>2016-11-08T09:00:08Z</time>
      </trkpt>
      <trkpt lat="47.24304" lon="-1.63243">
        <ele>8.5</ele>
        <time>2016-11-08T09:00:14Z</time>
      </trkpt>
      <trkpt lat="47.24297" lon="-1.63235">
        <ele>8.2</ele>
        <time>2016-11-08T09:00:20Z</time>
      </trkpt>
      <trkpt lat="47.24292" lon="-1.63226">
        <ele>7.9</ele>
        <time>2016-11-08T09:00:26Z</time>
      </trkpt>
      <trkpt lat="47.24287" lon="-1.63218">
        <ele>7.7</ele>
        <time>2016-11-08T09:00:32Z</time>
      </trkpt>
      <trkpt lat="47.2428" lon="-1.63211">
        <ele>7.4</ele>
        <time>2016-11-08T09:00:38Z</time>
      </trkpt>
      <trkpt lat="47.24273" lon="-1.63207">
        <ele>7.2</ele>
        <time>2016-11-08T09:00:43Z</time>
      </trkpt>
      <trkpt lat="47.24266" lon="-1.632">
        <ele>7</ele>
        <time>2016-11-08T09:00:48Z</time>
      </trkpt>
      <trkpt lat="47.2426" lon="-1.63191">
        <ele>6.8</ele>
        <time>2016-11-08T09:00:55Z</time>
      </trkpt>
      <trkpt lat="47.24254" lon="-1.63184">
        <ele>6.7</ele>
        <time>2016-11-08T09:01:00Z</time>
      </trkpt>
      <trkpt lat="47.24249" lon="-1.63176">
        <ele>6.6</ele>
        <time>2016-11-08T09:01:05Z</time>
      </trkpt>
      <trkpt lat="47.24242" lon="-1.6317">
        <ele>6.6</ele>
        <time>2016-11-08T09:01:10Z</time>
      </trkpt>
      <trkpt lat="47.24237" lon="-1.63159">
        <ele>6.5</ele>
        <time>2016-11-08T09:01:16Z</time>
      </trkpt>
      <trkpt lat="47.24232" lon="-1.6315">
        <ele>6.4</ele>
        <time>2016-11-08T09:01:21Z</time>
      </trkpt>
      <trkpt lat="47.24228" lon="-1.63141">
        <ele>6.4</ele>
        <time>2016-11-08T09:01:27Z</time>
      </trkpt>
      <trkpt lat="47.24223" lon="-1.63133">
        <ele>6.3</ele>
        <time>2016-11-08T09:01:32Z</time>
      </trkpt>
      <trkpt lat="47.24218" lon="-1.63123">
        <ele>6.2</ele>
        <time>2016-11-08T09:01:38Z</time>
      </trkpt>
      <trkpt lat="47.24213" lon="-1.63113">
        <ele>6.2</ele>
        <time>2016-11-08T09:01:43Z</time>
      </trkpt>
      <trkpt lat="47.2421" lon="-1.63102">
        <ele>6.1</ele>
        <time>2016-11-08T09:01:49Z</time>
      </trkpt>
      <trkpt lat="47.24205" lon="-1.63092">
        <ele>6</ele>
        <time>2016-11-08T09:01:54Z</time>
      </trkpt>
      <trkpt lat="47.24203" lon="-1.63082">
        <ele>5.8</ele>
        <time>2016-11-08T09:01:59Z</time>
      </trkpt>
      <trkpt lat="47.24201" lon="-1.63071">
        <ele>5.7</ele>
        <time>2016-11-08T09:02:04Z</time>
      </trkpt>
      <trkpt lat="47.24198" lon="-1.6306">
        <ele>6.2</ele>
        <time>2016-11-08T09:02:10Z</time>
      </trkpt>
      <trkpt lat="47.24197" lon="-1.63047">
        <ele>6.4</ele>
        <time>2016-11-08T09:02:16Z</time>
      </trkpt>
      <trkpt lat="47.24196" lon="-1.63036">
        <ele>6.6</ele>
        <time>2016-11-08T09:02:22Z</time>
      </trkpt>
      <trkpt lat="47.24196" lon="-1.63024">
        <ele>6.7</ele>
        <time>2016-11-08T09:02:28Z</time>
      </trkpt>
      <trkpt lat="47.24192" lon="-1.63013">
        <ele>6.7</ele>
        <time>2016-11-08T09:02:33Z</time>
      </trkpt>
      <trkpt lat="47.24191" lon="-1.63001">
        <ele>6.8</ele>
        <time>2016-11-08T09:02:38Z</time>
      </trkpt>
      <trkpt lat="47.24189" lon="-1.62989">
        <ele>6.8</ele>
        <time>2016-11-08T09:02:44Z</time>
      </trkpt>
      <trkpt lat="47.24187" lon="-1.62978">
        <ele>6.8</ele>
        <time>2016-11-08T09:02:50Z</time>
      </trkpt>
      <trkpt lat="47.24183" lon="-1.62969">
        <ele>6.6</ele>
        <time>2016-11-08T09:02:55Z</time>
      </trkpt>
      <trkpt lat="47.24178" lon="-1.62958">
        <ele>6.3</ele>
        <time>2016-11-08T09:03:02Z</time>
      </trkpt>
      <trkpt lat="47.24175" lon="-1.62948">
        <ele>6.2</ele>
        <time>2016-11-08T09:03:07Z</time>
      </trkpt>
      <trkpt lat="47.24169" lon="-1.62941">
        <ele>6.2</ele>
        <time>2016-11-08T09:03:12Z</time>
      </trkpt>
      <trkpt lat="47.24165" lon="-1.62932">
        <ele>6.1</ele>
        <time>2016-11-08T09:03:17Z</time>
      </trkpt>
      <trkpt lat="47.24161" lon="-1.62922">
        <ele>6.1</ele>
        <time>2016-11-08T09:03:23Z</time>
      </trkpt>
      <trkpt lat="47.24158" lon="-1.62912">
        <ele>6</ele>
        <time>2016-11-08T09:03:28Z</time>
      </trkpt>
      <trkpt lat="47.24155" lon="-1.629">
        <ele>6</ele>
        <time>2016-11-08T09:03:34Z</time>
      </trkpt>
      <trkpt lat="47.24153" lon="-1.62889">
        <ele>5.9</ele>
        <time>2016-11-08T09:03:40Z</time>
      </trkpt>
      <trkpt lat="47.24152" lon="-1.62878">
        <ele>5.8</ele>
        <time>2016-11-08T09:03:46Z</time>
      </trkpt>
      <trkpt lat="47.24148" lon="-1.62869">
        <ele>5.7</ele>
        <time>2016-11-08T09:03:51Z</time>
      </trkpt>
      <trkpt lat="47.24144" lon="-1.6286">
        <ele>5.7</ele>
        <time>2016-11-08T09:03:56Z</time>
      </trkpt>
      <trkpt lat="47.2414" lon="-1.62849">
        <ele>5.6</ele>
        <time>2016-11-08T09:04:02Z</time>
      </trkpt>
      <trkpt lat="47.24138" lon="-1.62838">
        <ele>5.5</ele>
        <time>2016-11-08T09:04:08Z</time>
      </trkpt>
      <trkpt lat="47.24135" lon="-1.62828">
        <ele>5.4</ele>
        <time>2016-11-08T09:04:13Z</time>
      </trkpt>
      <trkpt lat="47.24133" lon="-1.62817">
        <ele>5.4</ele>
        <time>2016-11-08T09:04:18Z</time>
      </trkpt>
      <trkpt lat="47.24131" lon="-1.62806">
        <ele>5.3</ele>
        <time>2016-11-08T09:04:24Z</time>
      </trkpt>
      <trkpt lat="47.24128" lon="-1.62794">
        <ele>5.1</ele>
        <time>2016-11-08T09:04:30Z</time>
      </trkpt>
      <trkpt lat="47.24123" lon="-1.62785">
        <ele>5</ele>
        <time>2016-11-08T09:04:36Z</time>
      </trkpt>
      <trkpt lat="47.24119" lon="-1.62776">
        <ele>4.9</ele>
        <time>2016-11-08T09:04:42Z</time>
      </trkpt>
      <trkpt lat="47.24114" lon="-1.62767">
        <ele>4.8</ele>
        <time>2016-11-08T09:04:48Z</time>
      </trkpt>
      <trkpt lat="47.2411" lon="-1.62756">
        <ele>4.7</ele>
        <time>2016-11-08T09:04:54Z</time>
      </trkpt>
      <trkpt lat="47.2411" lon="-1.62744">
        <ele>4.8</ele>
        <time>2016-11-08T09:05:00Z</time>
      </trkpt>
      <trkpt lat="47.24105" lon="-1.62734">
        <ele>4.8</ele>
        <time>2016-11-08T09:05:07Z</time>
      </trkpt>
      <trkpt lat="47.241" lon="-1.62726">
        <ele>4.8</ele>
        <time>2016-11-08T09:05:13Z</time>
      </trkpt>
      <trkpt lat="47.24094" lon="-1.62718">
        <ele>5.1</ele>
        <time>2016-11-08T09:05:21Z</time>
      </trkpt>
      <trkpt lat="47.24088" lon="-1.62711">
        <ele>5.4</ele>
        <time>2016-11-08T09:05:31Z</time>
      </trkpt>
      <trkpt lat="47.24086" lon="-1.62698">
        <ele>5.1</ele>
        <time>2016-11-08T09:05:40Z</time>
      </trkpt>
      <trkpt lat="47.24096" lon="-1.62683">
        <ele>4</ele>
        <time>2016-11-08T09:05:44Z</time>
      </trkpt>
      <trkpt lat="47.24103" lon="-1.62674">
        <ele>4</ele>
        <time>2016-11-08T09:05:48Z</time>
      </trkpt>
      <trkpt lat="47.24097" lon="-1.6267">
        <ele>4.4</ele>
        <time>2016-11-08T09:05:54Z</time>
      </trkpt>
      <trkpt lat="47.24089" lon="-1.62667">
        <ele>4.2</ele>
        <time>2016-11-08T09:05:59Z</time>
      </trkpt>
      <trkpt lat="47.24083" lon="-1.62661">
        <ele>4.1</ele>
        <time>2016-11-08T09:06:05Z</time>
      </trkpt>
      <trkpt lat="47.24081" lon="-1.62651">
        <ele>4</ele>
        <time>2016-11-08T09:06:14Z</time>
      </trkpt>
      <trkpt lat="47.24082" lon="-1.6264">
        <ele>4.1</ele>
        <time>2016-11-08T09:06:23Z</time>
      </trkpt>
      <trkpt lat="47.24086" lon="-1.62631">
        <ele>4.1</ele>
        <time>2016-11-08T09:06:29Z</time>
      </trkpt>
      <trkpt lat="47.24089" lon="-1.62621">
        <ele>4.1</ele>
        <time>2016-11-08T09:06:34Z</time>
      </trkpt>
      <trkpt lat="47.24091" lon="-1.62609">
        <ele>4.1</ele>
        <time>2016-11-08T09:06:41Z</time>
      </trkpt>
      <trkpt lat="47.24094" lon="-1.62598">
        <ele>4</ele>
        <time>2016-11-08T09:06:48Z</time>
      </trkpt>
      <trkpt lat="47.24097" lon="-1.62588">
        <ele>4</ele>
        <time>2016-11-08T09:06:55Z</time>
      </trkpt>
      <trkpt lat="47.24098" lon="-1.62577">
        <ele>4</ele>
        <time>2016-11-08T09:07:03Z</time>
      </trkpt>
      <trkpt lat="47.24098" lon="-1.62565">
        <ele>4</ele>
        <time>2016-11-08T09:07:11Z</time>
      </trkpt>
      <trkpt lat="47.24093" lon="-1.62557">
        <ele>4.1</ele>
        <time>2016-11-08T09:07:18Z</time>
      </trkpt>
      <trkpt lat="47.24086" lon="-1.62552">
        <ele>3.8</ele>
        <time>2016-11-08T09:07:25Z</time>
      </trkpt>
      <trkpt lat="47.24079" lon="-1.62548">
        <ele>3.7</ele>
        <time>2016-11-08T09:07:32Z</time>
      </trkpt>
      <trkpt lat="47.24074" lon="-1.62539">
        <ele>3.7</ele>
        <time>2016-11-08T09:07:40Z</time>
      </trkpt>
      <trkpt lat="47.24069" lon="-1.6253">
        <ele>3.9</ele>
        <time>2016-11-08T09:07:47Z</time>
      </trkpt>
      <trkpt lat="47.24064" lon="-1.62522">
        <ele>3.9</ele>
        <time>2016-11-08T09:07:53Z</time>
      </trkpt>
      <trkpt lat="47.24058" lon="-1.62514">
        <ele>3.9</ele>
        <time>2016-11-08T09:07:59Z</time>
      </trkpt>
      <trkpt lat="47.24052" lon="-1.62507">
        <ele>3.9</ele>
        <time>2016-11-08T09:08:04Z</time>
      </trkpt>
      <trkpt lat="47.24046" lon="-1.62499">
        <ele>3.9</ele>
        <time>2016-11-08T09:08:11Z</time>
      </trkpt>
      <trkpt lat="47.24041" lon="-1.6249">
        <ele>3.9</ele>
        <time>2016-11-08T09:08:18Z</time>
      </trkpt>
      <trkpt lat="47.24036" lon="-1.62482">
        <ele>3.9</ele>
        <time>2016-11-08T09:08:24Z</time>
      </trkpt>
      <trkpt lat="47.24031" lon="-1.62472">
        <ele>3.9</ele>
        <time>2016-11-08T09:08:30Z</time>
      </trkpt>
      <trkpt lat="47.24024" lon="-1.62464">
        <ele>3.9</ele>
        <time>2016-11-08T09:08:36Z</time>
      </trkpt>
      <trkpt lat="47.24018" lon="-1.62457">
        <ele>3.9</ele>
        <time>2016-11-08T09:08:41Z</time>
      </trkpt>
      <trkpt lat="47.24016" lon="-1.62447">
        <ele>3.9</ele>
        <time>2016-11-08T09:08:47Z</time>
      </trkpt>
      <trkpt lat="47.24015" lon="-1.62436">
        <ele>3.9</ele>
        <time>2016-11-08T09:08:53Z</time>
      </trkpt>
      <trkpt lat="47.24016" lon="-1.62425">
        <ele>3.9</ele>
        <time>2016-11-08T09:09:01Z</time>
      </trkpt>
      <trkpt lat="47.24014" lon="-1.62414">
        <ele>3.9</ele>
        <time>2016-11-08T09:09:07Z</time>
      </trkpt>
      <trkpt lat="47.24013" lon="-1.62402">
        <ele>3.9</ele>
        <time>2016-11-08T09:09:14Z</time>
      </trkpt>
      <trkpt lat="47.24012" lon="-1.6239">
        <ele>4.4</ele>
        <time>2016-11-08T09:09:21Z</time>
      </trkpt>
      <trkpt lat="47.2401" lon="-1.6238">
        <ele>4.4</ele>
        <time>2016-11-08T09:09:28Z</time>
      </trkpt>
      <trkpt lat="47.24005" lon="-1.6237">
        <ele>4.4</ele>
        <time>2016-11-08T09:09:33Z</time>
      </trkpt>
      <trkpt lat="47.24004" lon="-1.62359">
        <ele>4.3</ele>
        <time>2016-11-08T09:09:41Z</time>
      </trkpt>
      <trkpt lat="47.24004" lon="-1.62347">
        <ele>4.2</ele>
        <time>2016-11-08T09:09:47Z</time>
      </trkpt>
      <trkpt lat="47.24005" lon="-1.62336">
        <ele>4.1</ele>
        <time>2016-11-08T09:09:51Z</time>
      </trkpt>
      <trkpt lat="47.24006" lon="-1.62325">
        <ele>4</ele>
        <time>2016-11-08T09:09:55Z</time>
      </trkpt>
      <trkpt lat="47.24006" lon="-1.62313">
        <ele>4</ele>
        <time>2016-11-08T09:10:00Z</time>
      </trkpt>
      <trkpt lat="47.24007" lon="-1.62302">
        <ele>4.2</ele>
        <time>2016-11-08T09:10:05Z</time>
      </trkpt>
      <trkpt lat="47.24007" lon="-1.62289">
        <ele>4.4</ele>
        <time>2016-11-08T09:10:11Z</time>
      </trkpt>
      <trkpt lat="47.24009" lon="-1.62279">
        <ele>4.5</ele>
        <time>2016-11-08T09:10:16Z</time>
      </trkpt>
      <trkpt lat="47.2401" lon="-1.62266">
        <ele>4.6</ele>
        <time>2016-11-08T09:10:22Z</time>
      </trkpt>
      <trkpt lat="47.2401" lon="-1.62254">
        <ele>4.6</ele>
        <time>2016-11-08T09:10:28Z</time>
      </trkpt>
      <trkpt lat="47.24012" lon="-1.62243">
        <ele>4.7</ele>
        <time>2016-11-08T09:10:34Z</time>
      </trkpt>
      <trkpt lat="47.24012" lon="-1.62232">
        <ele>4.5</ele>
        <time>2016-11-08T09:10:40Z</time>
      </trkpt>
      <trkpt lat="47.24012" lon="-1.62221">
        <ele>4.4</ele>
        <time>2016-11-08T09:10:45Z</time>
      </trkpt>
      <trkpt lat="47.24012" lon="-1.6221">
        <ele>4.3</ele>
        <time>2016-11-08T09:10:50Z</time>
      </trkpt>
      <trkpt lat="47.24011" lon="-1.62198">
        <ele>4.3</ele>
        <time>2016-11-08T09:10:56Z</time>
      </trkpt>
      <trkpt lat="47.2401" lon="-1.62185">
        <ele>3.9</ele>
        <time>2016-11-08T09:11:02Z</time>
      </trkpt>
      <trkpt lat="47.2401" lon="-1.62173">
        <ele>3.5</ele>
        <time>2016-11-08T09:11:08Z</time>
      </trkpt>
      <trkpt lat="47.2401" lon="-1.62161">
        <ele>3.4</ele>
        <time>2016-11-08T09:11:14Z</time>
      </trkpt>
      <trkpt lat="47.24008" lon="-1.62149">
        <ele>3.3</ele>
        <time>2016-11-08T09:11:19Z</time>
      </trkpt>
      <trkpt lat="47.24007" lon="-1.62139">
        <ele>3.2</ele>
        <time>2016-11-08T09:11:24Z</time>
      </trkpt>
      <trkpt lat="47.24008" lon="-1.62128">
        <ele>3.1</ele>
        <time>2016-11-08T09:11:30Z</time>
      </trkpt>
      <trkpt lat="47.24009" lon="-1.62116">
        <ele>3</ele>
        <time>2016-11-08T09:11:36Z</time>
      </trkpt>
      <trkpt lat="47.24008" lon="-1.62103">
        <ele>3.1</ele>
        <time>2016-11-08T09:11:42Z</time>
      </trkpt>
      <trkpt lat="47.24008" lon="-1.62092">
        <ele>3</ele>
        <time>2016-11-08T09:11:47Z</time>
      </trkpt>
      <trkpt lat="47.24008" lon="-1.6208">
        <ele>3</ele>
        <time>2016-11-08T09:11:53Z</time>
      </trkpt>
      <trkpt lat="47.24007" lon="-1.62069">
        <ele>2.9</ele>
        <time>2016-11-08T09:11:59Z</time>
      </trkpt>
      <trkpt lat="47.24005" lon="-1.62057">
        <ele>2.7</ele>
        <time>2016-11-08T09:12:06Z</time>
      </trkpt>
      <trkpt lat="47.24004" lon="-1.62046">
        <ele>2.7</ele>
        <time>2016-11-08T09:12:12Z</time>
      </trkpt>
      <trkpt lat="47.23999" lon="-1.62038">
        <ele>2.7</ele>
        <time>2016-11-08T09:12:18Z</time>
      </trkpt>
      <trkpt lat="47.23995" lon="-1.6203">
        <ele>2.7</ele>
        <time>2016-11-08T09:12:25Z</time>
      </trkpt>
      <trkpt lat="47.2399" lon="-1.62021">
        <ele>2.7</ele>
        <time>2016-11-08T09:12:32Z</time>
      </trkpt>
      <trkpt lat="47.23986" lon="-1.62013">
        <ele>2.7</ele>
        <time>2016-11-08T09:12:38Z</time>
      </trkpt>
      <trkpt lat="47.23979" lon="-1.62005">
        <ele>2.7</ele>
        <time>2016-11-08T09:12:44Z</time>
      </trkpt>
      <trkpt lat="47.23973" lon="-1.62">
        <ele>2.7</ele>
        <time>2016-11-08T09:12:49Z</time>
      </trkpt>
      <trkpt lat="47.23966" lon="-1.61995">
        <ele>2.8</ele>
        <time>2016-11-08T09:12:54Z</time>
      </trkpt>
      <trkpt lat="47.23958" lon="-1.6199">
        <ele>2.8</ele>
        <time>2016-11-08T09:12:59Z</time>
      </trkpt>
      <trkpt lat="47.23951" lon="-1.61985">
        <ele>2.8</ele>
        <time>2016-11-08T09:13:05Z</time>
      </trkpt>
      <trkpt lat="47.23944" lon="-1.61978">
        <ele>2.8</ele>
        <time>2016-11-08T09:13:12Z</time>
      </trkpt>
      <trkpt lat="47.23938" lon="-1.61972">
        <ele>2.8</ele>
        <time>2016-11-08T09:13:20Z</time>
      </trkpt>
      <trkpt lat="47.23929" lon="-1.6197">
        <ele>2.8</ele>
        <time>2016-11-08T09:13:28Z</time>
      </trkpt>
      <trkpt lat="47.23922" lon="-1.61969">
        <ele>2.8</ele>
        <time>2016-11-08T09:13:33Z</time>
      </trkpt>
      <trkpt lat="47.23915" lon="-1.61969">
        <ele>2.8</ele>
        <time>2016-11-08T09:13:38Z</time>
      </trkpt>
      <trkpt lat="47.23907" lon="-1.61966">
        <ele>3</ele>
        <time>2016-11-08T09:13:43Z</time>
      </trkpt>
      <trkpt lat="47.239" lon="-1.61961">
        <ele>2.7</ele>
        <time>2016-11-08T09:13:52Z</time>
      </trkpt>
      <trkpt lat="47.23894" lon="-1.61955">
        <ele>2.6</ele>
        <time>2016-11-08T09:14:00Z</time>
      </trkpt>
      <trkpt lat="47.23886" lon="-1.61952">
        <ele>2.5</ele>
        <time>2016-11-08T09:14:05Z</time>
      </trkpt>
      <trkpt lat="47.23879" lon="-1.61949">
        <ele>2.5</ele>
        <time>2016-11-08T09:14:10Z</time>
      </trkpt>
      <trkpt lat="47.23872" lon="-1.61946">
        <ele>2.6</ele>
        <time>2016-11-08T09:14:15Z</time>
      </trkpt>
      <trkpt lat="47.23864" lon="-1.61941">
        <ele>3.1</ele>
        <time>2016-11-08T09:14:21Z</time>
      </trkpt>
      <trkpt lat="47.23857" lon="-1.61934">
        <ele>3.3</ele>
        <time>2016-11-08T09:14:27Z</time>
      </trkpt>
      <trkpt lat="47.2385" lon="-1.61929">
        <ele>3.3</ele>
        <time>2016-11-08T09:14:32Z</time>
      </trkpt>
      <trkpt lat="47.23844" lon="-1.61924">
        <ele>3.3</ele>
        <time>2016-11-08T09:14:37Z</time>
      </trkpt>
      <trkpt lat="47.23838" lon="-1.61916">
        <ele>3.3</ele>
        <time>2016-11-08T09:14:43Z</time>
      </trkpt>
      <trkpt lat="47.23832" lon="-1.61909">
        <ele>3.3</ele>
        <time>2016-11-08T09:14:48Z</time>
      </trkpt>
      <trkpt lat="47.23827" lon="-1.61901">
        <ele>2.9</ele>
        <time>2016-11-08T09:14:53Z</time>
      </trkpt>
      <trkpt lat="47.2382" lon="-1.61893">
        <ele>2.7</ele>
        <time>2016-11-08T09:14:58Z</time>
      </trkpt>
      <trkpt lat="47.23813" lon="-1.61886">
        <ele>2.5</ele>
        <time>2016-11-08T09:15:03Z</time>
      </trkpt>
      <trkpt lat="47.23807" lon="-1.61879">
        <ele>2.3</ele>
        <time>2016-11-08T09:15:07Z</time>
      </trkpt>
      <trkpt lat="47.23801" lon="-1.6187">
        <ele>2.5</ele>
        <time>2016-11-08T09:15:13Z</time>
      </trkpt>
      <trkpt lat="47.23796" lon="-1.6186">
        <ele>2.7</ele>
        <time>2016-11-08T09:15:19Z</time>
      </trkpt>
      <trkpt lat="47.23794" lon="-1.61849">
        <ele>2.8</ele>
        <time>2016-11-08T09:15:25Z</time>
      </trkpt>
      <trkpt lat="47.23789" lon="-1.61839">
        <ele>3</ele>
        <time>2016-11-08T09:15:31Z</time>
      </trkpt>
      <trkpt lat="47.23784" lon="-1.6183">
        <ele>3.2</ele>
        <time>2016-11-08T09:15:37Z</time>
      </trkpt>
      <trkpt lat="47.23779" lon="-1.6182">
        <ele>3.2</ele>
        <time>2016-11-08T09:15:43Z</time>
      </trkpt>
      <trkpt lat="47.23776" lon="-1.61809">
        <ele>3.2</ele>
        <time>2016-11-08T09:15:49Z</time>
      </trkpt>
      <trkpt lat="47.23773" lon="-1.61798">
        <ele>3.2</ele>
        <time>2016-11-08T09:15:55Z</time>
      </trkpt>
      <trkpt lat="47.23769" lon="-1.61788">
        <ele>3.4</ele>
        <time>2016-11-08T09:16:00Z</time>
      </trkpt>
      <trkpt lat="47.23765" lon="-1.61778">
        <ele>3.6</ele>
        <time>2016-11-08T09:16:05Z</time>
      </trkpt>
      <trkpt lat="47.23762" lon="-1.61768">
        <ele>3.8</ele>
        <time>2016-11-08T09:16:10Z</time>
      </trkpt>
      <trkpt lat="47.2376" lon="-1.61757">
        <ele>3.8</ele>
        <time>2016-11-08T09:16:15Z</time>
      </trkpt>
      <trkpt lat="47.23757" lon="-1.61746">
        <ele>3.5</ele>
        <time>2016-11-08T09:16:21Z</time>
      </trkpt>
      <trkpt lat="47.23754" lon="-1.61735">
        <ele>3.3</ele>
        <time>2016-11-08T09:16:27Z</time>
      </trkpt>
      <trkpt lat="47.23753" lon="-1.61722">
        <ele>3.1</ele>
        <time>2016-11-08T09:16:33Z</time>
      </trkpt>
      <trkpt lat="47.23751" lon="-1.6171">
        <ele>3</ele>
        <time>2016-11-08T09:16:38Z</time>
      </trkpt>
      <trkpt lat="47.2375" lon="-1.61698">
        <ele>2.9</ele>
        <time>2016-11-08T09:16:44Z</time>
      </trkpt>
      <trkpt lat="47.2375" lon="-1.61686">
        <ele>2.8</ele>
        <time>2016-11-08T09:16:49Z</time>
      </trkpt>
      <trkpt lat="47.23748" lon="-1.61675">
        <ele>2.7</ele>
        <time>2016-11-08T09:16:55Z</time>
      </trkpt>
      <trkpt lat="47.2375" lon="-1.61665">
        <ele>2.8</ele>
        <time>2016-11-08T09:17:01Z</time>
      </trkpt>
      <trkpt lat="47.23751" lon="-1.61653">
        <ele>2.9</ele>
        <time>2016-11-08T09:17:07Z</time>
      </trkpt>
      <trkpt lat="47.23753" lon="-1.61642">
        <ele>2.9</ele>
        <time>2016-11-08T09:17:13Z</time>
      </trkpt>
      <trkpt lat="47.23755" lon="-1.6163">
        <ele>3</ele>
        <time>2016-11-08T09:17:19Z</time>
      </trkpt>
      <trkpt lat="47.23758" lon="-1.61618">
        <ele>3.4</ele>
        <time>2016-11-08T09:17:25Z</time>
      </trkpt>
      <trkpt lat="47.23761" lon="-1.61608">
        <ele>4</ele>
        <time>2016-11-08T09:17:31Z</time>
      </trkpt>
      <trkpt lat="47.23763" lon="-1.61596">
        <ele>4.2</ele>
        <time>2016-11-08T09:17:37Z</time>
      </trkpt>
      <trkpt lat="47.23767" lon="-1.61586">
        <ele>4.3</ele>
        <time>2016-11-08T09:17:43Z</time>
      </trkpt>
      <trkpt lat="47.23768" lon="-1.61575">
        <ele>4.4</ele>
        <time>2016-11-08T09:17:51Z</time>
      </trkpt>
      <trkpt lat="47.23764" lon="-1.61566">
        <ele>4.3</ele>
        <time>2016-11-08T09:18:01Z</time>
      </trkpt>
      <trkpt lat="47.23758" lon="-1.61561">
        <ele>3.5</ele>
        <time>2016-11-08T09:18:13Z</time>
      </trkpt>
      <trkpt lat="47.23754" lon="-1.6155">
        <ele>3.2</ele>
        <time>2016-11-08T09:18:23Z</time>
      </trkpt>
      <trkpt lat="47.2375" lon="-1.61541">
        <ele>3</ele>
        <time>2016-11-08T09:18:33Z</time>
      </trkpt>
      <trkpt lat="47.23745" lon="-1.61533">
        <ele>2.9</ele>
        <time>2016-11-08T09:18:55Z</time>
      </trkpt>
      <trkpt lat="47.23752" lon="-1.61535">
        <ele>3.9</ele>
        <time>2016-11-08T09:19:52Z</time>
      </trkpt>
      <trkpt lat="47.23747" lon="-1.61527">
        <ele>6.2</ele>
        <time>2016-11-08T09:21:34Z</time>
      </trkpt>
      <trkpt lat="47.23746" lon="-1.61516">
        <ele>7.9</ele>
        <time>2016-11-08T09:23:10Z</time>
      </trkpt>
      <trkpt lat="47.23744" lon="-1.61527">
        <ele>8.5</ele>
        <time>2016-11-08T09:23:47Z</time>
      </trkpt>
      <trkpt lat="47.23751" lon="-1.61525">
        <ele>9.7</ele>
        <time>2016-11-08T09:24:51Z</time>
      </trkpt>
      <trkpt lat="47.23757" lon="-1.61517">
        <ele>10</ele>
        <time>2016-11-08T09:25:04Z</time>
      </trkpt>
      <trkpt lat="47.23762" lon="-1.6151">
        <ele>10.4</ele>
        <time>2016-11-08T09:25:13Z</time>
      </trkpt>
      <trkpt lat="47.2377" lon="-1.61505">
        <ele>10.7</ele>
        <time>2016-11-08T09:25:22Z</time>
      </trkpt>
      <trkpt lat="47.23777" lon="-1.61499">
        <ele>11</ele>
        <time>2016-11-08T09:25:30Z</time>
      </trkpt>
      <trkpt lat="47.23783" lon="-1.61492">
        <ele>11.5</ele>
        <time>2016-11-08T09:25:36Z</time>
      </trkpt>
      <trkpt lat="47.23786" lon="-1.61482">
        <ele>12</ele>
        <time>2016-11-08T09:25:42Z</time>
      </trkpt>
      <trkpt lat="47.2379" lon="-1.61471">
        <ele>12.4</ele>
        <time>2016-11-08T09:25:49Z</time>
      </trkpt>
      <trkpt lat="47.23794" lon="-1.61462">
        <ele>12.7</ele>
        <time>2016-11-08T09:25:56Z</time>
      </trkpt>
      <trkpt lat="47.23791" lon="-1.61451">
        <ele>13.2</ele>
        <time>2016-11-08T09:26:02Z</time>
      </trkpt>
      <trkpt lat="47.23791" lon="-1.6144">
        <ele>13.6</ele>
        <time>2016-11-08T09:26:08Z</time>
      </trkpt>
      <trkpt lat="47.2379" lon="-1.61429">
        <ele>13.9</ele>
        <time>2016-11-08T09:26:14Z</time>
      </trkpt>
      <trkpt lat="47.23787" lon="-1.61419">
        <ele>14</ele>
        <time>2016-11-08T09:26:19Z</time>
      </trkpt>
      <trkpt lat="47.23787" lon="-1.61408">
        <ele>14</ele>
        <time>2016-11-08T09:26:24Z</time>
      </trkpt>
      <trkpt lat="47.23786" lon="-1.61396">
        <ele>14</ele>
        <time>2016-11-08T09:26:29Z</time>
      </trkpt>
      <trkpt lat="47.23788" lon="-1.61384">
        <ele>14</ele>
        <time>2016-11-08T09:26:35Z</time>
      </trkpt>
      <trkpt lat="47.23788" lon="-1.61374">
        <ele>14</ele>
        <time>2016-11-08T09:26:40Z</time>
      </trkpt>
      <trkpt lat="47.2379" lon="-1.61362">
        <ele>14</ele>
        <time>2016-11-08T09:26:45Z</time>
      </trkpt>
      <trkpt lat="47.23795" lon="-1.61353">
        <ele>14.1</ele>
        <time>2016-11-08T09:26:50Z</time>
      </trkpt>
      <trkpt lat="47.23799" lon="-1.61344">
        <ele>14.2</ele>
        <time>2016-11-08T09:26:56Z</time>
      </trkpt>
      <trkpt lat="47.23806" lon="-1.61337">
        <ele>14.2</ele>
        <time>2016-11-08T09:27:02Z</time>
      </trkpt>
      <trkpt lat="47.23812" lon="-1.61331">
        <ele>14.2</ele>
        <time>2016-11-08T09:27:08Z</time>
      </trkpt>
      <trkpt lat="47.23819" lon="-1.61325">
        <ele>14</ele>
        <time>2016-11-08T09:27:15Z</time>
      </trkpt>
      <trkpt lat="47.23825" lon="-1.61319">
        <ele>14.1</ele>
        <time>2016-11-08T09:27:23Z</time>
      </trkpt>
      <trkpt lat="47.23831" lon="-1.61312">
        <ele>14.2</ele>
        <time>2016-11-08T09:27:29Z</time>
      </trkpt>
      <trkpt lat="47.23837" lon="-1.61305">
        <ele>14.4</ele>
        <time>2016-11-08T09:27:35Z</time>
      </trkpt>
      <trkpt lat="47.23843" lon="-1.61297">
        <ele>14.8</ele>
        <time>2016-11-08T09:27:41Z</time>
      </trkpt>
      <trkpt lat="47.2385" lon="-1.61289">
        <ele>15</ele>
        <time>2016-11-08T09:27:47Z</time>
      </trkpt>
      <trkpt lat="47.23857" lon="-1.61283">
        <ele>15.3</ele>
        <time>2016-11-08T09:27:53Z</time>
      </trkpt>
      <trkpt lat="47.23865" lon="-1.61279">
        <ele>15.8</ele>
        <time>2016-11-08T09:28:01Z</time>
      </trkpt>
      <trkpt lat="47.23872" lon="-1.61275">
        <ele>16.2</ele>
        <time>2016-11-08T09:28:07Z</time>
      </trkpt>
      <trkpt lat="47.23879" lon="-1.61271">
        <ele>16.5</ele>
        <time>2016-11-08T09:28:12Z</time>
      </trkpt>
      <trkpt lat="47.23886" lon="-1.61266">
        <ele>16.8</ele>
        <time>2016-11-08T09:28:18Z</time>
      </trkpt>
      <trkpt lat="47.23893" lon="-1.61261">
        <ele>17.6</ele>
        <time>2016-11-08T09:28:26Z</time>
      </trkpt>
      <trkpt lat="47.239" lon="-1.61257">
        <ele>17.9</ele>
        <time>2016-11-08T09:28:30Z</time>
      </trkpt>
      <trkpt lat="47.23908" lon="-1.61254">
        <ele>18.1</ele>
        <time>2016-11-08T09:28:35Z</time>
      </trkpt>
      <trkpt lat="47.23916" lon="-1.61251">
        <ele>18.3</ele>
        <time>2016-11-08T09:28:42Z</time>
      </trkpt>
      <trkpt lat="47.23924" lon="-1.61249">
        <ele>19</ele>
        <time>2016-11-08T09:28:49Z</time>
      </trkpt>
      <trkpt lat="47.23931" lon="-1.61246">
        <ele>19.5</ele>
        <time>2016-11-08T09:28:54Z</time>
      </trkpt>
      <trkpt lat="47.23938" lon="-1.6124">
        <ele>20.4</ele>
        <time>2016-11-08T09:29:02Z</time>
      </trkpt>
      <trkpt lat="47.23945" lon="-1.61235">
        <ele>20.8</ele>
        <time>2016-11-08T09:29:07Z</time>
      </trkpt>
      <trkpt lat="47.23953" lon="-1.61233">
        <ele>21.2</ele>
        <time>2016-11-08T09:29:13Z</time>
      </trkpt>
      <trkpt lat="47.23961" lon="-1.61234">
        <ele>21.6</ele>
        <time>2016-11-08T09:29:18Z</time>
      </trkpt>
      <trkpt lat="47.23969" lon="-1.61235">
        <ele>21.9</ele>
        <time>2016-11-08T09:29:23Z</time>
      </trkpt>
      <trkpt lat="47.23976" lon="-1.61237">
        <ele>22.1</ele>
        <time>2016-11-08T09:29:28Z</time>
      </trkpt>
      <trkpt lat="47.23984" lon="-1.61239">
        <ele>22.4</ele>
        <time>2016-11-08T09:29:36Z</time>
      </trkpt>
      <trkpt lat="47.23991" lon="-1.61242">
        <ele>22.4</ele>
        <time>2016-11-08T09:29:41Z</time>
      </trkpt>
      <trkpt lat="47.24" lon="-1.61244">
        <ele>22.7</ele>
        <time>2016-11-08T09:29:48Z</time>
      </trkpt>
      <trkpt lat="47.24007" lon="-1.61246">
        <ele>23.2</ele>
        <time>2016-11-08T09:29:54Z</time>
      </trkpt>
      <trkpt lat="47.24015" lon="-1.61245">
        <ele>24.1</ele>
        <time>2016-11-08T09:30:01Z</time>
      </trkpt>
      <trkpt lat="47.2402" lon="-1.61254">
        <ele>25.8</ele>
        <time>2016-11-08T09:30:11Z</time>
      </trkpt>
      <trkpt lat="47.24022" lon="-1.61265">
        <ele>26.9</ele>
        <time>2016-11-08T09:30:18Z</time>
      </trkpt>
      <trkpt lat="47.24023" lon="-1.61276">
        <ele>27.5</ele>
        <time>2016-11-08T09:30:24Z</time>
      </trkpt>
      <trkpt lat="47.24024" lon="-1.61288">
        <ele>28</ele>
        <time>2016-11-08T09:30:30Z</time>
      </trkpt>
      <trkpt lat="47.24024" lon="-1.61299">
        <ele>28.4</ele>
        <time>2016-11-08T09:30:37Z</time>
      </trkpt>
      <trkpt lat="47.24025" lon="-1.6131">
        <ele>29.2</ele>
        <time>2016-11-08T09:30:43Z</time>
      </trkpt>
      <trkpt lat="47.24025" lon="-1.61322">
        <ele>29.7</ele>
        <time>2016-11-08T09:30:50Z</time>
      </trkpt>
      <trkpt lat="47.24027" lon="-1.61333">
        <ele>30.2</ele>
        <time>2016-11-08T09:30:56Z</time>
      </trkpt>
      <trkpt lat="47.2403" lon="-1.61344">
        <ele>31</ele>
        <time>2016-11-08T09:31:01Z</time>
      </trkpt>
      <trkpt lat="47.24031" lon="-1.61355">
        <ele>31.8</ele>
        <time>2016-11-08T09:31:07Z</time>
      </trkpt>
      <trkpt lat="47.24032" lon="-1.61366">
        <ele>32.7</ele>
        <time>2016-11-08T09:31:13Z</time>
      </trkpt>
      <trkpt lat="47.24034" lon="-1.61377">
        <ele>33.5</ele>
        <time>2016-11-08T09:31:19Z</time>
      </trkpt>
      <trkpt lat="47.24036" lon="-1.61388">
        <ele>34.2</ele>
        <time>2016-11-08T09:31:26Z</time>
      </trkpt>
      <trkpt lat="47.2404" lon="-1.61399">
        <ele>35.1</ele>
        <time>2016-11-08T09:31:33Z</time>
      </trkpt>
      <trkpt lat="47.24044" lon="-1.61408">
        <ele>35.8</ele>
        <time>2016-11-08T09:31:39Z</time>
      </trkpt>
      <trkpt lat="47.24048" lon="-1.61418">
        <ele>36.5</ele>
        <time>2016-11-08T09:31:46Z</time>
      </trkpt>
      <trkpt lat="47.24052" lon="-1.6143">
        <ele>37.1</ele>
        <time>2016-11-08T09:31:53Z</time>
      </trkpt>
      <trkpt lat="47.24054" lon="-1.61441">
        <ele>37.8</ele>
        <time>2016-11-08T09:31:59Z</time>
      </trkpt>
      <trkpt lat="47.24058" lon="-1.6145">
        <ele>38.4</ele>
        <time>2016-11-08T09:32:04Z</time>
      </trkpt>
      <trkpt lat="47.2406" lon="-1.61462">
        <ele>38.9</ele>
        <time>2016-11-08T09:32:10Z</time>
      </trkpt>
      <trkpt lat="47.24065" lon="-1.61471">
        <ele>39.2</ele>
        <time>2016-11-08T09:32:16Z</time>
      </trkpt>
      <trkpt lat="47.24069" lon="-1.6148">
        <ele>39.7</ele>
        <time>2016-11-08T09:32:21Z</time>
      </trkpt>
      <trkpt lat="47.24072" lon="-1.6149">
        <ele>40</ele>
        <time>2016-11-08T09:32:26Z</time>
      </trkpt>
      <trkpt lat="47.24072" lon="-1.61502">
        <ele>40.3</ele>
        <time>2016-11-08T09:32:31Z</time>
      </trkpt>
      <trkpt lat="47.24074" lon="-1.61513">
        <ele>40.7</ele>
        <time>2016-11-08T09:32:37Z</time>
      </trkpt>
      <trkpt lat="47.24075" lon="-1.61525">
        <ele>41.3</ele>
        <time>2016-11-08T09:32:47Z</time>
      </trkpt>
      <trkpt lat="47.24079" lon="-1.61534">
        <ele>41.7</ele>
        <time>2016-11-08T09:32:53Z</time>
      </trkpt>
      <trkpt lat="47.24086" lon="-1.61539">
        <ele>42.1</ele>
        <time>2016-11-08T09:32:59Z</time>
      </trkpt>
      <trkpt lat="47.2409" lon="-1.6155">
        <ele>42.5</ele>
        <time>2016-11-08T09:33:06Z</time>
      </trkpt>
      <trkpt lat="47.24093" lon="-1.6156">
        <ele>42.8</ele>
        <time>2016-11-08T09:33:12Z</time>
      </trkpt>
      <trkpt lat="47.24097" lon="-1.61569">
        <ele>43</ele>
        <time>2016-11-08T09:33:18Z</time>
      </trkpt>
      <trkpt lat="47.24101" lon="-1.61579">
        <ele>43.2</ele>
        <time>2016-11-08T09:33:24Z</time>
      </trkpt>
      <trkpt lat="47.24104" lon="-1.61591">
        <ele>43.7</ele>
        <time>2016-11-08T09:33:31Z</time>
      </trkpt>
      <trkpt lat="47.24106" lon="-1.61602">
        <ele>44</ele>
        <time>2016-11-08T09:33:38Z</time>
      </trkpt>
      <trkpt lat="47.2411" lon="-1.61613">
        <ele>44.5</ele>
        <time>2016-11-08T09:33:44Z</time>
      </trkpt>
      <trkpt lat="47.24113" lon="-1.61624">
        <ele>44.9</ele>
        <time>2016-11-08T09:33:50Z</time>
      </trkpt>
      <trkpt lat="47.24115" lon="-1.61635">
        <ele>45.1</ele>
        <time>2016-11-08T09:33:55Z</time>
      </trkpt>
      <trkpt lat="47.24119" lon="-1.61646">
        <ele>45.4</ele>
        <time>2016-11-08T09:34:01Z</time>
      </trkpt>
      <trkpt lat="47.24123" lon="-1.61655">
        <ele>45.8</ele>
        <time>2016-11-08T09:34:06Z</time>
      </trkpt>
      <trkpt lat="47.24127" lon="-1.61665">
        <ele>46.3</ele>
        <time>2016-11-08T09:34:12Z</time>
      </trkpt>
      <trkpt lat="47.24132" lon="-1.61673">
        <ele>46.6</ele>
        <time>2016-11-08T09:34:17Z</time>
      </trkpt>
      <trkpt lat="47.24137" lon="-1.61683">
        <ele>46.9</ele>
        <time>2016-11-08T09:34:23Z</time>
      </trkpt>
      <trkpt lat="47.2414" lon="-1.61694">
        <ele>47.4</ele>
        <time>2016-11-08T09:34:29Z</time>
      </trkpt>
      <trkpt lat="47.24143" lon="-1.61706">
        <ele>47.8</ele>
        <time>2016-11-08T09:34:35Z</time>
      </trkpt>
      <trkpt lat="47.24147" lon="-1.61717">
        <ele>48.1</ele>
        <time>2016-11-08T09:34:41Z</time>
      </trkpt>
      <trkpt lat="47.24151" lon="-1.61726">
        <ele>48.3</ele>
        <time>2016-11-08T09:34:47Z</time>
      </trkpt>
      <trkpt lat="47.24155" lon="-1.61736">
        <ele>48.5</ele>
        <time>2016-11-08T09:34:52Z</time>
      </trkpt>
      <trkpt lat="47.24157" lon="-1.61747">
        <ele>48.8</ele>
        <time>2016-11-08T09:34:59Z</time>
      </trkpt>
      <trkpt lat="47.24161" lon="-1.61758">
        <ele>49</ele>
        <time>2016-11-08T09:35:04Z</time>
      </trkpt>
      <trkpt lat="47.24165" lon="-1.61768">
        <ele>49.2</ele>
        <time>2016-11-08T09:35:10Z</time>
      </trkpt>
      <trkpt lat="47.24171" lon="-1.61775">
        <ele>49.5</ele>
        <time>2016-11-08T09:35:16Z</time>
      </trkpt>
      <trkpt lat="47.24176" lon="-1.61784">
        <ele>49.8</ele>
        <time>2016-11-08T09:35:22Z</time>
      </trkpt>
      <trkpt lat="47.24179" lon="-1.61795">
        <ele>50.2</ele>
        <time>2016-11-08T09:35:29Z</time>
      </trkpt>
      <trkpt lat="47.24184" lon="-1.61806">
        <ele>50.5</ele>
        <time>2016-11-08T09:35:35Z</time>
      </trkpt>
      <trkpt lat="47.24188" lon="-1.61816">
        <ele>50.7</ele>
        <time>2016-11-08T09:35:41Z</time>
      </trkpt>
      <trkpt lat="47.24192" lon="-1.61825">
        <ele>50.9</ele>
        <time>2016-11-08T09:35:46Z</time>
      </trkpt>
      <trkpt lat="47.24197" lon="-1.61835">
        <ele>51.1</ele>
        <time>2016-11-08T09:35:52Z</time>
      </trkpt>
      <trkpt lat="47.24201" lon="-1.61845">
        <ele>51.2</ele>
        <time>2016-11-08T09:35:57Z</time>
      </trkpt>
      <trkpt lat="47.24205" lon="-1.61853">
        <ele>51.3</ele>
        <time>2016-11-08T09:36:03Z</time>
      </trkpt>
      <trkpt lat="47.24211" lon="-1.61862">
        <ele>51.4</ele>
        <time>2016-11-08T09:36:09Z</time>
      </trkpt>
      <trkpt lat="47.24215" lon="-1.61872">
        <ele>51.5</ele>
        <time>2016-11-08T09:36:15Z</time>
      </trkpt>
      <trkpt lat="47.24219" lon="-1.61881">
        <ele>51.6</ele>
        <time>2016-11-08T09:36:21Z</time>
      </trkpt>
      <trkpt lat="47.24223" lon="-1.61891">
        <ele>51.8</ele>
        <time>2016-11-08T09:36:27Z</time>
      </trkpt>
      <trkpt lat="47.24227" lon="-1.619">
        <ele>51.9</ele>
        <time>2016-11-08T09:36:32Z</time>
      </trkpt>
      <trkpt lat="47.24232" lon="-1.61909">
        <ele>52</ele>
        <time>2016-11-08T09:36:37Z</time>
      </trkpt>
      <trkpt lat="47.24238" lon="-1.61919">
        <ele>52.2</ele>
        <time>2016-11-08T09:36:43Z</time>
      </trkpt>
      <trkpt lat="47.24243" lon="-1.61928">
        <ele>52.2</ele>
        <time>2016-11-08T09:36:49Z</time>
      </trkpt>
      <trkpt lat="47.24249" lon="-1.61936">
        <ele>52.2</ele>
        <time>2016-11-08T09:36:55Z</time>
      </trkpt>
      <trkpt lat="47.24253" lon="-1.61945">
        <ele>52.3</ele>
        <time>2016-11-08T09:37:00Z</time>
      </trkpt>
      <trkpt lat="47.24257" lon="-1.61956">
        <ele>52.4</ele>
        <time>2016-11-08T09:37:06Z</time>
      </trkpt>
      <trkpt lat="47.24262" lon="-1.61966">
        <ele>52.6</ele>
        <time>2016-11-08T09:37:12Z</time>
      </trkpt>
      <trkpt lat="47.24268" lon="-1.61973">
        <ele>53</ele>
        <time>2016-11-08T09:37:19Z</time>
      </trkpt>
      <trkpt lat="47.24273" lon="-1.61981">
        <ele>53.3</ele>
        <time>2016-11-08T09:37:26Z</time>
      </trkpt>
      <trkpt lat="47.24278" lon="-1.6199">
        <ele>53.5</ele>
        <time>2016-11-08T09:37:32Z</time>
      </trkpt>
      <trkpt lat="47.24283" lon="-1.61998">
        <ele>53.5</ele>
        <time>2016-11-08T09:37:37Z</time>
      </trkpt>
      <trkpt lat="47.24289" lon="-1.62006">
        <ele>53.6</ele>
        <time>2016-11-08T09:37:42Z</time>
      </trkpt>
      <trkpt lat="47.24295" lon="-1.62014">
        <ele>53.6</ele>
        <time>2016-11-08T09:37:47Z</time>
      </trkpt>
      <trkpt lat="47.24301" lon="-1.62022">
        <ele>53.5</ele>
        <time>2016-11-08T09:37:53Z</time>
      </trkpt>
      <trkpt lat="47.24305" lon="-1.62032">
        <ele>53.8</ele>
        <time>2016-11-08T09:37:58Z</time>
      </trkpt>
      <trkpt lat="47.24313" lon="-1.62032">
        <ele>54.1</ele>
        <time>2016-11-08T09:38:09Z</time>
      </trkpt>
      <trkpt lat="47.2432" lon="-1.6203">
        <ele>54.2</ele>
        <time>2016-11-08T09:38:16Z</time>
      </trkpt>
      <trkpt lat="47.24328" lon="-1.62033">
        <ele>54.4</ele>
        <time>2016-11-08T09:38:29Z</time>
      </trkpt>
      <trkpt lat="47.24332" lon="-1.62042">
        <ele>54.5</ele>
        <time>2016-11-08T09:38:39Z</time>
      </trkpt>
      <trkpt lat="47.24339" lon="-1.62036">
        <ele>54.5</ele>
        <time>2016-11-08T09:38:47Z</time>
      </trkpt>
      <trkpt lat="47.24343" lon="-1.62027">
        <ele>54.6</ele>
        <time>2016-11-08T09:38:54Z</time>
      </trkpt>
      <trkpt lat="47.24348" lon="-1.62018">
        <ele>54.8</ele>
        <time>2016-11-08T09:39:01Z</time>
      </trkpt>
      <trkpt lat="47.24353" lon="-1.62009">
        <ele>55.1</ele>
        <time>2016-11-08T09:39:08Z</time>
      </trkpt>
      <trkpt lat="47.24358" lon="-1.61999">
        <ele>55.2</ele>
        <time>2016-11-08T09:39:15Z</time>
      </trkpt>
      <trkpt lat="47.24363" lon="-1.61991">
        <ele>55.4</ele>
        <time>2016-11-08T09:39:21Z</time>
      </trkpt>
      <trkpt lat="47.24368" lon="-1.61983">
        <ele>55.4</ele>
        <time>2016-11-08T09:39:27Z</time>
      </trkpt>
      <trkpt lat="47.24373" lon="-1.61976">
        <ele>55.4</ele>
        <time>2016-11-08T09:39:33Z</time>
      </trkpt>
      <trkpt lat="47.2438" lon="-1.61973">
        <ele>55.4</ele>
        <time>2016-11-08T09:39:39Z</time>
      </trkpt>
      <trkpt lat="47.24388" lon="-1.61972">
        <ele>55.5</ele>
        <time>2016-11-08T09:39:46Z</time>
      </trkpt>
      <trkpt lat="47.24395" lon="-1.61976">
        <ele>55.7</ele>
        <time>2016-11-08T09:39:52Z</time>
      </trkpt>
      <trkpt lat="47.24401" lon="-1.61983">
        <ele>56</ele>
        <time>2016-11-08T09:40:00Z</time>
      </trkpt>
      <trkpt lat="47.24405" lon="-1.61993">
        <ele>56.3</ele>
        <time>2016-11-08T09:40:07Z</time>
      </trkpt>
      <trkpt lat="47.24411" lon="-1.62">
        <ele>56.3</ele>
        <time>2016-11-08T09:40:13Z</time>
      </trkpt>
      <trkpt lat="47.24417" lon="-1.62008">
        <ele>56.3</ele>
        <time>2016-11-08T09:40:18Z</time>
      </trkpt>
      <trkpt lat="47.24421" lon="-1.62018">
        <ele>56.4</ele>
        <time>2016-11-08T09:40:23Z</time>
      </trkpt>
      <trkpt lat="47.24425" lon="-1.6203">
        <ele>56.6</ele>
        <time>2016-11-08T09:40:29Z</time>
      </trkpt>
      <trkpt lat="47.24429" lon="-1.62039">
        <ele>56.8</ele>
        <time>2016-11-08T09:40:34Z</time>
      </trkpt>
      <trkpt lat="47.24433" lon="-1.6205">
        <ele>57.1</ele>
        <time>2016-11-08T09:40:40Z</time>
      </trkpt>
      <trkpt lat="47.24437" lon="-1.6206">
        <ele>57.3</ele>
        <time>2016-11-08T09:40:46Z</time>
      </trkpt>
      <trkpt lat="47.24442" lon="-1.6207">
        <ele>57.4</ele>
        <time>2016-11-08T09:40:52Z</time>
      </trkpt>
      <trkpt lat="47.24446" lon="-1.62078">
        <ele>57.6</ele>
        <time>2016-11-08T09:40:57Z</time>
      </trkpt>
      <trkpt lat="47.2445" lon="-1.62087">
        <ele>58</ele>
        <time>2016-11-08T09:41:03Z</time>
      </trkpt>
      <trkpt lat="47.24454" lon="-1.62098">
        <ele>58.5</ele>
        <time>2016-11-08T09:41:09Z</time>
      </trkpt>
      <trkpt lat="47.24457" lon="-1.62108">
        <ele>58.7</ele>
        <time>2016-11-08T09:41:15Z</time>
      </trkpt>
      <trkpt lat="47.24461" lon="-1.62119">
        <ele>58.9</ele>
        <time>2016-11-08T09:41:21Z</time>
      </trkpt>
      <trkpt lat="47.24466" lon="-1.6213">
        <ele>59.1</ele>
        <time>2016-11-08T09:41:27Z</time>
      </trkpt>
      <trkpt lat="47.2447" lon="-1.6214">
        <ele>59.3</ele>
        <time>2016-11-08T09:41:33Z</time>
      </trkpt>
      <trkpt lat="47.24473" lon="-1.6215">
        <ele>59.5</ele>
        <time>2016-11-08T09:41:39Z</time>
      </trkpt>
      <trkpt lat="47.24478" lon="-1.6216">
        <ele>59.9</ele>
        <time>2016-11-08T09:41:45Z</time>
      </trkpt>
      <trkpt lat="47.24482" lon="-1.62169">
        <ele>60.2</ele>
        <time>2016-11-08T09:41:50Z</time>
      </trkpt>
      <trkpt lat="47.24487" lon="-1.62179">
        <ele>60.5</ele>
        <time>2016-11-08T09:41:55Z</time>
      </trkpt>
      <trkpt lat="47.2449" lon="-1.62189">
        <ele>60.8</ele>
        <time>2016-11-08T09:42:00Z</time>
      </trkpt>
      <trkpt lat="47.24494" lon="-1.62198">
        <ele>61.2</ele>
        <time>2016-11-08T09:42:05Z</time>
      </trkpt>
      <trkpt lat="47.24498" lon="-1.62208">
        <ele>61.4</ele>
        <time>2016-11-08T09:42:11Z</time>
      </trkpt>
      <trkpt lat="47.24503" lon="-1.62218">
        <ele>61.7</ele>
        <time>2016-11-08T09:42:18Z</time>
      </trkpt>
      <trkpt lat="47.24506" lon="-1.62227">
        <ele>61.8</ele>
        <time>2016-11-08T09:42:24Z</time>
      </trkpt>
      <trkpt lat="47.2451" lon="-1.62237">
        <ele>61.9</ele>
        <time>2016-11-08T09:42:30Z</time>
      </trkpt>
      <trkpt lat="47.24513" lon="-1.62247">
        <ele>62</ele>
        <time>2016-11-08T09:42:35Z</time>
      </trkpt>
      <trkpt lat="47.24517" lon="-1.62256">
        <ele>62</ele>
        <time>2016-11-08T09:42:41Z</time>
      </trkpt>
      <trkpt lat="47.2452" lon="-1.62267">
        <ele>62</ele>
        <time>2016-11-08T09:42:46Z</time>
      </trkpt>
      <trkpt lat="47.24523" lon="-1.62277">
        <ele>62</ele>
        <time>2016-11-08T09:42:52Z</time>
      </trkpt>
      <trkpt lat="47.24526" lon="-1.62288">
        <ele>62.1</ele>
        <time>2016-11-08T09:42:57Z</time>
      </trkpt>
      <trkpt lat="47.24527" lon="-1.62298">
        <ele>62.2</ele>
        <time>2016-11-08T09:43:02Z</time>
      </trkpt>
      <trkpt lat="47.24532" lon="-1.62307">
        <ele>62.3</ele>
        <time>2016-11-08T09:43:08Z</time>
      </trkpt>
      <trkpt lat="47.24534" lon="-1.62318">
        <ele>62.2</ele>
        <time>2016-11-08T09:43:15Z</time>
      </trkpt>
      <trkpt lat="47.24537" lon="-1.62328">
        <ele>62.9</ele>
        <time>2016-11-08T09:43:29Z</time>
      </trkpt>
      <trkpt lat="47.2454" lon="-1.62339">
        <ele>63.9</ele>
        <time>2016-11-08T09:43:50Z</time>
      </trkpt>
      <trkpt lat="47.24543" lon="-1.62349">
        <ele>64.2</ele>
        <time>2016-11-08T09:43:57Z</time>
      </trkpt>
      <trkpt lat="47.24545" lon="-1.6236">
        <ele>64.7</ele>
        <time>2016-11-08T09:44:04Z</time>
      </trkpt>
      <trkpt lat="47.24549" lon="-1.62369">
        <ele>64.8</ele>
        <time>2016-11-08T09:44:12Z</time>
      </trkpt>
      <trkpt lat="47.24552" lon="-1.62379">
        <ele>65</ele>
        <time>2016-11-08T09:44:18Z</time>
      </trkpt>
      <trkpt lat="47.24556" lon="-1.6239">
        <ele>65.3</ele>
        <time>2016-11-08T09:44:25Z</time>
      </trkpt>
      <trkpt lat="47.24558" lon="-1.624">
        <ele>65.9</ele>
        <time>2016-11-08T09:44:32Z</time>
      </trkpt>
      <trkpt lat="47.24563" lon="-1.62408">
        <ele>66.3</ele>
        <time>2016-11-08T09:44:39Z</time>
      </trkpt>
      <trkpt lat="47.24571" lon="-1.6241">
        <ele>67.7</ele>
        <time>2016-11-08T09:45:42Z</time>
      </trkpt>
      <trkpt lat="47.24578" lon="-1.62407">
        <ele>68</ele>
        <time>2016-11-08T09:45:55Z</time>
      </trkpt>
      <trkpt lat="47.24584" lon="-1.62401">
        <ele>68.2</ele>
        <time>2016-11-08T09:46:04Z</time>
      </trkpt>
      <trkpt lat="47.2459" lon="-1.62395">
        <ele>68.5</ele>
        <time>2016-11-08T09:46:11Z</time>
      </trkpt>
      <trkpt lat="47.24596" lon="-1.62388">
        <ele>68.8</ele>
        <time>2016-11-08T09:46:18Z</time>
      </trkpt>
      <trkpt lat="47.24602" lon="-1.62382">
        <ele>69.1</ele>
        <time>2016-11-08T09:46:25Z</time>
      </trkpt>
      <trkpt lat="47.24609" lon="-1.62375">
        <ele>69.1</ele>
        <time>2016-11-08T09:46:31Z</time>
      </trkpt>
      <trkpt lat="47.24616" lon="-1.62368">
        <ele>69</ele>
        <time>2016-11-08T09:46:38Z</time>
      </trkpt>
      <trkpt lat="47.24622" lon="-1.6236">
        <ele>68.9</ele>
        <time>2016-11-08T09:46:45Z</time>
      </trkpt>
      <trkpt lat="47.24629" lon="-1.62354">
        <ele>68.9</ele>
        <time>2016-11-08T09:46:51Z</time>
      </trkpt>
      <trkpt lat="47.24636" lon="-1.6235">
        <ele>68.9</ele>
        <time>2016-11-08T09:46:56Z</time>
      </trkpt>
      <trkpt lat="47.24644" lon="-1.62343">
        <ele>68.8</ele>
        <time>2016-11-08T09:47:01Z</time>
      </trkpt>
      <trkpt lat="47.24651" lon="-1.62338">
        <ele>68.7</ele>
        <time>2016-11-08T09:47:06Z</time>
      </trkpt>
      <trkpt lat="47.24658" lon="-1.62332">
        <ele>68.5</ele>
        <time>2016-11-08T09:47:12Z</time>
      </trkpt>
      <trkpt lat="47.24664" lon="-1.62326">
        <ele>68.4</ele>
        <time>2016-11-08T09:47:18Z</time>
      </trkpt>
      <trkpt lat="47.2467" lon="-1.6232">
        <ele>68.3</ele>
        <time>2016-11-08T09:47:24Z</time>
      </trkpt>
      <trkpt lat="47.24676" lon="-1.62312">
        <ele>68.1</ele>
        <time>2016-11-08T09:47:31Z</time>
      </trkpt>
      <trkpt lat="47.24683" lon="-1.62305">
        <ele>67.7</ele>
        <time>2016-11-08T09:47:37Z</time>
      </trkpt>
      <trkpt lat="47.24689" lon="-1.62298">
        <ele>67.4</ele>
        <time>2016-11-08T09:47:43Z</time>
      </trkpt>
      <trkpt lat="47.24695" lon="-1.62292">
        <ele>67.3</ele>
        <time>2016-11-08T09:47:48Z</time>
      </trkpt>
      <trkpt lat="47.24702" lon="-1.62285">
        <ele>67.2</ele>
        <time>2016-11-08T09:47:53Z</time>
      </trkpt>
      <trkpt lat="47.24709" lon="-1.62278">
        <ele>67.1</ele>
        <time>2016-11-08T09:47:58Z</time>
      </trkpt>
      <trkpt lat="47.24715" lon="-1.62272">
        <ele>67</ele>
        <time>2016-11-08T09:48:03Z</time>
      </trkpt>
      <trkpt lat="47.24722" lon="-1.62265">
        <ele>66.9</ele>
        <time>2016-11-08T09:48:09Z</time>
      </trkpt>
      <trkpt lat="47.24728" lon="-1.62258">
        <ele>66.8</ele>
        <time>2016-11-08T09:48:16Z</time>
      </trkpt>
      <trkpt lat="47.24735" lon="-1.6225">
        <ele>66.8</ele>
        <time>2016-11-08T09:48:23Z</time>
      </trkpt>
      <trkpt lat="47.24741" lon="-1.62244">
        <ele>66.8</ele>
        <time>2016-11-08T09:48:28Z</time>
      </trkpt>
      <trkpt lat="47.24746" lon="-1.62236">
        <ele>66.8</ele>
        <time>2016-11-08T09:48:34Z</time>
      </trkpt>
      <trkpt lat="47.24754" lon="-1.6223">
        <ele>66.7</ele>
        <time>2016-11-08T09:48:40Z</time>
      </trkpt>
      <trkpt lat="47.24761" lon="-1.62223">
        <ele>66.5</ele>
        <time>2016-11-08T09:48:45Z</time>
      </trkpt>
      <trkpt lat="47.24767" lon="-1.62217">
        <ele>66.3</ele>
        <time>2016-11-08T09:48:50Z</time>
      </trkpt>
      <trkpt lat="47.24774" lon="-1.6221">
        <ele>66.1</ele>
        <time>2016-11-08T09:48:56Z</time>
      </trkpt>
      <trkpt lat="47.2478" lon="-1.62202">
        <ele>66</ele>
        <time>2016-11-08T09:49:01Z</time>
      </trkpt>
      <trkpt lat="47.24785" lon="-1.62193">
        <ele>66</ele>
        <time>2016-11-08T09:49:07Z</time>
      </trkpt>
      <trkpt lat="47.24791" lon="-1.62186">
        <ele>65.9</ele>
        <time>2016-11-08T09:49:13Z</time>
      </trkpt>
      <trkpt lat="47.24798" lon="-1.62185">
        <ele>65.9</ele>
        <time>2016-11-08T09:49:19Z</time>
      </trkpt>
      <trkpt lat="47.24807" lon="-1.62186">
        <ele>65.9</ele>
        <time>2016-11-08T09:49:27Z</time>
      </trkpt>
      <trkpt lat="47.24814" lon="-1.62188">
        <ele>65.8</ele>
        <time>2016-11-08T09:49:32Z</time>
      </trkpt>
      <trkpt lat="47.24822" lon="-1.6219">
        <ele>65.7</ele>
        <time>2016-11-08T09:49:38Z</time>
      </trkpt>
      <trkpt lat="47.2483" lon="-1.62193">
        <ele>65.7</ele>
        <time>2016-11-08T09:49:45Z</time>
      </trkpt>
      <trkpt lat="47.24838" lon="-1.62195">
        <ele>65.7</ele>
        <time>2016-11-08T09:49:50Z</time>
      </trkpt>
      <trkpt lat="47.24845" lon="-1.62196">
        <ele>65.7</ele>
        <time>2016-11-08T09:49:55Z</time>
      </trkpt>
      <trkpt lat="47.24853" lon="-1.62197">
        <ele>65.7</ele>
        <time>2016-11-08T09:50:02Z</time>
      </trkpt>
      <trkpt lat="47.2486" lon="-1.62202">
        <ele>65.7</ele>
        <time>2016-11-08T09:50:08Z</time>
      </trkpt>
      <trkpt lat="47.24867" lon="-1.62205">
        <ele>65.7</ele>
        <time>2016-11-08T09:50:14Z</time>
      </trkpt>
      <trkpt lat="47.24874" lon="-1.62209">
        <ele>65.6</ele>
        <time>2016-11-08T09:50:20Z</time>
      </trkpt>
      <trkpt lat="47.24881" lon="-1.62214">
        <ele>65.6</ele>
        <time>2016-11-08T09:50:27Z</time>
      </trkpt>
      <trkpt lat="47.24888" lon="-1.62218">
        <ele>65.8</ele>
        <time>2016-11-08T09:50:32Z</time>
      </trkpt>
      <trkpt lat="47.24895" lon="-1.6222">
        <ele>65.9</ele>
        <time>2016-11-08T09:50:37Z</time>
      </trkpt>
      <trkpt lat="47.24904" lon="-1.62223">
        <ele>66</ele>
        <time>2016-11-08T09:50:42Z</time>
      </trkpt>
      <trkpt lat="47.24911" lon="-1.62227">
        <ele>66</ele>
        <time>2016-11-08T09:50:47Z</time>
      </trkpt>
      <trkpt lat="47.24917" lon="-1.62232">
        <ele>66.1</ele>
        <time>2016-11-08T09:50:52Z</time>
      </trkpt>
      <trkpt lat="47.24925" lon="-1.62235">
        <ele>66.1</ele>
        <time>2016-11-08T09:50:57Z</time>
      </trkpt>
      <trkpt lat="47.24933" lon="-1.62239">
        <ele>66.2</ele>
        <time>2016-11-08T09:51:03Z</time>
      </trkpt>
      <trkpt lat="47.2494" lon="-1.62243">
        <ele>66.2</ele>
        <time>2016-11-08T09:51:08Z</time>
      </trkpt>
      <trkpt lat="47.24948" lon="-1.62246">
        <ele>66.2</ele>
        <time>2016-11-08T09:51:13Z</time>
      </trkpt>
      <trkpt lat="47.24956" lon="-1.62252">
        <ele>66.4</ele>
        <time>2016-11-08T09:51:18Z</time>
      </trkpt>
      <trkpt lat="47.24963" lon="-1.62257">
        <ele>66.5</ele>
        <time>2016-11-08T09:51:23Z</time>
      </trkpt>
      <trkpt lat="47.24971" lon="-1.62263">
        <ele>66.6</ele>
        <time>2016-11-08T09:51:29Z</time>
      </trkpt>
      <trkpt lat="47.24978" lon="-1.62268">
        <ele>66.6</ele>
        <time>2016-11-08T09:51:34Z</time>
      </trkpt>
      <trkpt lat="47.24986" lon="-1.62272">
        <ele>66.7</ele>
        <time>2016-11-08T09:51:39Z</time>
      </trkpt>
      <trkpt lat="47.24993" lon="-1.62275">
        <ele>66.7</ele>
        <time>2016-11-08T09:51:44Z</time>
      </trkpt>
      <trkpt lat="47.24999" lon="-1.62282">
        <ele>66.6</ele>
        <time>2016-11-08T09:51:50Z</time>
      </trkpt>
      <trkpt lat="47.25006" lon="-1.6229">
        <ele>66.6</ele>
        <time>2016-11-08T09:51:57Z</time>
      </trkpt>
      <trkpt lat="47.2501" lon="-1.62299">
        <ele>66.6</ele>
        <time>2016-11-08T09:52:03Z</time>
      </trkpt>
      <trkpt lat="47.25015" lon="-1.62308">
        <ele>66.7</ele>
        <time>2016-11-08T09:52:10Z</time>
      </trkpt>
      <trkpt lat="47.25017" lon="-1.62319">
        <ele>66.7</ele>
        <time>2016-11-08T09:52:16Z</time>
      </trkpt>
      <trkpt lat="47.2502" lon="-1.6233">
        <ele>66.7</ele>
        <time>2016-11-08T09:52:22Z</time>
      </trkpt>
      <trkpt lat="47.25023" lon="-1.6234">
        <ele>66.7</ele>
        <time>2016-11-08T09:52:28Z</time>
      </trkpt>
      <trkpt lat="47.25027" lon="-1.6235">
        <ele>66.9</ele>
        <time>2016-11-08T09:52:33Z</time>
      </trkpt>
      <trkpt lat="47.25031" lon="-1.62359">
        <ele>67</ele>
        <time>2016-11-08T09:52:39Z</time>
      </trkpt>
      <trkpt lat="47.25035" lon="-1.6237">
        <ele>67.1</ele>
        <time>2016-11-08T09:52:45Z</time>
      </trkpt>
      <trkpt lat="47.25039" lon="-1.62378">
        <ele>67.2</ele>
        <time>2016-11-08T09:52:50Z</time>
      </trkpt>
      <trkpt lat="47.25041" lon="-1.6239">
        <ele>67.3</ele>
        <time>2016-11-08T09:52:56Z</time>
      </trkpt>
      <trkpt lat="47.2504" lon="-1.624">
        <ele>67.7</ele>
        <time>2016-11-08T09:53:02Z</time>
      </trkpt>
      <trkpt lat="47.2504" lon="-1.62411">
        <ele>68.1</ele>
        <time>2016-11-08T09:53:08Z</time>
      </trkpt>
      <trkpt lat="47.25041" lon="-1.62421">
        <ele>68.3</ele>
        <time>2016-11-08T09:53:14Z</time>
      </trkpt>
      <trkpt lat="47.25045" lon="-1.62432">
        <ele>68.5</ele>
        <time>2016-11-08T09:53:21Z</time>
      </trkpt>
      <trkpt lat="47.25049" lon="-1.62442">
        <ele>68.6</ele>
        <time>2016-11-08T09:53:27Z</time>
      </trkpt>
      <trkpt lat="47.25053" lon="-1.62452">
        <ele>68.7</ele>
        <time>2016-11-08T09:53:33Z</time>
      </trkpt>
      <trkpt lat="47.25056" lon="-1.62462">
        <ele>68.8</ele>
        <time>2016-11-08T09:53:38Z</time>
      </trkpt>
      <trkpt lat="47.2506" lon="-1.62472">
        <ele>69</ele>
        <time>2016-11-08T09:53:44Z</time>
      </trkpt>
      <trkpt lat="47.25063" lon="-1.62483">
        <ele>69.4</ele>
        <time>2016-11-08T09:53:50Z</time>
      </trkpt>
      <trkpt lat="47.25066" lon="-1.62494">
        <ele>69.4</ele>
        <time>2016-11-08T09:53:55Z</time>
      </trkpt>
      <trkpt lat="47.25069" lon="-1.62503">
        <ele>69.5</ele>
        <time>2016-11-08T09:54:00Z</time>
      </trkpt>
      <trkpt lat="47.25074" lon="-1.62513">
        <ele>69.8</ele>
        <time>2016-11-08T09:54:06Z</time>
      </trkpt>
      <trkpt lat="47.2508" lon="-1.62522">
        <ele>69.9</ele>
        <time>2016-11-08T09:54:12Z</time>
      </trkpt>
      <trkpt lat="47.25087" lon="-1.62528">
        <ele>70.1</ele>
        <time>2016-11-08T09:54:18Z</time>
      </trkpt>
      <trkpt lat="47.25094" lon="-1.62534">
        <ele>70</ele>
        <time>2016-11-08T09:54:25Z</time>
      </trkpt>
      <trkpt lat="47.25101" lon="-1.62531">
        <ele>69.7</ele>
        <time>2016-11-08T09:54:32Z</time>
      </trkpt>
      <trkpt lat="47.25108" lon="-1.62528">
        <ele>69.9</ele>
        <time>2016-11-08T09:54:41Z</time>
      </trkpt>
      <trkpt lat="47.25115" lon="-1.62526">
        <ele>70</ele>
        <time>2016-11-08T09:54:48Z</time>
      </trkpt>
      <trkpt lat="47.25123" lon="-1.62522">
        <ele>70.3</ele>
        <time>2016-11-08T09:54:54Z</time>
      </trkpt>
      <trkpt lat="47.2513" lon="-1.62518">
        <ele>70.5</ele>
        <time>2016-11-08T09:55:00Z</time>
      </trkpt>
      <trkpt lat="47.25137" lon="-1.62516">
        <ele>70.7</ele>
        <time>2016-11-08T09:55:06Z</time>
      </trkpt>
      <trkpt lat="47.25145" lon="-1.62513">
        <ele>71.3</ele>
        <time>2016-11-08T09:55:12Z</time>
      </trkpt>
      <trkpt lat="47.25153" lon="-1.62509">
        <ele>71.6</ele>
        <time>2016-11-08T09:55:17Z</time>
      </trkpt>
      <trkpt lat="47.2516" lon="-1.62506">
        <ele>71.8</ele>
        <time>2016-11-08T09:55:22Z</time>
      </trkpt>
      <trkpt lat="47.25168" lon="-1.62501">
        <ele>72</ele>
        <time>2016-11-08T09:55:28Z</time>
      </trkpt>
      <trkpt lat="47.25175" lon="-1.62496">
        <ele>72.2</ele>
        <time>2016-11-08T09:55:33Z</time>
      </trkpt>
      <trkpt lat="47.25182" lon="-1.62491">
        <ele>72.8</ele>
        <time>2016-11-08T09:55:39Z</time>
      </trkpt>
      <trkpt lat="47.25188" lon="-1.62487">
        <ele>73.1</ele>
        <time>2016-11-08T09:55:44Z</time>
      </trkpt>
      <trkpt lat="47.25195" lon="-1.62482">
        <ele>73.3</ele>
        <time>2016-11-08T09:55:49Z</time>
      </trkpt>
      <trkpt lat="47.25202" lon="-1.62478">
        <ele>73.4</ele>
        <time>2016-11-08T09:55:54Z</time>
      </trkpt>
      <trkpt lat="47.25208" lon="-1.62473">
        <ele>73.6</ele>
        <time>2016-11-08T09:55:59Z</time>
      </trkpt>
      <trkpt lat="47.25215" lon="-1.62469">
        <ele>73.7</ele>
        <time>2016-11-08T09:56:04Z</time>
      </trkpt>
      <trkpt lat="47.25223" lon="-1.62467">
        <ele>73.8</ele>
        <time>2016-11-08T09:56:10Z</time>
      </trkpt>
      <trkpt lat="47.25231" lon="-1.62462">
        <ele>73.8</ele>
        <time>2016-11-08T09:56:16Z</time>
      </trkpt>
      <trkpt lat="47.25238" lon="-1.6246">
        <ele>73.9</ele>
        <time>2016-11-08T09:56:22Z</time>
      </trkpt>
      <trkpt lat="47.25246" lon="-1.62459">
        <ele>74.1</ele>
        <time>2016-11-08T09:56:28Z</time>
      </trkpt>
      <trkpt lat="47.25254" lon="-1.62459">
        <ele>74.1</ele>
        <time>2016-11-08T09:56:34Z</time>
      </trkpt>
      <trkpt lat="47.25263" lon="-1.62462">
        <ele>74.5</ele>
        <time>2016-11-08T09:56:40Z</time>
      </trkpt>
      <trkpt lat="47.2527" lon="-1.62467">
        <ele>74.7</ele>
        <time>2016-11-08T09:56:46Z</time>
      </trkpt>
      <trkpt lat="47.25277" lon="-1.62473">
        <ele>75</ele>
        <time>2016-11-08T09:56:52Z</time>
      </trkpt>
      <trkpt lat="47.25283" lon="-1.62482">
        <ele>75.2</ele>
        <time>2016-11-08T09:56:58Z</time>
      </trkpt>
      <trkpt lat="47.25287" lon="-1.62491">
        <ele>75.3</ele>
        <time>2016-11-08T09:57:04Z</time>
      </trkpt>
      <trkpt lat="47.25291" lon="-1.625">
        <ele>75.6</ele>
        <time>2016-11-08T09:57:10Z</time>
      </trkpt>
      <trkpt lat="47.25295" lon="-1.62509">
        <ele>75.8</ele>
        <time>2016-11-08T09:57:15Z</time>
      </trkpt>
      <trkpt lat="47.253" lon="-1.6252">
        <ele>76</ele>
        <time>2016-11-08T09:57:21Z</time>
      </trkpt>
      <trkpt lat="47.25304" lon="-1.62529">
        <ele>76.1</ele>
        <time>2016-11-08T09:57:26Z</time>
      </trkpt>
      <trkpt lat="47.25308" lon="-1.62538">
        <ele>76</ele>
        <time>2016-11-08T09:57:31Z</time>
      </trkpt>
      <trkpt lat="47.25312" lon="-1.62547">
        <ele>75.9</ele>
        <time>2016-11-08T09:57:36Z</time>
      </trkpt>
      <trkpt lat="47.25316" lon="-1.62558">
        <ele>76</ele>
        <time>2016-11-08T09:57:42Z</time>
      </trkpt>
      <trkpt lat="47.25319" lon="-1.62569">
        <ele>76.1</ele>
        <time>2016-11-08T09:57:48Z</time>
      </trkpt>
      <trkpt lat="47.25323" lon="-1.62579">
        <ele>76.1</ele>
        <time>2016-11-08T09:57:54Z</time>
      </trkpt>
      <trkpt lat="47.25327" lon="-1.62588">
        <ele>76.1</ele>
        <time>2016-11-08T09:58:00Z</time>
      </trkpt>
      <trkpt lat="47.2533" lon="-1.62599">
        <ele>76.1</ele>
        <time>2016-11-08T09:58:06Z</time>
      </trkpt>
      <trkpt lat="47.25335" lon="-1.62609">
        <ele>76.2</ele>
        <time>2016-11-08T09:58:13Z</time>
      </trkpt>
      <trkpt lat="47.25339" lon="-1.62617">
        <ele>76.5</ele>
        <time>2016-11-08T09:58:19Z</time>
      </trkpt>
      <trkpt lat="47.25343" lon="-1.62628">
        <ele>76.7</ele>
        <time>2016-11-08T09:58:25Z</time>
      </trkpt>
      <trkpt lat="47.25345" lon="-1.62638">
        <ele>76.8</ele>
        <time>2016-11-08T09:58:31Z</time>
      </trkpt>
      <trkpt lat="47.25348" lon="-1.62649">
        <ele>76.9</ele>
        <time>2016-11-08T09:58:37Z</time>
      </trkpt>
      <trkpt lat="47.25351" lon="-1.62658">
        <ele>77</ele>
        <time>2016-11-08T09:58:43Z</time>
      </trkpt>
      <trkpt lat="47.25356" lon="-1.62668">
        <ele>77.2</ele>
        <time>2016-11-08T09:58:49Z</time>
      </trkpt>
      <trkpt lat="47.2536" lon="-1.62679">
        <ele>77.3</ele>
        <time>2016-11-08T09:58:55Z</time>
      </trkpt>
      <trkpt lat="47.25364" lon="-1.6269">
        <ele>77.4</ele>
        <time>2016-11-08T09:59:01Z</time>
      </trkpt>
      <trkpt lat="47.25368" lon="-1.627">
        <ele>77.5</ele>
        <time>2016-11-08T09:59:06Z</time>
      </trkpt>
      <trkpt lat="47.25372" lon="-1.6271">
        <ele>77.5</ele>
        <time>2016-11-08T09:59:12Z</time>
      </trkpt>
      <trkpt lat="47.25376" lon="-1.62721">
        <ele>77.6</ele>
        <time>2016-11-08T09:59:18Z</time>
      </trkpt>
      <trkpt lat="47.2538" lon="-1.6273">
        <ele>77.8</ele>
        <time>2016-11-08T09:59:23Z</time>
      </trkpt>
      <trkpt lat="47.25385" lon="-1.6274">
        <ele>77.8</ele>
        <time>2016-11-08T09:59:29Z</time>
      </trkpt>
      <trkpt lat="47.25389" lon="-1.6275">
        <ele>77.8</ele>
        <time>2016-11-08T09:59:35Z</time>
      </trkpt>
      <trkpt lat="47.25393" lon="-1.6276">
        <ele>77.8</ele>
        <time>2016-11-08T09:59:40Z</time>
      </trkpt>
      <trkpt lat="47.25397" lon="-1.62769">
        <ele>77.8</ele>
        <time>2016-11-08T09:59:45Z</time>
      </trkpt>
      <trkpt lat="47.254" lon="-1.62778">
        <ele>77.9</ele>
        <time>2016-11-08T09:59:50Z</time>
      </trkpt>
      <trkpt lat="47.25405" lon="-1.62788">
        <ele>77.9</ele>
        <time>2016-11-08T09:59:56Z</time>
      </trkpt>
      <trkpt lat="47.25409" lon="-1.62799">
        <ele>78.1</ele>
        <time>2016-11-08T10:00:02Z</time>
      </trkpt>
      <trkpt lat="47.25413" lon="-1.62809">
        <ele>78.2</ele>
        <time>2016-11-08T10:00:08Z</time>
      </trkpt>
      <trkpt lat="47.25416" lon="-1.62819">
        <ele>78.3</ele>
        <time>2016-11-08T10:00:14Z</time>
      </trkpt>
      <trkpt lat="47.2542" lon="-1.6283">
        <ele>78.4</ele>
        <time>2016-11-08T10:00:20Z</time>
      </trkpt>
      <trkpt lat="47.25423" lon="-1.6284">
        <ele>78.5</ele>
        <time>2016-11-08T10:00:26Z</time>
      </trkpt>
      <trkpt lat="47.25425" lon="-1.62852">
        <ele>78.5</ele>
        <time>2016-11-08T10:00:32Z</time>
      </trkpt>
      <trkpt lat="47.25427" lon="-1.62863">
        <ele>78.5</ele>
        <time>2016-11-08T10:00:38Z</time>
      </trkpt>
      <trkpt lat="47.25433" lon="-1.6287">
        <ele>79.1</ele>
        <time>2016-11-08T10:01:02Z</time>
      </trkpt>
      <trkpt lat="47.2544" lon="-1.62868">
        <ele>79.4</ele>
        <time>2016-11-08T10:01:16Z</time>
      </trkpt>
      <trkpt lat="47.25449" lon="-1.62868">
        <ele>79.5</ele>
        <time>2016-11-08T10:01:23Z</time>
      </trkpt>
      <trkpt lat="47.25456" lon="-1.62866">
        <ele>79.5</ele>
        <time>2016-11-08T10:01:29Z</time>
      </trkpt>
      <trkpt lat="47.25463" lon="-1.62863">
        <ele>79.5</ele>
        <time>2016-11-08T10:01:35Z</time>
      </trkpt>
      <trkpt lat="47.25471" lon="-1.62868">
        <ele>79.5</ele>
        <time>2016-11-08T10:01:42Z</time>
      </trkpt>
      <trkpt lat="47.25478" lon="-1.62872">
        <ele>79.7</ele>
        <time>2016-11-08T10:01:49Z</time>
      </trkpt>
      <trkpt lat="47.25482" lon="-1.6288">
        <ele>79.8</ele>
        <time>2016-11-08T10:01:55Z</time>
      </trkpt>
      <trkpt lat="47.25485" lon="-1.62891">
        <ele>79.9</ele>
        <time>2016-11-08T10:02:01Z</time>
      </trkpt>
      <trkpt lat="47.25487" lon="-1.62902">
        <ele>80</ele>
        <time>2016-11-08T10:02:07Z</time>
      </trkpt>
      <trkpt lat="47.25495" lon="-1.62902">
        <ele>80</ele>
        <time>2016-11-08T10:02:15Z</time>
      </trkpt>
      <trkpt lat="47.25502" lon="-1.62898">
        <ele>80.1</ele>
        <time>2016-11-08T10:02:21Z</time>
      </trkpt>
      <trkpt lat="47.2551" lon="-1.62893">
        <ele>80.3</ele>
        <time>2016-11-08T10:02:28Z</time>
      </trkpt>
      <trkpt lat="47.25517" lon="-1.62888">
        <ele>80.5</ele>
        <time>2016-11-08T10:02:34Z</time>
      </trkpt>
      <trkpt lat="47.25524" lon="-1.62883">
        <ele>80.6</ele>
        <time>2016-11-08T10:02:41Z</time>
      </trkpt>
      <trkpt lat="47.25531" lon="-1.62878">
        <ele>80.8</ele>
        <time>2016-11-08T10:02:48Z</time>
      </trkpt>
      <trkpt lat="47.25539" lon="-1.62874">
        <ele>80.9</ele>
        <time>2016-11-08T10:02:55Z</time>
      </trkpt>
      <trkpt lat="47.25546" lon="-1.62869">
        <ele>81.3</ele>
        <time>2016-11-08T10:03:01Z</time>
      </trkpt>
      <trkpt lat="47.25553" lon="-1.62863">
        <ele>81.5</ele>
        <time>2016-11-08T10:03:07Z</time>
      </trkpt>
      <trkpt lat="47.25561" lon="-1.62858">
        <ele>81.5</ele>
        <time>2016-11-08T10:03:13Z</time>
      </trkpt>
      <trkpt lat="47.25568" lon="-1.62854">
        <ele>81.4</ele>
        <time>2016-11-08T10:03:19Z</time>
      </trkpt>
      <trkpt lat="47.25575" lon="-1.62848">
        <ele>81.4</ele>
        <time>2016-11-08T10:03:25Z</time>
      </trkpt>
      <trkpt lat="47.25581" lon="-1.62842">
        <ele>81.5</ele>
        <time>2016-11-08T10:03:30Z</time>
      </trkpt>
      <trkpt lat="47.25588" lon="-1.62835">
        <ele>81.5</ele>
        <time>2016-11-08T10:03:36Z</time>
      </trkpt>
      <trkpt lat="47.25594" lon="-1.62828">
        <ele>81.6</ele>
        <time>2016-11-08T10:03:42Z</time>
      </trkpt>
      <trkpt lat="47.256" lon="-1.62822">
        <ele>81.7</ele>
        <time>2016-11-08T10:03:48Z</time>
      </trkpt>
      <trkpt lat="47.25607" lon="-1.62816">
        <ele>81.6</ele>
        <time>2016-11-08T10:03:54Z</time>
      </trkpt>
      <trkpt lat="47.25614" lon="-1.6281">
        <ele>81.6</ele>
        <time>2016-11-08T10:03:59Z</time>
      </trkpt>
      <trkpt lat="47.25621" lon="-1.62803">
        <ele>81.5</ele>
        <time>2016-11-08T10:04:05Z</time>
      </trkpt>
      <trkpt lat="47.25627" lon="-1.62796">
        <ele>81.5</ele>
        <time>2016-11-08T10:04:11Z</time>
      </trkpt>
      <trkpt lat="47.25634" lon="-1.62788">
        <ele>81.4</ele>
        <time>2016-11-08T10:04:17Z</time>
      </trkpt>
      <trkpt lat="47.2564" lon="-1.6278">
        <ele>81.3</ele>
        <time>2016-11-08T10:04:23Z</time>
      </trkpt>
      <trkpt lat="47.25646" lon="-1.62772">
        <ele>81.4</ele>
        <time>2016-11-08T10:04:29Z</time>
      </trkpt>
      <trkpt lat="47.25652" lon="-1.62764">
        <ele>81.4</ele>
        <time>2016-11-08T10:04:35Z</time>
      </trkpt>
      <trkpt lat="47.25658" lon="-1.62756">
        <ele>81.3</ele>
        <time>2016-11-08T10:04:41Z</time>
      </trkpt>
      <trkpt lat="47.25664" lon="-1.62746">
        <ele>81.2</ele>
        <time>2016-11-08T10:04:47Z</time>
      </trkpt>
      <trkpt lat="47.2567" lon="-1.62738">
        <ele>81.2</ele>
        <time>2016-11-08T10:04:53Z</time>
      </trkpt>
      <trkpt lat="47.25675" lon="-1.62728">
        <ele>81.3</ele>
        <time>2016-11-08T10:04:59Z</time>
      </trkpt>
      <trkpt lat="47.2568" lon="-1.62719">
        <ele>81.2</ele>
        <time>2016-11-08T10:05:04Z</time>
      </trkpt>
      <trkpt lat="47.25684" lon="-1.62711">
        <ele>81</ele>
        <time>2016-11-08T10:05:09Z</time>
      </trkpt>
      <trkpt lat="47.25689" lon="-1.62701">
        <ele>80.9</ele>
        <time>2016-11-08T10:05:15Z</time>
      </trkpt>
      <trkpt lat="47.25694" lon="-1.62692">
        <ele>80.7</ele>
        <time>2016-11-08T10:05:22Z</time>
      </trkpt>
      <trkpt lat="47.257" lon="-1.62684">
        <ele>80.6</ele>
        <time>2016-11-08T10:05:29Z</time>
      </trkpt>
      <trkpt lat="47.25705" lon="-1.62673">
        <ele>80.6</ele>
        <time>2016-11-08T10:05:35Z</time>
      </trkpt>
      <trkpt lat="47.25709" lon="-1.62664">
        <ele>80.5</ele>
        <time>2016-11-08T10:05:40Z</time>
      </trkpt>
      <trkpt lat="47.25713" lon="-1.62655">
        <ele>80.5</ele>
        <time>2016-11-08T10:05:45Z</time>
      </trkpt>
      <trkpt lat="47.25718" lon="-1.62645">
        <ele>80.5</ele>
        <time>2016-11-08T10:05:51Z</time>
      </trkpt>
      <trkpt lat="47.25722" lon="-1.62637">
        <ele>80.5</ele>
        <time>2016-11-08T10:05:56Z</time>
      </trkpt>
      <trkpt lat="47.25727" lon="-1.62627">
        <ele>80.4</ele>
        <time>2016-11-08T10:06:02Z</time>
      </trkpt>
      <trkpt lat="47.25732" lon="-1.62619">
        <ele>80.4</ele>
        <time>2016-11-08T10:06:07Z</time>
      </trkpt>
      <trkpt lat="47.25736" lon="-1.6261">
        <ele>80.4</ele>
        <time>2016-11-08T10:06:12Z</time>
      </trkpt>
      <trkpt lat="47.25741" lon="-1.62602">
        <ele>80.2</ele>
        <time>2016-11-08T10:06:18Z</time>
      </trkpt>
      <trkpt lat="47.25746" lon="-1.62593">
        <ele>80</ele>
        <time>2016-11-08T10:06:24Z</time>
      </trkpt>
      <trkpt lat="47.25751" lon="-1.62584">
        <ele>79.9</ele>
        <time>2016-11-08T10:06:30Z</time>
      </trkpt>
      <trkpt lat="47.25756" lon="-1.62574">
        <ele>79.8</ele>
        <time>2016-11-08T10:06:36Z</time>
      </trkpt>
      <trkpt lat="47.25761" lon="-1.62565">
        <ele>79.8</ele>
        <time>2016-11-08T10:06:42Z</time>
      </trkpt>
      <trkpt lat="47.25767" lon="-1.62555">
        <ele>79.5</ele>
        <time>2016-11-08T10:06:48Z</time>
      </trkpt>
      <trkpt lat="47.25772" lon="-1.62545">
        <ele>79.2</ele>
        <time>2016-11-08T10:06:54Z</time>
      </trkpt>
      <trkpt lat="47.25777" lon="-1.62536">
        <ele>79.1</ele>
        <time>2016-11-08T10:07:00Z</time>
      </trkpt>
      <trkpt lat="47.25782" lon="-1.62526">
        <ele>79</ele>
        <time>2016-11-08T10:07:06Z</time>
      </trkpt>
      <trkpt lat="47.25787" lon="-1.62519">
        <ele>79</ele>
        <time>2016-11-08T10:07:12Z</time>
      </trkpt>
      <trkpt lat="47.25792" lon="-1.6251">
        <ele>79.1</ele>
        <time>2016-11-08T10:07:18Z</time>
      </trkpt>
      <trkpt lat="47.25798" lon="-1.625">
        <ele>79.3</ele>
        <time>2016-11-08T10:07:24Z</time>
      </trkpt>
      <trkpt lat="47.25803" lon="-1.62491">
        <ele>79.4</ele>
        <time>2016-11-08T10:07:30Z</time>
      </trkpt>
      <trkpt lat="47.25809" lon="-1.62484">
        <ele>79.6</ele>
        <time>2016-11-08T10:07:36Z</time>
      </trkpt>
      <trkpt lat="47.25817" lon="-1.6248">
        <ele>80</ele>
        <time>2016-11-08T10:07:42Z</time>
      </trkpt>
      <trkpt lat="47.25823" lon="-1.62487">
        <ele>80.2</ele>
        <time>2016-11-08T10:07:49Z</time>
      </trkpt>
      <trkpt lat="47.25829" lon="-1.62496">
        <ele>80.3</ele>
        <time>2016-11-08T10:07:56Z</time>
      </trkpt>
      <trkpt lat="47.25833" lon="-1.62507">
        <ele>80.4</ele>
        <time>2016-11-08T10:08:03Z</time>
      </trkpt>
      <trkpt lat="47.25837" lon="-1.62516">
        <ele>80.4</ele>
        <time>2016-11-08T10:08:10Z</time>
      </trkpt>
      <trkpt lat="47.2584" lon="-1.62526">
        <ele>80.5</ele>
        <time>2016-11-08T10:08:16Z</time>
      </trkpt>
      <trkpt lat="47.25842" lon="-1.62537">
        <ele>80.5</ele>
        <time>2016-11-08T10:08:22Z</time>
      </trkpt>
      <trkpt lat="47.25845" lon="-1.62547">
        <ele>80.7</ele>
        <time>2016-11-08T10:08:28Z</time>
      </trkpt>
      <trkpt lat="47.25848" lon="-1.62558">
        <ele>80.9</ele>
        <time>2016-11-08T10:08:34Z</time>
      </trkpt>
      <trkpt lat="47.25852" lon="-1.62568">
        <ele>81</ele>
        <time>2016-11-08T10:08:41Z</time>
      </trkpt>
      <trkpt lat="47.2586" lon="-1.62573">
        <ele>81.1</ele>
        <time>2016-11-08T10:08:48Z</time>
      </trkpt>
      <trkpt lat="47.25867" lon="-1.62576">
        <ele>81.7</ele>
        <time>2016-11-08T10:08:55Z</time>
      </trkpt>
      <trkpt lat="47.25874" lon="-1.6258">
        <ele>82</ele>
        <time>2016-11-08T10:09:01Z</time>
      </trkpt>
      <trkpt lat="47.25882" lon="-1.62583">
        <ele>82.3</ele>
        <time>2016-11-08T10:09:07Z</time>
      </trkpt>
      <trkpt lat="47.2589" lon="-1.62586">
        <ele>82.5</ele>
        <time>2016-11-08T10:09:16Z</time>
      </trkpt>
      <trkpt lat="47.25899" lon="-1.62588">
        <ele>82.5</ele>
        <time>2016-11-08T10:09:22Z</time>
      </trkpt>
      <trkpt lat="47.25906" lon="-1.62587">
        <ele>82.3</ele>
        <time>2016-11-08T10:09:29Z</time>
      </trkpt>
      <trkpt lat="47.25914" lon="-1.62583">
        <ele>82.2</ele>
        <time>2016-11-08T10:09:36Z</time>
      </trkpt>
      <trkpt lat="47.25922" lon="-1.62577">
        <ele>82.1</ele>
        <time>2016-11-08T10:09:41Z</time>
      </trkpt>
      <trkpt lat="47.25929" lon="-1.62572">
        <ele>82.1</ele>
        <time>2016-11-08T10:09:46Z</time>
      </trkpt>
      <trkpt lat="47.25936" lon="-1.62568">
        <ele>82</ele>
        <time>2016-11-08T10:09:51Z</time>
      </trkpt>
      <trkpt lat="47.25944" lon="-1.62564">
        <ele>82</ele>
        <time>2016-11-08T10:09:57Z</time>
      </trkpt>
      <trkpt lat="47.25951" lon="-1.62559">
        <ele>82</ele>
        <time>2016-11-08T10:10:03Z</time>
      </trkpt>
      <trkpt lat="47.25958" lon="-1.62553">
        <ele>82</ele>
        <time>2016-11-08T10:10:09Z</time>
      </trkpt>
      <trkpt lat="47.25965" lon="-1.62547">
        <ele>81.9</ele>
        <time>2016-11-08T10:10:15Z</time>
      </trkpt>
      <trkpt lat="47.25972" lon="-1.62541">
        <ele>81.9</ele>
        <time>2016-11-08T10:10:21Z</time>
      </trkpt>
      <trkpt lat="47.25979" lon="-1.62535">
        <ele>81.9</ele>
        <time>2016-11-08T10:10:27Z</time>
      </trkpt>
      <trkpt lat="47.25986" lon="-1.6253">
        <ele>81.9</ele>
        <time>2016-11-08T10:10:33Z</time>
      </trkpt>
      <trkpt lat="47.25993" lon="-1.62524">
        <ele>81.9</ele>
        <time>2016-11-08T10:10:39Z</time>
      </trkpt>
      <trkpt lat="47.25999" lon="-1.62518">
        <ele>81.9</ele>
        <time>2016-11-08T10:10:45Z</time>
      </trkpt>
      <trkpt lat="47.26006" lon="-1.62513">
        <ele>81.8</ele>
        <time>2016-11-08T10:10:51Z</time>
      </trkpt>
      <trkpt lat="47.26013" lon="-1.62508">
        <ele>81.7</ele>
        <time>2016-11-08T10:10:57Z</time>
      </trkpt>
      <trkpt lat="47.2602" lon="-1.62502">
        <ele>81.7</ele>
        <time>2016-11-08T10:11:03Z</time>
      </trkpt>
      <trkpt lat="47.26028" lon="-1.62498">
        <ele>81.6</ele>
        <time>2016-11-08T10:11:09Z</time>
      </trkpt>
      <trkpt lat="47.26034" lon="-1.62492">
        <ele>81.5</ele>
        <time>2016-11-08T10:11:15Z</time>
      </trkpt>
      <trkpt lat="47.2604" lon="-1.62487">
        <ele>81.4</ele>
        <time>2016-11-08T10:11:21Z</time>
      </trkpt>
      <trkpt lat="47.26047" lon="-1.62479">
        <ele>81.3</ele>
        <time>2016-11-08T10:11:28Z</time>
      </trkpt>
      <trkpt lat="47.26053" lon="-1.62474">
        <ele>81.2</ele>
        <time>2016-11-08T10:11:33Z</time>
      </trkpt>
      <trkpt lat="47.26059" lon="-1.62466">
        <ele>81.1</ele>
        <time>2016-11-08T10:11:39Z</time>
      </trkpt>
      <trkpt lat="47.26065" lon="-1.62458">
        <ele>81.1</ele>
        <time>2016-11-08T10:11:44Z</time>
      </trkpt>
      <trkpt lat="47.26072" lon="-1.6245">
        <ele>81.1</ele>
        <time>2016-11-08T10:11:50Z</time>
      </trkpt>
      <trkpt lat="47.26078" lon="-1.62444">
        <ele>81</ele>
        <time>2016-11-08T10:11:55Z</time>
      </trkpt>
      <trkpt lat="47.26085" lon="-1.62437">
        <ele>81</ele>
        <time>2016-11-08T10:12:01Z</time>
      </trkpt>
      <trkpt lat="47.26091" lon="-1.6243">
        <ele>81.1</ele>
        <time>2016-11-08T10:12:07Z</time>
      </trkpt>
      <trkpt lat="47.26097" lon="-1.62424">
        <ele>81.2</ele>
        <time>2016-11-08T10:12:13Z</time>
      </trkpt>
      <trkpt lat="47.26104" lon="-1.62418">
        <ele>81.2</ele>
        <time>2016-11-08T10:12:19Z</time>
      </trkpt>
      <trkpt lat="47.2611" lon="-1.62412">
        <ele>81</ele>
        <time>2016-11-08T10:12:26Z</time>
      </trkpt>
      <trkpt lat="47.26112" lon="-1.62424">
        <ele>80.8</ele>
        <time>2016-11-08T10:12:34Z</time>
      </trkpt>
      <trkpt lat="47.26113" lon="-1.62435">
        <ele>80.6</ele>
        <time>2016-11-08T10:12:41Z</time>
      </trkpt>
      <trkpt lat="47.26117" lon="-1.62444">
        <ele>80.5</ele>
        <time>2016-11-08T10:12:48Z</time>
      </trkpt>
      <trkpt lat="47.26123" lon="-1.62451">
        <ele>80.5</ele>
        <time>2016-11-08T10:12:55Z</time>
      </trkpt>
      <trkpt lat="47.2613" lon="-1.62456">
        <ele>80.5</ele>
        <time>2016-11-08T10:13:01Z</time>
      </trkpt>
      <trkpt lat="47.26137" lon="-1.62461">
        <ele>80.7</ele>
        <time>2016-11-08T10:13:08Z</time>
      </trkpt>
      <trkpt lat="47.26145" lon="-1.62465">
        <ele>80.9</ele>
        <time>2016-11-08T10:13:17Z</time>
      </trkpt>
      <trkpt lat="47.26153" lon="-1.62464">
        <ele>80.9</ele>
        <time>2016-11-08T10:13:23Z</time>
      </trkpt>
      <trkpt lat="47.26161" lon="-1.62465">
        <ele>81</ele>
        <time>2016-11-08T10:13:29Z</time>
      </trkpt>
      <trkpt lat="47.26168" lon="-1.62462">
        <ele>81</ele>
        <time>2016-11-08T10:13:34Z</time>
      </trkpt>
      <trkpt lat="47.26175" lon="-1.62459">
        <ele>81.1</ele>
        <time>2016-11-08T10:13:40Z</time>
      </trkpt>
      <trkpt lat="47.26183" lon="-1.62456">
        <ele>81.1</ele>
        <time>2016-11-08T10:13:47Z</time>
      </trkpt>
      <trkpt lat="47.2619" lon="-1.62453">
        <ele>80.9</ele>
        <time>2016-11-08T10:13:53Z</time>
      </trkpt>
      <trkpt lat="47.26198" lon="-1.62447">
        <ele>81.1</ele>
        <time>2016-11-08T10:13:59Z</time>
      </trkpt>
      <trkpt lat="47.26204" lon="-1.62443">
        <ele>81.6</ele>
        <time>2016-11-08T10:14:06Z</time>
      </trkpt>
      <trkpt lat="47.26211" lon="-1.62437">
        <ele>81.7</ele>
        <time>2016-11-08T10:14:14Z</time>
      </trkpt>
      <trkpt lat="47.26217" lon="-1.6243">
        <ele>81.8</ele>
        <time>2016-11-08T10:14:19Z</time>
      </trkpt>
      <trkpt lat="47.26223" lon="-1.62423">
        <ele>81.8</ele>
        <time>2016-11-08T10:14:24Z</time>
      </trkpt>
      <trkpt lat="47.26229" lon="-1.62416">
        <ele>81.8</ele>
        <time>2016-11-08T10:14:30Z</time>
      </trkpt>
      <trkpt lat="47.26234" lon="-1.62406">
        <ele>81.9</ele>
        <time>2016-11-08T10:14:36Z</time>
      </trkpt>
      <trkpt lat="47.26239" lon="-1.62397">
        <ele>82</ele>
        <time>2016-11-08T10:14:42Z</time>
      </trkpt>
      <trkpt lat="47.26244" lon="-1.62387">
        <ele>82.1</ele>
        <time>2016-11-08T10:14:48Z</time>
      </trkpt>
      <trkpt lat="47.26249" lon="-1.62379">
        <ele>82.1</ele>
        <time>2016-11-08T10:14:53Z</time>
      </trkpt>
      <trkpt lat="47.26253" lon="-1.6237">
        <ele>81.9</ele>
        <time>2016-11-08T10:14:58Z</time>
      </trkpt>
      <trkpt lat="47.26259" lon="-1.62362">
        <ele>81.8</ele>
        <time>2016-11-08T10:15:04Z</time>
      </trkpt>
      <trkpt lat="47.26264" lon="-1.62354">
        <ele>81.7</ele>
        <time>2016-11-08T10:15:10Z</time>
      </trkpt>
      <trkpt lat="47.2627" lon="-1.62346">
        <ele>81.7</ele>
        <time>2016-11-08T10:15:16Z</time>
      </trkpt>
      <trkpt lat="47.26275" lon="-1.62339">
        <ele>81.7</ele>
        <time>2016-11-08T10:15:22Z</time>
      </trkpt>
      <trkpt lat="47.26281" lon="-1.62332">
        <ele>81.5</ele>
        <time>2016-11-08T10:15:27Z</time>
      </trkpt>
      <trkpt lat="47.26286" lon="-1.62323">
        <ele>81.3</ele>
        <time>2016-11-08T10:15:33Z</time>
      </trkpt>
      <trkpt lat="47.26293" lon="-1.62315">
        <ele>81.1</ele>
        <time>2016-11-08T10:15:39Z</time>
      </trkpt>
      <trkpt lat="47.26297" lon="-1.62307">
        <ele>81</ele>
        <time>2016-11-08T10:15:44Z</time>
      </trkpt>
      <trkpt lat="47.26303" lon="-1.62299">
        <ele>80.5</ele>
        <time>2016-11-08T10:15:50Z</time>
      </trkpt>
      <trkpt lat="47.2631" lon="-1.62292">
        <ele>79.8</ele>
        <time>2016-11-08T10:15:56Z</time>
      </trkpt>
      <trkpt lat="47.26316" lon="-1.62286">
        <ele>79.2</ele>
        <time>2016-11-08T10:16:02Z</time>
      </trkpt>
      <trkpt lat="47.26322" lon="-1.62279">
        <ele>78.7</ele>
        <time>2016-11-08T10:16:08Z</time>
      </trkpt>
      <trkpt lat="47.26327" lon="-1.62271">
        <ele>77.9</ele>
        <time>2016-11-08T10:16:14Z</time>
      </trkpt>
      <trkpt lat="47.26333" lon="-1.62265">
        <ele>77</ele>
        <time>2016-11-08T10:16:21Z</time>
      </trkpt>
      <trkpt lat="47.26339" lon="-1.62257">
        <ele>76.2</ele>
        <time>2016-11-08T10:16:28Z</time>
      </trkpt>
      <trkpt lat="47.26346" lon="-1.6225">
        <ele>75.5</ele>
        <time>2016-11-08T10:16:35Z</time>
      </trkpt>
      <trkpt lat="47.26353" lon="-1.62246">
        <ele>75.1</ele>
        <time>2016-11-08T10:16:40Z</time>
      </trkpt>
      <trkpt lat="47.2636" lon="-1.62241">
        <ele>74.8</ele>
        <time>2016-11-08T10:16:46Z</time>
      </trkpt>
      <trkpt lat="47.26366" lon="-1.62234">
        <ele>74.5</ele>
        <time>2016-11-08T10:16:52Z</time>
      </trkpt>
      <trkpt lat="47.26373" lon="-1.62228">
        <ele>74.1</ele>
        <time>2016-11-08T10:16:58Z</time>
      </trkpt>
      <trkpt lat="47.26379" lon="-1.62221">
        <ele>73.6</ele>
        <time>2016-11-08T10:17:04Z</time>
      </trkpt>
      <trkpt lat="47.26385" lon="-1.62213">
        <ele>73.1</ele>
        <time>2016-11-08T10:17:10Z</time>
      </trkpt>
      <trkpt lat="47.26391" lon="-1.62206">
        <ele>72.7</ele>
        <time>2016-11-08T10:17:15Z</time>
      </trkpt>
      <trkpt lat="47.26397" lon="-1.622">
        <ele>72.4</ele>
        <time>2016-11-08T10:17:21Z</time>
      </trkpt>
      <trkpt lat="47.26403" lon="-1.62192">
        <ele>71.9</ele>
        <time>2016-11-08T10:17:27Z</time>
      </trkpt>
      <trkpt lat="47.26409" lon="-1.62186">
        <ele>71.5</ele>
        <time>2016-11-08T10:17:33Z</time>
      </trkpt>
      <trkpt lat="47.26414" lon="-1.62178">
        <ele>70.9</ele>
        <time>2016-11-08T10:17:49Z</time>
      </trkpt>
      <trkpt lat="47.26421" lon="-1.62172">
        <ele>70.8</ele>
        <time>2016-11-08T10:17:57Z</time>
      </trkpt>
      <trkpt lat="47.26428" lon="-1.62168">
        <ele>70.6</ele>
        <time>2016-11-08T10:18:04Z</time>
      </trkpt>
      <trkpt lat="47.26436" lon="-1.62167">
        <ele>70.2</ele>
        <time>2016-11-08T10:18:16Z</time>
      </trkpt>
      <trkpt lat="47.26444" lon="-1.62164">
        <ele>69.6</ele>
        <time>2016-11-08T10:18:24Z</time>
      </trkpt>
      <trkpt lat="47.26451" lon="-1.62161">
        <ele>69.2</ele>
        <time>2016-11-08T10:18:31Z</time>
      </trkpt>
      <trkpt lat="47.26459" lon="-1.6216">
        <ele>68.9</ele>
        <time>2016-11-08T10:18:38Z</time>
      </trkpt>
      <trkpt lat="47.26467" lon="-1.62157">
        <ele>68.4</ele>
        <time>2016-11-08T10:18:45Z</time>
      </trkpt>
      <trkpt lat="47.26475" lon="-1.62155">
        <ele>67.3</ele>
        <time>2016-11-08T10:18:52Z</time>
      </trkpt>
      <trkpt lat="47.26483" lon="-1.62154">
        <ele>66.4</ele>
        <time>2016-11-08T10:19:00Z</time>
      </trkpt>
      <trkpt lat="47.26491" lon="-1.62155">
        <ele>65.8</ele>
        <time>2016-11-08T10:19:07Z</time>
      </trkpt>
      <trkpt lat="47.26499" lon="-1.62153">
        <ele>65.4</ele>
        <time>2016-11-08T10:19:14Z</time>
      </trkpt>
      <trkpt lat="47.26507" lon="-1.62152">
        <ele>64.8</ele>
        <time>2016-11-08T10:19:21Z</time>
      </trkpt>
      <trkpt lat="47.26515" lon="-1.6215">
        <ele>64.3</ele>
        <time>2016-11-08T10:19:27Z</time>
      </trkpt>
      <trkpt lat="47.26523" lon="-1.62148">
        <ele>63.8</ele>
        <time>2016-11-08T10:19:33Z</time>
      </trkpt>
      <trkpt lat="47.26531" lon="-1.62149">
        <ele>63.1</ele>
        <time>2016-11-08T10:19:40Z</time>
      </trkpt>
      <trkpt lat="47.26539" lon="-1.6215">
        <ele>62.5</ele>
        <time>2016-11-08T10:19:46Z</time>
      </trkpt>
      <trkpt lat="47.26547" lon="-1.62149">
        <ele>62.1</ele>
        <time>2016-11-08T10:19:53Z</time>
      </trkpt>
      <trkpt lat="47.26555" lon="-1.62149">
        <ele>61.7</ele>
        <time>2016-11-08T10:19:59Z</time>
      </trkpt>
      <trkpt lat="47.26562" lon="-1.62148">
        <ele>61</ele>
        <time>2016-11-08T10:20:06Z</time>
      </trkpt>
      <trkpt lat="47.2657" lon="-1.62147">
        <ele>60.4</ele>
        <time>2016-11-08T10:20:12Z</time>
      </trkpt>
      <trkpt lat="47.26578" lon="-1.62145">
        <ele>59.6</ele>
        <time>2016-11-08T10:20:17Z</time>
      </trkpt>
      <trkpt lat="47.26585" lon="-1.62143">
        <ele>58.8</ele>
        <time>2016-11-08T10:20:22Z</time>
      </trkpt>
      <trkpt lat="47.26593" lon="-1.62141">
        <ele>57.6</ele>
        <time>2016-11-08T10:20:30Z</time>
      </trkpt>
      <trkpt lat="47.26601" lon="-1.62143">
        <ele>56.7</ele>
        <time>2016-11-08T10:20:38Z</time>
      </trkpt>
      <trkpt lat="47.26608" lon="-1.62144">
        <ele>55.5</ele>
        <time>2016-11-08T10:20:45Z</time>
      </trkpt>
      <trkpt lat="47.26617" lon="-1.62144">
        <ele>54.4</ele>
        <time>2016-11-08T10:20:54Z</time>
      </trkpt>
      <trkpt lat="47.26624" lon="-1.62149">
        <ele>53.9</ele>
        <time>2016-11-08T10:21:02Z</time>
      </trkpt>
      <trkpt lat="47.26631" lon="-1.62152">
        <ele>53.2</ele>
        <time>2016-11-08T10:21:09Z</time>
      </trkpt>
      <trkpt lat="47.26639" lon="-1.62156">
        <ele>52.4</ele>
        <time>2016-11-08T10:21:16Z</time>
      </trkpt>
      <trkpt lat="47.26647" lon="-1.6216">
        <ele>51.5</ele>
        <time>2016-11-08T10:21:22Z</time>
      </trkpt>
      <trkpt lat="47.26654" lon="-1.62164">
        <ele>50.8</ele>
        <time>2016-11-08T10:21:28Z</time>
      </trkpt>
      <trkpt lat="47.26661" lon="-1.62168">
        <ele>50.3</ele>
        <time>2016-11-08T10:21:34Z</time>
      </trkpt>
      <trkpt lat="47.26669" lon="-1.62172">
        <ele>49.6</ele>
        <time>2016-11-08T10:21:41Z</time>
      </trkpt>
      <trkpt lat="47.26676" lon="-1.62177">
        <ele>48.8</ele>
        <time>2016-11-08T10:21:48Z</time>
      </trkpt>
      <trkpt lat="47.26684" lon="-1.62183">
        <ele>48.3</ele>
        <time>2016-11-08T10:21:54Z</time>
      </trkpt>
      <trkpt lat="47.2669" lon="-1.6219">
        <ele>47.9</ele>
        <time>2016-11-08T10:21:58Z</time>
      </trkpt>
      <trkpt lat="47.26696" lon="-1.62199">
        <ele>47.4</ele>
        <time>2016-11-08T10:22:03Z</time>
      </trkpt>
      <trkpt lat="47.267" lon="-1.62208">
        <ele>46.9</ele>
        <time>2016-11-08T10:22:08Z</time>
      </trkpt>
      <trkpt lat="47.26703" lon="-1.62219">
        <ele>46.1</ele>
        <time>2016-11-08T10:22:14Z</time>
      </trkpt>
      <trkpt lat="47.26706" lon="-1.6223">
        <ele>45.5</ele>
        <time>2016-11-08T10:22:20Z</time>
      </trkpt>
      <trkpt lat="47.2671" lon="-1.6224">
        <ele>44.8</ele>
        <time>2016-11-08T10:22:26Z</time>
      </trkpt>
      <trkpt lat="47.26713" lon="-1.6225">
        <ele>44.1</ele>
        <time>2016-11-08T10:22:31Z</time>
      </trkpt>
      <trkpt lat="47.26717" lon="-1.6226">
        <ele>43.6</ele>
        <time>2016-11-08T10:22:37Z</time>
      </trkpt>
      <trkpt lat="47.2672" lon="-1.62271">
        <ele>43.1</ele>
        <time>2016-11-08T10:22:45Z</time>
      </trkpt>
      <trkpt lat="47.26724" lon="-1.6228">
        <ele>42.7</ele>
        <time>2016-11-08T10:22:52Z</time>
      </trkpt>
      <trkpt lat="47.26729" lon="-1.62288">
        <ele>42.3</ele>
        <time>2016-11-08T10:22:58Z</time>
      </trkpt>
      <trkpt lat="47.26735" lon="-1.62296">
        <ele>41.9</ele>
        <time>2016-11-08T10:23:05Z</time>
      </trkpt>
      <trkpt lat="47.26742" lon="-1.62301">
        <ele>41.6</ele>
        <time>2016-11-08T10:23:11Z</time>
      </trkpt>
      <trkpt lat="47.26749" lon="-1.62303">
        <ele>41.2</ele>
        <time>2016-11-08T10:23:16Z</time>
      </trkpt>
      <trkpt lat="47.26757" lon="-1.62305">
        <ele>40.9</ele>
        <time>2016-11-08T10:23:22Z</time>
      </trkpt>
      <trkpt lat="47.26764" lon="-1.62307">
        <ele>40.7</ele>
        <time>2016-11-08T10:23:28Z</time>
      </trkpt>
      <trkpt lat="47.26773" lon="-1.62306">
        <ele>40.6</ele>
        <time>2016-11-08T10:23:35Z</time>
      </trkpt>
      <trkpt lat="47.26781" lon="-1.62306">
        <ele>40.5</ele>
        <time>2016-11-08T10:23:41Z</time>
      </trkpt>
      <trkpt lat="47.26788" lon="-1.62307">
        <ele>40.5</ele>
        <time>2016-11-08T10:23:46Z</time>
      </trkpt>
      <trkpt lat="47.26796" lon="-1.6231">
        <ele>40.4</ele>
        <time>2016-11-08T10:23:52Z</time>
      </trkpt>
      <trkpt lat="47.26803" lon="-1.62314">
        <ele>40.4</ele>
        <time>2016-11-08T10:23:58Z</time>
      </trkpt>
      <trkpt lat="47.2681" lon="-1.6232">
        <ele>40.6</ele>
        <time>2016-11-08T10:24:04Z</time>
      </trkpt>
      <trkpt lat="47.26816" lon="-1.62327">
        <ele>40.7</ele>
        <time>2016-11-08T10:24:10Z</time>
      </trkpt>
      <trkpt lat="47.26821" lon="-1.62335">
        <ele>41.2</ele>
        <time>2016-11-08T10:24:16Z</time>
      </trkpt>
      <trkpt lat="47.26826" lon="-1.62345">
        <ele>41.8</ele>
        <time>2016-11-08T10:24:22Z</time>
      </trkpt>
      <trkpt lat="47.26831" lon="-1.62354">
        <ele>42.3</ele>
        <time>2016-11-08T10:24:29Z</time>
      </trkpt>
      <trkpt lat="47.26836" lon="-1.62363">
        <ele>42.9</ele>
        <time>2016-11-08T10:24:35Z</time>
      </trkpt>
      <trkpt lat="47.2684" lon="-1.62372">
        <ele>43.4</ele>
        <time>2016-11-08T10:24:41Z</time>
      </trkpt>
      <trkpt lat="47.26845" lon="-1.62382">
        <ele>43.7</ele>
        <time>2016-11-08T10:24:47Z</time>
      </trkpt>
      <trkpt lat="47.26849" lon="-1.62391">
        <ele>44.1</ele>
        <time>2016-11-08T10:24:53Z</time>
      </trkpt>
      <trkpt lat="47.26854" lon="-1.624">
        <ele>44.8</ele>
        <time>2016-11-08T10:25:01Z</time>
      </trkpt>
      <trkpt lat="47.26859" lon="-1.62408">
        <ele>45.6</ele>
        <time>2016-11-08T10:25:07Z</time>
      </trkpt>
      <trkpt lat="47.26865" lon="-1.62415">
        <ele>46.2</ele>
        <time>2016-11-08T10:25:13Z</time>
      </trkpt>
      <trkpt lat="47.26872" lon="-1.62421">
        <ele>46.6</ele>
        <time>2016-11-08T10:25:19Z</time>
      </trkpt>
      <trkpt lat="47.2688" lon="-1.62425">
        <ele>46.8</ele>
        <time>2016-11-08T10:25:24Z</time>
      </trkpt>
      <trkpt lat="47.26887" lon="-1.62426">
        <ele>47.1</ele>
        <time>2016-11-08T10:25:30Z</time>
      </trkpt>
      <trkpt lat="47.26895" lon="-1.62425">
        <ele>47.3</ele>
        <time>2016-11-08T10:25:36Z</time>
      </trkpt>
      <trkpt lat="47.26902" lon="-1.62428">
        <ele>48</ele>
        <time>2016-11-08T10:25:43Z</time>
      </trkpt>
      <trkpt lat="47.2691" lon="-1.62432">
        <ele>48.3</ele>
        <time>2016-11-08T10:25:49Z</time>
      </trkpt>
      <trkpt lat="47.26917" lon="-1.62435">
        <ele>49.1</ele>
        <time>2016-11-08T10:25:54Z</time>
      </trkpt>
      <trkpt lat="47.26925" lon="-1.62436">
        <ele>49.6</ele>
        <time>2016-11-08T10:25:59Z</time>
      </trkpt>
      <trkpt lat="47.26933" lon="-1.62434">
        <ele>50</ele>
        <time>2016-11-08T10:26:05Z</time>
      </trkpt>
      <trkpt lat="47.2694" lon="-1.6243">
        <ele>50.6</ele>
        <time>2016-11-08T10:26:11Z</time>
      </trkpt>
      <trkpt lat="47.26947" lon="-1.62425">
        <ele>51.3</ele>
        <time>2016-11-08T10:26:17Z</time>
      </trkpt>
      <trkpt lat="47.26955" lon="-1.62423">
        <ele>51.8</ele>
        <time>2016-11-08T10:26:23Z</time>
      </trkpt>
      <trkpt lat="47.26963" lon="-1.62423">
        <ele>52.3</ele>
        <time>2016-11-08T10:26:29Z</time>
      </trkpt>
      <trkpt lat="47.2697" lon="-1.62424">
        <ele>53.4</ele>
        <time>2016-11-08T10:26:37Z</time>
      </trkpt>
      <trkpt lat="47.26977" lon="-1.62427">
        <ele>54.3</ele>
        <time>2016-11-08T10:26:45Z</time>
      </trkpt>
      <trkpt lat="47.26985" lon="-1.62429">
        <ele>55.1</ele>
        <time>2016-11-08T10:26:52Z</time>
      </trkpt>
      <trkpt lat="47.26992" lon="-1.62428">
        <ele>55.8</ele>
        <time>2016-11-08T10:26:57Z</time>
      </trkpt>
      <trkpt lat="47.27" lon="-1.62424">
        <ele>56.5</ele>
        <time>2016-11-08T10:27:03Z</time>
      </trkpt>
      <trkpt lat="47.27005" lon="-1.62417">
        <ele>57.2</ele>
        <time>2016-11-08T10:27:11Z</time>
      </trkpt>
      <trkpt lat="47.27011" lon="-1.6241">
        <ele>57.9</ele>
        <time>2016-11-08T10:27:28Z</time>
      </trkpt>
      <trkpt lat="47.27012" lon="-1.6241">
        <ele>58.1</ele>
        <time>2016-11-08T10:27:37Z</time>
      </trkpt>
    </trkseg>
  </trk>
</gpx>